<?xml version="1.0" encoding="UTF-8" standalone="no" ?>
<gpx xmlns="http://www.topografix.com/GPX/1/1" xmlns:xsi="http://www.w3.org/2001/XMLSchema-instance" xsi:schemaLocation="http://www.topografix.com/GPX/1/1 http://www.topografix.com/GPX/1/1/gpx.xsd" version="1.1" creator="VisuGPX - https://www.visugpx.com">
  <metadata>
    <name>de Nasbinal a St Chely d\'Aubrac</name>
    <desc><![CDATA[Trace AlpineQuest 12/09/2012, 09:27:16]]></desc>
  </metadata>
  <wpt lat="44.66154" lon="3.04533">
    <ele>1229</ele>
    <name><![CDATA[gite nada]]></name>
  </wpt>
  <trk>
    <name><![CDATA[Nasbinal a St Chely d'Aubrac]]></name>
    <trkseg>
      <trkpt lat="44.66154" lon="3.04533">
        <ele>1229</ele>
        <time>2012-09-12T07:27:16Z</time>
      </trkpt>
      <trkpt lat="44.66152" lon="3.0453">
        <ele>1246</ele>
        <time>2012-09-12T07:27:39Z</time>
      </trkpt>
      <trkpt lat="44.66153" lon="3.0452">
        <ele>1223</ele>
        <time>2012-09-12T07:27:59Z</time>
      </trkpt>
      <trkpt lat="44.66157" lon="3.04534">
        <ele>1233</ele>
        <time>2012-09-12T07:28:33Z</time>
      </trkpt>
      <trkpt lat="44.66165" lon="3.04542">
        <ele>1227</ele>
        <time>2012-09-12T07:28:44Z</time>
      </trkpt>
      <trkpt lat="44.66167" lon="3.04545">
        <ele>1230</ele>
        <time>2012-09-12T07:29:01Z</time>
      </trkpt>
      <trkpt lat="44.66174" lon="3.04554">
        <ele>1222</ele>
        <time>2012-09-12T07:29:12Z</time>
      </trkpt>
      <trkpt lat="44.6618" lon="3.04561">
        <ele>1227</ele>
        <time>2012-09-12T07:29:24Z</time>
      </trkpt>
      <trkpt lat="44.66186" lon="3.04577">
        <ele>1223</ele>
        <time>2012-09-12T07:29:40Z</time>
      </trkpt>
      <trkpt lat="44.66179" lon="3.04598">
        <ele>1238</ele>
        <time>2012-09-12T07:29:55Z</time>
      </trkpt>
      <trkpt lat="44.66179" lon="3.04618">
        <ele>1223</ele>
        <time>2012-09-12T07:30:05Z</time>
      </trkpt>
      <trkpt lat="44.6619" lon="3.04632">
        <ele>1224</ele>
        <time>2012-09-12T07:30:18Z</time>
      </trkpt>
      <trkpt lat="44.66201" lon="3.04641">
        <ele>1222</ele>
        <time>2012-09-12T07:30:28Z</time>
      </trkpt>
      <trkpt lat="44.66212" lon="3.0465">
        <ele>1229</ele>
        <time>2012-09-12T07:30:40Z</time>
      </trkpt>
      <trkpt lat="44.66223" lon="3.04661">
        <ele>1228</ele>
        <time>2012-09-12T07:30:52Z</time>
      </trkpt>
      <trkpt lat="44.6623" lon="3.04668">
        <ele>1222</ele>
        <time>2012-09-12T07:31:04Z</time>
      </trkpt>
      <trkpt lat="44.66242" lon="3.04676">
        <ele>1231</ele>
        <time>2012-09-12T07:31:17Z</time>
      </trkpt>
      <trkpt lat="44.66254" lon="3.04665">
        <ele>1230</ele>
        <time>2012-09-12T07:31:30Z</time>
      </trkpt>
      <trkpt lat="44.66256" lon="3.04649">
        <ele>1230</ele>
        <time>2012-09-12T07:31:42Z</time>
      </trkpt>
      <trkpt lat="44.66257" lon="3.0463">
        <ele>1236</ele>
        <time>2012-09-12T07:31:54Z</time>
      </trkpt>
      <trkpt lat="44.6626" lon="3.04613">
        <ele>1233</ele>
        <time>2012-09-12T07:32:05Z</time>
      </trkpt>
      <trkpt lat="44.66261" lon="3.04595">
        <ele>1234</ele>
        <time>2012-09-12T07:32:18Z</time>
      </trkpt>
      <trkpt lat="44.6626" lon="3.04577">
        <ele>1234</ele>
        <time>2012-09-12T07:32:30Z</time>
      </trkpt>
      <trkpt lat="44.66259" lon="3.04558">
        <ele>1239</ele>
        <time>2012-09-12T07:32:41Z</time>
      </trkpt>
      <trkpt lat="44.66259" lon="3.04541">
        <ele>1230</ele>
        <time>2012-09-12T07:32:52Z</time>
      </trkpt>
      <trkpt lat="44.66262" lon="3.04523">
        <ele>1245</ele>
        <time>2012-09-12T07:33:02Z</time>
      </trkpt>
      <trkpt lat="44.66266" lon="3.04503">
        <ele>1249</ele>
        <time>2012-09-12T07:33:15Z</time>
      </trkpt>
      <trkpt lat="44.66269" lon="3.04486">
        <ele>1245</ele>
        <time>2012-09-12T07:33:28Z</time>
      </trkpt>
      <trkpt lat="44.66269" lon="3.04468">
        <ele>1244</ele>
        <time>2012-09-12T07:33:40Z</time>
      </trkpt>
      <trkpt lat="44.66266" lon="3.04448">
        <ele>1240</ele>
        <time>2012-09-12T07:33:52Z</time>
      </trkpt>
      <trkpt lat="44.66266" lon="3.04431">
        <ele>1244</ele>
        <time>2012-09-12T07:34:04Z</time>
      </trkpt>
      <trkpt lat="44.66265" lon="3.04415">
        <ele>1241</ele>
        <time>2012-09-12T07:34:15Z</time>
      </trkpt>
      <trkpt lat="44.66263" lon="3.04401">
        <ele>1238</ele>
        <time>2012-09-12T07:34:25Z</time>
      </trkpt>
      <trkpt lat="44.66261" lon="3.04384">
        <ele>1241</ele>
        <time>2012-09-12T07:34:37Z</time>
      </trkpt>
      <trkpt lat="44.6627" lon="3.04372">
        <ele>1260</ele>
        <time>2012-09-12T07:34:49Z</time>
      </trkpt>
      <trkpt lat="44.66262" lon="3.04354">
        <ele>1241</ele>
        <time>2012-09-12T07:34:59Z</time>
      </trkpt>
      <trkpt lat="44.66251" lon="3.04334">
        <ele>1246</ele>
        <time>2012-09-12T07:35:14Z</time>
      </trkpt>
      <trkpt lat="44.66233" lon="3.04313">
        <ele>1239</ele>
        <time>2012-09-12T07:35:26Z</time>
      </trkpt>
      <trkpt lat="44.66224" lon="3.04301">
        <ele>1236</ele>
        <time>2012-09-12T07:35:37Z</time>
      </trkpt>
      <trkpt lat="44.66215" lon="3.04288">
        <ele>1239</ele>
        <time>2012-09-12T07:35:48Z</time>
      </trkpt>
      <trkpt lat="44.66203" lon="3.04273">
        <ele>1235</ele>
        <time>2012-09-12T07:36:00Z</time>
      </trkpt>
      <trkpt lat="44.66195" lon="3.04258">
        <ele>1231</ele>
        <time>2012-09-12T07:36:12Z</time>
      </trkpt>
      <trkpt lat="44.66184" lon="3.04241">
        <ele>1231</ele>
        <time>2012-09-12T07:36:24Z</time>
      </trkpt>
      <trkpt lat="44.66175" lon="3.04228">
        <ele>1238</ele>
        <time>2012-09-12T07:36:34Z</time>
      </trkpt>
      <trkpt lat="44.66167" lon="3.04213">
        <ele>1233</ele>
        <time>2012-09-12T07:36:48Z</time>
      </trkpt>
      <trkpt lat="44.66163" lon="3.04207">
        <ele>1236</ele>
        <time>2012-09-12T07:36:59Z</time>
      </trkpt>
      <trkpt lat="44.66156" lon="3.04195">
        <ele>1239</ele>
        <time>2012-09-12T07:37:10Z</time>
      </trkpt>
      <trkpt lat="44.66145" lon="3.0418">
        <ele>1234</ele>
        <time>2012-09-12T07:37:23Z</time>
      </trkpt>
      <trkpt lat="44.66138" lon="3.0417">
        <ele>1237</ele>
        <time>2012-09-12T07:37:36Z</time>
      </trkpt>
      <trkpt lat="44.66127" lon="3.04155">
        <ele>1232</ele>
        <time>2012-09-12T07:37:49Z</time>
      </trkpt>
      <trkpt lat="44.66117" lon="3.04142">
        <ele>1234</ele>
        <time>2012-09-12T07:38:00Z</time>
      </trkpt>
      <trkpt lat="44.6611" lon="3.04128">
        <ele>1233</ele>
        <time>2012-09-12T07:38:12Z</time>
      </trkpt>
      <trkpt lat="44.66102" lon="3.04119">
        <ele>1230</ele>
        <time>2012-09-12T07:38:23Z</time>
      </trkpt>
      <trkpt lat="44.66091" lon="3.04105">
        <ele>1230</ele>
        <time>2012-09-12T07:38:35Z</time>
      </trkpt>
      <trkpt lat="44.66082" lon="3.04091">
        <ele>1234</ele>
        <time>2012-09-12T07:38:46Z</time>
      </trkpt>
      <trkpt lat="44.66072" lon="3.04077">
        <ele>1233</ele>
        <time>2012-09-12T07:38:57Z</time>
      </trkpt>
      <trkpt lat="44.66063" lon="3.04064">
        <ele>1234</ele>
        <time>2012-09-12T07:39:09Z</time>
      </trkpt>
      <trkpt lat="44.66053" lon="3.0405">
        <ele>1236</ele>
        <time>2012-09-12T07:39:20Z</time>
      </trkpt>
      <trkpt lat="44.66045" lon="3.0404">
        <ele>1236</ele>
        <time>2012-09-12T07:39:30Z</time>
      </trkpt>
      <trkpt lat="44.66037" lon="3.04028">
        <ele>1236</ele>
        <time>2012-09-12T07:39:41Z</time>
      </trkpt>
      <trkpt lat="44.66029" lon="3.0402">
        <ele>1237</ele>
        <time>2012-09-12T07:39:51Z</time>
      </trkpt>
      <trkpt lat="44.66027" lon="3.04008">
        <ele>1239</ele>
        <time>2012-09-12T07:40:03Z</time>
      </trkpt>
      <trkpt lat="44.66024" lon="3.03996">
        <ele>1240</ele>
        <time>2012-09-12T07:40:25Z</time>
      </trkpt>
      <trkpt lat="44.66026" lon="3.04">
        <ele>1236</ele>
        <time>2012-09-12T07:41:06Z</time>
      </trkpt>
      <trkpt lat="44.66022" lon="3.03999">
        <ele>1240</ele>
        <time>2012-09-12T07:41:54Z</time>
      </trkpt>
      <trkpt lat="44.66022" lon="3.04005">
        <ele>1224</ele>
        <time>2012-09-12T07:42:10Z</time>
      </trkpt>
      <trkpt lat="44.66025" lon="3.04002">
        <ele>1240</ele>
        <time>2012-09-12T07:43:13Z</time>
      </trkpt>
      <trkpt lat="44.66022" lon="3.04001">
        <ele>1238</ele>
        <time>2012-09-12T07:43:50Z</time>
      </trkpt>
      <trkpt lat="44.6602" lon="3.03998">
        <ele>1236</ele>
        <time>2012-09-12T07:44:31Z</time>
      </trkpt>
      <trkpt lat="44.66023" lon="3.03997">
        <ele>1240</ele>
        <time>2012-09-12T07:45:04Z</time>
      </trkpt>
      <trkpt lat="44.6603" lon="3.0398">
        <ele>1238</ele>
        <time>2012-09-12T07:45:16Z</time>
      </trkpt>
      <trkpt lat="44.66035" lon="3.03964">
        <ele>1242</ele>
        <time>2012-09-12T07:45:28Z</time>
      </trkpt>
      <trkpt lat="44.66039" lon="3.03951">
        <ele>1234</ele>
        <time>2012-09-12T07:45:38Z</time>
      </trkpt>
      <trkpt lat="44.66045" lon="3.03934">
        <ele>1242</ele>
        <time>2012-09-12T07:45:50Z</time>
      </trkpt>
      <trkpt lat="44.66051" lon="3.03918">
        <ele>1246</ele>
        <time>2012-09-12T07:46:03Z</time>
      </trkpt>
      <trkpt lat="44.6606" lon="3.03903">
        <ele>1249</ele>
        <time>2012-09-12T07:46:15Z</time>
      </trkpt>
      <trkpt lat="44.66069" lon="3.03889">
        <ele>1248</ele>
        <time>2012-09-12T07:46:28Z</time>
      </trkpt>
      <trkpt lat="44.66075" lon="3.0388">
        <ele>1244</ele>
        <time>2012-09-12T07:46:39Z</time>
      </trkpt>
      <trkpt lat="44.66083" lon="3.03872">
        <ele>1244</ele>
        <time>2012-09-12T07:46:50Z</time>
      </trkpt>
      <trkpt lat="44.66089" lon="3.03859">
        <ele>1253</ele>
        <time>2012-09-12T07:47:01Z</time>
      </trkpt>
      <trkpt lat="44.66097" lon="3.03849">
        <ele>1253</ele>
        <time>2012-09-12T07:47:14Z</time>
      </trkpt>
      <trkpt lat="44.66109" lon="3.03842">
        <ele>1252</ele>
        <time>2012-09-12T07:47:27Z</time>
      </trkpt>
      <trkpt lat="44.66118" lon="3.03837">
        <ele>1250</ele>
        <time>2012-09-12T07:47:38Z</time>
      </trkpt>
      <trkpt lat="44.66129" lon="3.03833">
        <ele>1254</ele>
        <time>2012-09-12T07:47:49Z</time>
      </trkpt>
      <trkpt lat="44.66132" lon="3.03817">
        <ele>1251</ele>
        <time>2012-09-12T07:48:01Z</time>
      </trkpt>
      <trkpt lat="44.66127" lon="3.03805">
        <ele>1259</ele>
        <time>2012-09-12T07:48:12Z</time>
      </trkpt>
      <trkpt lat="44.66119" lon="3.03795">
        <ele>1262</ele>
        <time>2012-09-12T07:48:23Z</time>
      </trkpt>
      <trkpt lat="44.66117" lon="3.03786">
        <ele>1261</ele>
        <time>2012-09-12T07:48:34Z</time>
      </trkpt>
      <trkpt lat="44.66113" lon="3.03776">
        <ele>1256</ele>
        <time>2012-09-12T07:48:48Z</time>
      </trkpt>
      <trkpt lat="44.66105" lon="3.03762">
        <ele>1255</ele>
        <time>2012-09-12T07:48:59Z</time>
      </trkpt>
      <trkpt lat="44.66098" lon="3.03744">
        <ele>1253</ele>
        <time>2012-09-12T07:49:11Z</time>
      </trkpt>
      <trkpt lat="44.66093" lon="3.03729">
        <ele>1256</ele>
        <time>2012-09-12T07:49:23Z</time>
      </trkpt>
      <trkpt lat="44.6609" lon="3.03717">
        <ele>1261</ele>
        <time>2012-09-12T07:49:34Z</time>
      </trkpt>
      <trkpt lat="44.66078" lon="3.03708">
        <ele>1257</ele>
        <time>2012-09-12T07:49:45Z</time>
      </trkpt>
      <trkpt lat="44.66068" lon="3.03703">
        <ele>1259</ele>
        <time>2012-09-12T07:49:55Z</time>
      </trkpt>
      <trkpt lat="44.66056" lon="3.03696">
        <ele>1258</ele>
        <time>2012-09-12T07:50:07Z</time>
      </trkpt>
      <trkpt lat="44.66043" lon="3.03692">
        <ele>1259</ele>
        <time>2012-09-12T07:50:18Z</time>
      </trkpt>
      <trkpt lat="44.66031" lon="3.03689">
        <ele>1259</ele>
        <time>2012-09-12T07:50:30Z</time>
      </trkpt>
      <trkpt lat="44.66018" lon="3.03686">
        <ele>1261</ele>
        <time>2012-09-12T07:50:41Z</time>
      </trkpt>
      <trkpt lat="44.66006" lon="3.03681">
        <ele>1264</ele>
        <time>2012-09-12T07:50:53Z</time>
      </trkpt>
      <trkpt lat="44.65992" lon="3.03679">
        <ele>1263</ele>
        <time>2012-09-12T07:51:06Z</time>
      </trkpt>
      <trkpt lat="44.65979" lon="3.03676">
        <ele>1263</ele>
        <time>2012-09-12T07:51:18Z</time>
      </trkpt>
      <trkpt lat="44.65967" lon="3.03673">
        <ele>1263</ele>
        <time>2012-09-12T07:51:30Z</time>
      </trkpt>
      <trkpt lat="44.65954" lon="3.03667">
        <ele>1264</ele>
        <time>2012-09-12T07:51:41Z</time>
      </trkpt>
      <trkpt lat="44.65943" lon="3.0366">
        <ele>1264</ele>
        <time>2012-09-12T07:51:54Z</time>
      </trkpt>
      <trkpt lat="44.65942" lon="3.03656">
        <ele>1266</ele>
        <time>2012-09-12T07:54:02Z</time>
      </trkpt>
      <trkpt lat="44.65939" lon="3.03638">
        <ele>1266</ele>
        <time>2012-09-12T07:54:14Z</time>
      </trkpt>
      <trkpt lat="44.65932" lon="3.0362">
        <ele>1267</ele>
        <time>2012-09-12T07:54:26Z</time>
      </trkpt>
      <trkpt lat="44.65927" lon="3.03608">
        <ele>1265</ele>
        <time>2012-09-12T07:54:36Z</time>
      </trkpt>
      <trkpt lat="44.65922" lon="3.0359">
        <ele>1268</ele>
        <time>2012-09-12T07:54:47Z</time>
      </trkpt>
      <trkpt lat="44.65917" lon="3.03572">
        <ele>1268</ele>
        <time>2012-09-12T07:54:59Z</time>
      </trkpt>
      <trkpt lat="44.65911" lon="3.03557">
        <ele>1269</ele>
        <time>2012-09-12T07:55:09Z</time>
      </trkpt>
      <trkpt lat="44.65907" lon="3.03541">
        <ele>1272</ele>
        <time>2012-09-12T07:55:20Z</time>
      </trkpt>
      <trkpt lat="44.65899" lon="3.03525">
        <ele>1269</ele>
        <time>2012-09-12T07:55:33Z</time>
      </trkpt>
      <trkpt lat="44.65892" lon="3.03509">
        <ele>1270</ele>
        <time>2012-09-12T07:55:44Z</time>
      </trkpt>
      <trkpt lat="44.65887" lon="3.03494">
        <ele>1271</ele>
        <time>2012-09-12T07:55:57Z</time>
      </trkpt>
      <trkpt lat="44.6588" lon="3.03476">
        <ele>1271</ele>
        <time>2012-09-12T07:56:09Z</time>
      </trkpt>
      <trkpt lat="44.65874" lon="3.03458">
        <ele>1270</ele>
        <time>2012-09-12T07:56:21Z</time>
      </trkpt>
      <trkpt lat="44.65868" lon="3.03444">
        <ele>1269</ele>
        <time>2012-09-12T07:56:31Z</time>
      </trkpt>
      <trkpt lat="44.65864" lon="3.03426">
        <ele>1268</ele>
        <time>2012-09-12T07:56:43Z</time>
      </trkpt>
      <trkpt lat="44.65858" lon="3.03406">
        <ele>1269</ele>
        <time>2012-09-12T07:56:55Z</time>
      </trkpt>
      <trkpt lat="44.65854" lon="3.03389">
        <ele>1269</ele>
        <time>2012-09-12T07:57:06Z</time>
      </trkpt>
      <trkpt lat="44.65848" lon="3.03371">
        <ele>1271</ele>
        <time>2012-09-12T07:57:18Z</time>
      </trkpt>
      <trkpt lat="44.65843" lon="3.03354">
        <ele>1271</ele>
        <time>2012-09-12T07:57:28Z</time>
      </trkpt>
      <trkpt lat="44.65839" lon="3.03335">
        <ele>1270</ele>
        <time>2012-09-12T07:57:40Z</time>
      </trkpt>
      <trkpt lat="44.65834" lon="3.03317">
        <ele>1270</ele>
        <time>2012-09-12T07:57:51Z</time>
      </trkpt>
      <trkpt lat="44.65829" lon="3.03302">
        <ele>1271</ele>
        <time>2012-09-12T07:58:03Z</time>
      </trkpt>
      <trkpt lat="44.65823" lon="3.03285">
        <ele>1269</ele>
        <time>2012-09-12T07:58:14Z</time>
      </trkpt>
      <trkpt lat="44.65819" lon="3.03266">
        <ele>1271</ele>
        <time>2012-09-12T07:58:26Z</time>
      </trkpt>
      <trkpt lat="44.65817" lon="3.03248">
        <ele>1268</ele>
        <time>2012-09-12T07:58:37Z</time>
      </trkpt>
      <trkpt lat="44.65816" lon="3.03229">
        <ele>1270</ele>
        <time>2012-09-12T07:58:49Z</time>
      </trkpt>
      <trkpt lat="44.65817" lon="3.03209">
        <ele>1269</ele>
        <time>2012-09-12T07:59:01Z</time>
      </trkpt>
      <trkpt lat="44.65817" lon="3.03189">
        <ele>1269</ele>
        <time>2012-09-12T07:59:13Z</time>
      </trkpt>
      <trkpt lat="44.65819" lon="3.03169">
        <ele>1267</ele>
        <time>2012-09-12T07:59:52Z</time>
      </trkpt>
      <trkpt lat="44.65821" lon="3.0315">
        <ele>1268</ele>
        <time>2012-09-12T08:00:04Z</time>
      </trkpt>
      <trkpt lat="44.65822" lon="3.03131">
        <ele>1267</ele>
        <time>2012-09-12T08:00:15Z</time>
      </trkpt>
      <trkpt lat="44.65824" lon="3.03111">
        <ele>1265</ele>
        <time>2012-09-12T08:00:27Z</time>
      </trkpt>
      <trkpt lat="44.65823" lon="3.03088">
        <ele>1264</ele>
        <time>2012-09-12T08:00:40Z</time>
      </trkpt>
      <trkpt lat="44.6582" lon="3.03069">
        <ele>1266</ele>
        <time>2012-09-12T08:00:52Z</time>
      </trkpt>
      <trkpt lat="44.65818" lon="3.03049">
        <ele>1266</ele>
        <time>2012-09-12T08:01:04Z</time>
      </trkpt>
      <trkpt lat="44.65813" lon="3.0303">
        <ele>1264</ele>
        <time>2012-09-12T08:01:16Z</time>
      </trkpt>
      <trkpt lat="44.65807" lon="3.03012">
        <ele>1265</ele>
        <time>2012-09-12T08:01:27Z</time>
      </trkpt>
      <trkpt lat="44.65804" lon="3.02994">
        <ele>1262</ele>
        <time>2012-09-12T08:01:38Z</time>
      </trkpt>
      <trkpt lat="44.65804" lon="3.02977">
        <ele>1259</ele>
        <time>2012-09-12T08:01:50Z</time>
      </trkpt>
      <trkpt lat="44.65799" lon="3.02958">
        <ele>1260</ele>
        <time>2012-09-12T08:02:02Z</time>
      </trkpt>
      <trkpt lat="44.65794" lon="3.02941">
        <ele>1259</ele>
        <time>2012-09-12T08:02:14Z</time>
      </trkpt>
      <trkpt lat="44.65786" lon="3.02926">
        <ele>1259</ele>
        <time>2012-09-12T08:02:27Z</time>
      </trkpt>
      <trkpt lat="44.65776" lon="3.0291">
        <ele>1258</ele>
        <time>2012-09-12T08:02:40Z</time>
      </trkpt>
      <trkpt lat="44.65765" lon="3.02897">
        <ele>1262</ele>
        <time>2012-09-12T08:02:52Z</time>
      </trkpt>
      <trkpt lat="44.65757" lon="3.02884">
        <ele>1263</ele>
        <time>2012-09-12T08:03:04Z</time>
      </trkpt>
      <trkpt lat="44.65749" lon="3.02871">
        <ele>1264</ele>
        <time>2012-09-12T08:03:16Z</time>
      </trkpt>
      <trkpt lat="44.65739" lon="3.02855">
        <ele>1264</ele>
        <time>2012-09-12T08:03:28Z</time>
      </trkpt>
      <trkpt lat="44.65731" lon="3.02843">
        <ele>1262</ele>
        <time>2012-09-12T08:03:38Z</time>
      </trkpt>
      <trkpt lat="44.65721" lon="3.02826">
        <ele>1263</ele>
        <time>2012-09-12T08:03:51Z</time>
      </trkpt>
      <trkpt lat="44.65717" lon="3.02808">
        <ele>1264</ele>
        <time>2012-09-12T08:04:04Z</time>
      </trkpt>
      <trkpt lat="44.65715" lon="3.02789">
        <ele>1266</ele>
        <time>2012-09-12T08:04:16Z</time>
      </trkpt>
      <trkpt lat="44.65713" lon="3.02771">
        <ele>1264</ele>
        <time>2012-09-12T08:04:28Z</time>
      </trkpt>
      <trkpt lat="44.65709" lon="3.0275">
        <ele>1265</ele>
        <time>2012-09-12T08:04:40Z</time>
      </trkpt>
      <trkpt lat="44.65704" lon="3.02733">
        <ele>1264</ele>
        <time>2012-09-12T08:04:51Z</time>
      </trkpt>
      <trkpt lat="44.65701" lon="3.02716">
        <ele>1265</ele>
        <time>2012-09-12T08:05:02Z</time>
      </trkpt>
      <trkpt lat="44.65696" lon="3.02697">
        <ele>1266</ele>
        <time>2012-09-12T08:05:14Z</time>
      </trkpt>
      <trkpt lat="44.65696" lon="3.02678">
        <ele>1264</ele>
        <time>2012-09-12T08:05:26Z</time>
      </trkpt>
      <trkpt lat="44.65694" lon="3.0266">
        <ele>1267</ele>
        <time>2012-09-12T08:05:38Z</time>
      </trkpt>
      <trkpt lat="44.65688" lon="3.02642">
        <ele>1270</ele>
        <time>2012-09-12T08:05:51Z</time>
      </trkpt>
      <trkpt lat="44.6568" lon="3.0263">
        <ele>1272</ele>
        <time>2012-09-12T08:06:04Z</time>
      </trkpt>
      <trkpt lat="44.6567" lon="3.02619">
        <ele>1273</ele>
        <time>2012-09-12T08:06:17Z</time>
      </trkpt>
      <trkpt lat="44.65664" lon="3.02609">
        <ele>1276</ele>
        <time>2012-09-12T08:06:27Z</time>
      </trkpt>
      <trkpt lat="44.65658" lon="3.02598">
        <ele>1272</ele>
        <time>2012-09-12T08:06:37Z</time>
      </trkpt>
      <trkpt lat="44.65654" lon="3.02586">
        <ele>1279</ele>
        <time>2012-09-12T08:06:48Z</time>
      </trkpt>
      <trkpt lat="44.65649" lon="3.0257">
        <ele>1283</ele>
        <time>2012-09-12T08:07:00Z</time>
      </trkpt>
      <trkpt lat="44.65646" lon="3.02556">
        <ele>1279</ele>
        <time>2012-09-12T08:07:12Z</time>
      </trkpt>
      <trkpt lat="44.65637" lon="3.02541">
        <ele>1279</ele>
        <time>2012-09-12T08:07:24Z</time>
      </trkpt>
      <trkpt lat="44.65627" lon="3.02529">
        <ele>1284</ele>
        <time>2012-09-12T08:07:36Z</time>
      </trkpt>
      <trkpt lat="44.65623" lon="3.02518">
        <ele>1284</ele>
        <time>2012-09-12T08:07:47Z</time>
      </trkpt>
      <trkpt lat="44.65619" lon="3.02507">
        <ele>1284</ele>
        <time>2012-09-12T08:07:59Z</time>
      </trkpt>
      <trkpt lat="44.65614" lon="3.02489">
        <ele>1289</ele>
        <time>2012-09-12T08:08:11Z</time>
      </trkpt>
      <trkpt lat="44.65614" lon="3.02474">
        <ele>1287</ele>
        <time>2012-09-12T08:08:22Z</time>
      </trkpt>
      <trkpt lat="44.65611" lon="3.02457">
        <ele>1284</ele>
        <time>2012-09-12T08:08:34Z</time>
      </trkpt>
      <trkpt lat="44.65609" lon="3.02439">
        <ele>1285</ele>
        <time>2012-09-12T08:08:46Z</time>
      </trkpt>
      <trkpt lat="44.65611" lon="3.02422">
        <ele>1287</ele>
        <time>2012-09-12T08:08:58Z</time>
      </trkpt>
      <trkpt lat="44.65609" lon="3.02405">
        <ele>1289</ele>
        <time>2012-09-12T08:09:11Z</time>
      </trkpt>
      <trkpt lat="44.65608" lon="3.02393">
        <ele>1290</ele>
        <time>2012-09-12T08:09:22Z</time>
      </trkpt>
      <trkpt lat="44.65598" lon="3.0238">
        <ele>1287</ele>
        <time>2012-09-12T08:09:35Z</time>
      </trkpt>
      <trkpt lat="44.65593" lon="3.02369">
        <ele>1289</ele>
        <time>2012-09-12T08:09:45Z</time>
      </trkpt>
      <trkpt lat="44.65588" lon="3.02358">
        <ele>1288</ele>
        <time>2012-09-12T08:09:57Z</time>
      </trkpt>
      <trkpt lat="44.65583" lon="3.02347">
        <ele>1294</ele>
        <time>2012-09-12T08:10:07Z</time>
      </trkpt>
      <trkpt lat="44.65578" lon="3.0233">
        <ele>1297</ele>
        <time>2012-09-12T08:10:19Z</time>
      </trkpt>
      <trkpt lat="44.65575" lon="3.02317">
        <ele>1295</ele>
        <time>2012-09-12T08:10:29Z</time>
      </trkpt>
      <trkpt lat="44.65575" lon="3.02299">
        <ele>1296</ele>
        <time>2012-09-12T08:10:41Z</time>
      </trkpt>
      <trkpt lat="44.65573" lon="3.02282">
        <ele>1294</ele>
        <time>2012-09-12T08:10:52Z</time>
      </trkpt>
      <trkpt lat="44.65572" lon="3.02268">
        <ele>1296</ele>
        <time>2012-09-12T08:11:03Z</time>
      </trkpt>
      <trkpt lat="44.65574" lon="3.02253">
        <ele>1308</ele>
        <time>2012-09-12T08:11:14Z</time>
      </trkpt>
      <trkpt lat="44.65569" lon="3.02232">
        <ele>1302</ele>
        <time>2012-09-12T08:11:25Z</time>
      </trkpt>
      <trkpt lat="44.65574" lon="3.02219">
        <ele>1298</ele>
        <time>2012-09-12T08:11:36Z</time>
      </trkpt>
      <trkpt lat="44.6556" lon="3.02195">
        <ele>1292</ele>
        <time>2012-09-12T08:11:48Z</time>
      </trkpt>
      <trkpt lat="44.65554" lon="3.02178">
        <ele>1302</ele>
        <time>2012-09-12T08:12:00Z</time>
      </trkpt>
      <trkpt lat="44.65556" lon="3.02162">
        <ele>1306</ele>
        <time>2012-09-12T08:12:25Z</time>
      </trkpt>
      <trkpt lat="44.65559" lon="3.02159">
        <ele>1304</ele>
        <time>2012-09-12T08:12:44Z</time>
      </trkpt>
      <trkpt lat="44.65554" lon="3.02142">
        <ele>1297</ele>
        <time>2012-09-12T08:12:54Z</time>
      </trkpt>
      <trkpt lat="44.65554" lon="3.02127">
        <ele>1298</ele>
        <time>2012-09-12T08:13:05Z</time>
      </trkpt>
      <trkpt lat="44.65557" lon="3.02109">
        <ele>1299</ele>
        <time>2012-09-12T08:13:16Z</time>
      </trkpt>
      <trkpt lat="44.65566" lon="3.02091">
        <ele>1284</ele>
        <time>2012-09-12T08:13:27Z</time>
      </trkpt>
      <trkpt lat="44.65573" lon="3.02077">
        <ele>1281</ele>
        <time>2012-09-12T08:13:37Z</time>
      </trkpt>
      <trkpt lat="44.65579" lon="3.0206">
        <ele>1291</ele>
        <time>2012-09-12T08:13:48Z</time>
      </trkpt>
      <trkpt lat="44.65587" lon="3.02044">
        <ele>1296</ele>
        <time>2012-09-12T08:13:59Z</time>
      </trkpt>
      <trkpt lat="44.65591" lon="3.02028">
        <ele>1290</ele>
        <time>2012-09-12T08:14:09Z</time>
      </trkpt>
      <trkpt lat="44.6559" lon="3.02014">
        <ele>1284</ele>
        <time>2012-09-12T08:14:19Z</time>
      </trkpt>
      <trkpt lat="44.65591" lon="3.01998">
        <ele>1289</ele>
        <time>2012-09-12T08:14:32Z</time>
      </trkpt>
      <trkpt lat="44.65581" lon="3.01981">
        <ele>1288</ele>
        <time>2012-09-12T08:14:43Z</time>
      </trkpt>
      <trkpt lat="44.65578" lon="3.01968">
        <ele>1289</ele>
        <time>2012-09-12T08:14:53Z</time>
      </trkpt>
      <trkpt lat="44.6557" lon="3.01952">
        <ele>1288</ele>
        <time>2012-09-12T08:15:04Z</time>
      </trkpt>
      <trkpt lat="44.65569" lon="3.01936">
        <ele>1294</ele>
        <time>2012-09-12T08:15:18Z</time>
      </trkpt>
      <trkpt lat="44.65566" lon="3.01925">
        <ele>1299</ele>
        <time>2012-09-12T08:15:32Z</time>
      </trkpt>
      <trkpt lat="44.65553" lon="3.01904">
        <ele>1289</ele>
        <time>2012-09-12T08:15:43Z</time>
      </trkpt>
      <trkpt lat="44.65551" lon="3.01884">
        <ele>1291</ele>
        <time>2012-09-12T08:15:55Z</time>
      </trkpt>
      <trkpt lat="44.65544" lon="3.01862">
        <ele>1287</ele>
        <time>2012-09-12T08:16:06Z</time>
      </trkpt>
      <trkpt lat="44.65541" lon="3.01844">
        <ele>1290</ele>
        <time>2012-09-12T08:16:17Z</time>
      </trkpt>
      <trkpt lat="44.65533" lon="3.0183">
        <ele>1291</ele>
        <time>2012-09-12T08:16:27Z</time>
      </trkpt>
      <trkpt lat="44.65533" lon="3.01814">
        <ele>1276</ele>
        <time>2012-09-12T08:16:38Z</time>
      </trkpt>
      <trkpt lat="44.65533" lon="3.01796">
        <ele>1277</ele>
        <time>2012-09-12T08:16:50Z</time>
      </trkpt>
      <trkpt lat="44.65532" lon="3.01778">
        <ele>1278</ele>
        <time>2012-09-12T08:17:02Z</time>
      </trkpt>
      <trkpt lat="44.65532" lon="3.01759">
        <ele>1286</ele>
        <time>2012-09-12T08:17:14Z</time>
      </trkpt>
      <trkpt lat="44.65532" lon="3.01739">
        <ele>1283</ele>
        <time>2012-09-12T08:17:26Z</time>
      </trkpt>
      <trkpt lat="44.65533" lon="3.01721">
        <ele>1278</ele>
        <time>2012-09-12T08:17:37Z</time>
      </trkpt>
      <trkpt lat="44.65534" lon="3.01702">
        <ele>1280</ele>
        <time>2012-09-12T08:17:49Z</time>
      </trkpt>
      <trkpt lat="44.65532" lon="3.01684">
        <ele>1283</ele>
        <time>2012-09-12T08:18:01Z</time>
      </trkpt>
      <trkpt lat="44.65533" lon="3.01664">
        <ele>1280</ele>
        <time>2012-09-12T08:18:13Z</time>
      </trkpt>
      <trkpt lat="44.65527" lon="3.01649">
        <ele>1278</ele>
        <time>2012-09-12T08:18:26Z</time>
      </trkpt>
      <trkpt lat="44.65519" lon="3.01636">
        <ele>1282</ele>
        <time>2012-09-12T08:18:36Z</time>
      </trkpt>
      <trkpt lat="44.65511" lon="3.0162">
        <ele>1278</ele>
        <time>2012-09-12T08:18:47Z</time>
      </trkpt>
      <trkpt lat="44.65502" lon="3.01606">
        <ele>1274</ele>
        <time>2012-09-12T08:18:58Z</time>
      </trkpt>
      <trkpt lat="44.65496" lon="3.01596">
        <ele>1269</ele>
        <time>2012-09-12T08:19:08Z</time>
      </trkpt>
      <trkpt lat="44.65485" lon="3.01578">
        <ele>1272</ele>
        <time>2012-09-12T08:19:21Z</time>
      </trkpt>
      <trkpt lat="44.65475" lon="3.01564">
        <ele>1277</ele>
        <time>2012-09-12T08:19:33Z</time>
      </trkpt>
      <trkpt lat="44.6547" lon="3.01548">
        <ele>1278</ele>
        <time>2012-09-12T08:19:43Z</time>
      </trkpt>
      <trkpt lat="44.65464" lon="3.0153">
        <ele>1276</ele>
        <time>2012-09-12T08:19:54Z</time>
      </trkpt>
      <trkpt lat="44.65461" lon="3.01511">
        <ele>1276</ele>
        <time>2012-09-12T08:20:05Z</time>
      </trkpt>
      <trkpt lat="44.65457" lon="3.01495">
        <ele>1283</ele>
        <time>2012-09-12T08:20:16Z</time>
      </trkpt>
      <trkpt lat="44.65454" lon="3.01475">
        <ele>1274</ele>
        <time>2012-09-12T08:20:28Z</time>
      </trkpt>
      <trkpt lat="44.65461" lon="3.01454">
        <ele>1264</ele>
        <time>2012-09-12T08:20:41Z</time>
      </trkpt>
      <trkpt lat="44.65463" lon="3.01446">
        <ele>1267</ele>
        <time>2012-09-12T08:20:54Z</time>
      </trkpt>
      <trkpt lat="44.65469" lon="3.01428">
        <ele>1270</ele>
        <time>2012-09-12T08:21:06Z</time>
      </trkpt>
      <trkpt lat="44.65475" lon="3.01412">
        <ele>1269</ele>
        <time>2012-09-12T08:21:18Z</time>
      </trkpt>
      <trkpt lat="44.65482" lon="3.01396">
        <ele>1265</ele>
        <time>2012-09-12T08:21:29Z</time>
      </trkpt>
      <trkpt lat="44.6548" lon="3.01375">
        <ele>1268</ele>
        <time>2012-09-12T08:21:42Z</time>
      </trkpt>
      <trkpt lat="44.65475" lon="3.01364">
        <ele>1269</ele>
        <time>2012-09-12T08:21:53Z</time>
      </trkpt>
      <trkpt lat="44.65469" lon="3.01348">
        <ele>1271</ele>
        <time>2012-09-12T08:22:04Z</time>
      </trkpt>
      <trkpt lat="44.65466" lon="3.01331">
        <ele>1272</ele>
        <time>2012-09-12T08:22:16Z</time>
      </trkpt>
      <trkpt lat="44.65462" lon="3.01318">
        <ele>1275</ele>
        <time>2012-09-12T08:22:26Z</time>
      </trkpt>
      <trkpt lat="44.65458" lon="3.013">
        <ele>1273</ele>
        <time>2012-09-12T08:22:40Z</time>
      </trkpt>
      <trkpt lat="44.65452" lon="3.01288">
        <ele>1273</ele>
        <time>2012-09-12T08:22:50Z</time>
      </trkpt>
      <trkpt lat="44.6545" lon="3.01275">
        <ele>1277</ele>
        <time>2012-09-12T08:23:01Z</time>
      </trkpt>
      <trkpt lat="44.65445" lon="3.01259">
        <ele>1275</ele>
        <time>2012-09-12T08:23:14Z</time>
      </trkpt>
      <trkpt lat="44.6544" lon="3.01244">
        <ele>1280</ele>
        <time>2012-09-12T08:23:26Z</time>
      </trkpt>
      <trkpt lat="44.65437" lon="3.01231">
        <ele>1282</ele>
        <time>2012-09-12T08:23:38Z</time>
      </trkpt>
      <trkpt lat="44.65434" lon="3.01219">
        <ele>1282</ele>
        <time>2012-09-12T08:23:49Z</time>
      </trkpt>
      <trkpt lat="44.6543" lon="3.01206">
        <ele>1283</ele>
        <time>2012-09-12T08:24:00Z</time>
      </trkpt>
      <trkpt lat="44.65426" lon="3.01195">
        <ele>1283</ele>
        <time>2012-09-12T08:24:12Z</time>
      </trkpt>
      <trkpt lat="44.6542" lon="3.01179">
        <ele>1284</ele>
        <time>2012-09-12T08:24:22Z</time>
      </trkpt>
      <trkpt lat="44.65415" lon="3.01167">
        <ele>1283</ele>
        <time>2012-09-12T08:24:34Z</time>
      </trkpt>
      <trkpt lat="44.65408" lon="3.01156">
        <ele>1285</ele>
        <time>2012-09-12T08:24:45Z</time>
      </trkpt>
      <trkpt lat="44.65398" lon="3.01143">
        <ele>1284</ele>
        <time>2012-09-12T08:24:57Z</time>
      </trkpt>
      <trkpt lat="44.6539" lon="3.0113">
        <ele>1286</ele>
        <time>2012-09-12T08:25:08Z</time>
      </trkpt>
      <trkpt lat="44.65384" lon="3.01115">
        <ele>1290</ele>
        <time>2012-09-12T08:25:20Z</time>
      </trkpt>
      <trkpt lat="44.65381" lon="3.01097">
        <ele>1286</ele>
        <time>2012-09-12T08:25:33Z</time>
      </trkpt>
      <trkpt lat="44.65377" lon="3.01078">
        <ele>1291</ele>
        <time>2012-09-12T08:25:46Z</time>
      </trkpt>
      <trkpt lat="44.65371" lon="3.01062">
        <ele>1294</ele>
        <time>2012-09-12T08:25:58Z</time>
      </trkpt>
      <trkpt lat="44.65375" lon="3.01053">
        <ele>1291</ele>
        <time>2012-09-12T08:26:08Z</time>
      </trkpt>
      <trkpt lat="44.65376" lon="3.01049">
        <ele>1292</ele>
        <time>2012-09-12T08:26:20Z</time>
      </trkpt>
      <trkpt lat="44.65376" lon="3.01053">
        <ele>1295</ele>
        <time>2012-09-12T08:27:40Z</time>
      </trkpt>
      <trkpt lat="44.65377" lon="3.01048">
        <ele>1291</ele>
        <time>2012-09-12T08:27:53Z</time>
      </trkpt>
      <trkpt lat="44.65382" lon="3.01039">
        <ele>1295</ele>
        <time>2012-09-12T08:28:04Z</time>
      </trkpt>
      <trkpt lat="44.65383" lon="3.01025">
        <ele>1289</ele>
        <time>2012-09-12T08:28:15Z</time>
      </trkpt>
      <trkpt lat="44.65384" lon="3.01012">
        <ele>1295</ele>
        <time>2012-09-12T08:28:26Z</time>
      </trkpt>
      <trkpt lat="44.65385" lon="3.00999">
        <ele>1296</ele>
        <time>2012-09-12T08:28:37Z</time>
      </trkpt>
      <trkpt lat="44.65386" lon="3.00981">
        <ele>1296</ele>
        <time>2012-09-12T08:28:52Z</time>
      </trkpt>
      <trkpt lat="44.65388" lon="3.00967">
        <ele>1297</ele>
        <time>2012-09-12T08:29:04Z</time>
      </trkpt>
      <trkpt lat="44.65392" lon="3.00955">
        <ele>1296</ele>
        <time>2012-09-12T08:29:16Z</time>
      </trkpt>
      <trkpt lat="44.65393" lon="3.00938">
        <ele>1303</ele>
        <time>2012-09-12T08:29:27Z</time>
      </trkpt>
      <trkpt lat="44.65394" lon="3.00926">
        <ele>1305</ele>
        <time>2012-09-12T08:29:38Z</time>
      </trkpt>
      <trkpt lat="44.65398" lon="3.00912">
        <ele>1304</ele>
        <time>2012-09-12T08:29:50Z</time>
      </trkpt>
      <trkpt lat="44.65397" lon="3.009">
        <ele>1307</ele>
        <time>2012-09-12T08:30:01Z</time>
      </trkpt>
      <trkpt lat="44.65398" lon="3.00882">
        <ele>1302</ele>
        <time>2012-09-12T08:30:14Z</time>
      </trkpt>
      <trkpt lat="44.65402" lon="3.00871">
        <ele>1301</ele>
        <time>2012-09-12T08:30:24Z</time>
      </trkpt>
      <trkpt lat="44.65411" lon="3.00858">
        <ele>1304</ele>
        <time>2012-09-12T08:30:39Z</time>
      </trkpt>
      <trkpt lat="44.65407" lon="3.00847">
        <ele>1308</ele>
        <time>2012-09-12T08:30:51Z</time>
      </trkpt>
      <trkpt lat="44.65405" lon="3.00835">
        <ele>1307</ele>
        <time>2012-09-12T08:31:03Z</time>
      </trkpt>
      <trkpt lat="44.65403" lon="3.00821">
        <ele>1310</ele>
        <time>2012-09-12T08:31:15Z</time>
      </trkpt>
      <trkpt lat="44.65401" lon="3.00809">
        <ele>1310</ele>
        <time>2012-09-12T08:31:26Z</time>
      </trkpt>
      <trkpt lat="44.65397" lon="3.00796">
        <ele>1314</ele>
        <time>2012-09-12T08:31:36Z</time>
      </trkpt>
      <trkpt lat="44.65397" lon="3.00781">
        <ele>1307</ele>
        <time>2012-09-12T08:31:47Z</time>
      </trkpt>
      <trkpt lat="44.65395" lon="3.00769">
        <ele>1319</ele>
        <time>2012-09-12T08:32:00Z</time>
      </trkpt>
      <trkpt lat="44.65398" lon="3.00761">
        <ele>1322</ele>
        <time>2012-09-12T08:32:10Z</time>
      </trkpt>
      <trkpt lat="44.65401" lon="3.00748">
        <ele>1319</ele>
        <time>2012-09-12T08:32:21Z</time>
      </trkpt>
      <trkpt lat="44.65397" lon="3.00736">
        <ele>1326</ele>
        <time>2012-09-12T08:32:34Z</time>
      </trkpt>
      <trkpt lat="44.65392" lon="3.00725">
        <ele>1329</ele>
        <time>2012-09-12T08:32:45Z</time>
      </trkpt>
      <trkpt lat="44.65385" lon="3.00714">
        <ele>1329</ele>
        <time>2012-09-12T08:33:22Z</time>
      </trkpt>
      <trkpt lat="44.65378" lon="3.00698">
        <ele>1327</ele>
        <time>2012-09-12T08:33:34Z</time>
      </trkpt>
      <trkpt lat="44.65372" lon="3.00683">
        <ele>1328</ele>
        <time>2012-09-12T08:33:46Z</time>
      </trkpt>
      <trkpt lat="44.65364" lon="3.00666">
        <ele>1324</ele>
        <time>2012-09-12T08:33:58Z</time>
      </trkpt>
      <trkpt lat="44.65357" lon="3.00652">
        <ele>1324</ele>
        <time>2012-09-12T08:34:10Z</time>
      </trkpt>
      <trkpt lat="44.65348" lon="3.00638">
        <ele>1328</ele>
        <time>2012-09-12T08:34:21Z</time>
      </trkpt>
      <trkpt lat="44.65339" lon="3.00625">
        <ele>1330</ele>
        <time>2012-09-12T08:34:34Z</time>
      </trkpt>
      <trkpt lat="44.65332" lon="3.00615">
        <ele>1329</ele>
        <time>2012-09-12T08:34:44Z</time>
      </trkpt>
      <trkpt lat="44.65323" lon="3.00602">
        <ele>1328</ele>
        <time>2012-09-12T08:34:56Z</time>
      </trkpt>
      <trkpt lat="44.65308" lon="3.00599">
        <ele>1324</ele>
        <time>2012-09-12T08:35:08Z</time>
      </trkpt>
      <trkpt lat="44.65294" lon="3.00592">
        <ele>1326</ele>
        <time>2012-09-12T08:35:20Z</time>
      </trkpt>
      <trkpt lat="44.65284" lon="3.00589">
        <ele>1323</ele>
        <time>2012-09-12T08:35:31Z</time>
      </trkpt>
      <trkpt lat="44.65273" lon="3.00586">
        <ele>1327</ele>
        <time>2012-09-12T08:35:41Z</time>
      </trkpt>
      <trkpt lat="44.65263" lon="3.00582">
        <ele>1325</ele>
        <time>2012-09-12T08:35:51Z</time>
      </trkpt>
      <trkpt lat="44.65253" lon="3.00582">
        <ele>1326</ele>
        <time>2012-09-12T08:36:02Z</time>
      </trkpt>
      <trkpt lat="44.65243" lon="3.0058">
        <ele>1324</ele>
        <time>2012-09-12T08:36:12Z</time>
      </trkpt>
      <trkpt lat="44.65234" lon="3.0058">
        <ele>1328</ele>
        <time>2012-09-12T08:36:22Z</time>
      </trkpt>
      <trkpt lat="44.65222" lon="3.00589">
        <ele>1324</ele>
        <time>2012-09-12T08:36:33Z</time>
      </trkpt>
      <trkpt lat="44.6521" lon="3.00598">
        <ele>1326</ele>
        <time>2012-09-12T08:37:07Z</time>
      </trkpt>
      <trkpt lat="44.65204" lon="3.00599">
        <ele>1322</ele>
        <time>2012-09-12T08:37:48Z</time>
      </trkpt>
      <trkpt lat="44.65202" lon="3.00597">
        <ele>1329</ele>
        <time>2012-09-12T08:38:05Z</time>
      </trkpt>
      <trkpt lat="44.65194" lon="3.00591">
        <ele>1329</ele>
        <time>2012-09-12T08:38:16Z</time>
      </trkpt>
      <trkpt lat="44.65184" lon="3.00586">
        <ele>1330</ele>
        <time>2012-09-12T08:38:26Z</time>
      </trkpt>
      <trkpt lat="44.65176" lon="3.0058">
        <ele>1330</ele>
        <time>2012-09-12T08:38:36Z</time>
      </trkpt>
      <trkpt lat="44.65164" lon="3.00578">
        <ele>1336</ele>
        <time>2012-09-12T08:38:48Z</time>
      </trkpt>
      <trkpt lat="44.65152" lon="3.00572">
        <ele>1334</ele>
        <time>2012-09-12T08:39:01Z</time>
      </trkpt>
      <trkpt lat="44.65141" lon="3.00571">
        <ele>1336</ele>
        <time>2012-09-12T08:39:14Z</time>
      </trkpt>
      <trkpt lat="44.65127" lon="3.00569">
        <ele>1336</ele>
        <time>2012-09-12T08:39:25Z</time>
      </trkpt>
      <trkpt lat="44.65114" lon="3.00571">
        <ele>1337</ele>
        <time>2012-09-12T08:39:38Z</time>
      </trkpt>
      <trkpt lat="44.65102" lon="3.00572">
        <ele>1337</ele>
        <time>2012-09-12T08:39:50Z</time>
      </trkpt>
      <trkpt lat="44.65089" lon="3.00573">
        <ele>1337</ele>
        <time>2012-09-12T08:40:02Z</time>
      </trkpt>
      <trkpt lat="44.65077" lon="3.00575">
        <ele>1339</ele>
        <time>2012-09-12T08:40:14Z</time>
      </trkpt>
      <trkpt lat="44.65065" lon="3.00576">
        <ele>1339</ele>
        <time>2012-09-12T08:40:26Z</time>
      </trkpt>
      <trkpt lat="44.65051" lon="3.00576">
        <ele>1346</ele>
        <time>2012-09-12T08:40:36Z</time>
      </trkpt>
      <trkpt lat="44.65037" lon="3.00575">
        <ele>1345</ele>
        <time>2012-09-12T08:40:48Z</time>
      </trkpt>
      <trkpt lat="44.65023" lon="3.00574">
        <ele>1345</ele>
        <time>2012-09-12T08:41:00Z</time>
      </trkpt>
      <trkpt lat="44.65012" lon="3.00572">
        <ele>1342</ele>
        <time>2012-09-12T08:41:13Z</time>
      </trkpt>
      <trkpt lat="44.64999" lon="3.00569">
        <ele>1340</ele>
        <time>2012-09-12T08:41:26Z</time>
      </trkpt>
      <trkpt lat="44.64991" lon="3.00562">
        <ele>1346</ele>
        <time>2012-09-12T08:41:39Z</time>
      </trkpt>
      <trkpt lat="44.64981" lon="3.00548">
        <ele>1345</ele>
        <time>2012-09-12T08:41:51Z</time>
      </trkpt>
      <trkpt lat="44.64973" lon="3.00535">
        <ele>1344</ele>
        <time>2012-09-12T08:42:03Z</time>
      </trkpt>
      <trkpt lat="44.64967" lon="3.00524">
        <ele>1345</ele>
        <time>2012-09-12T08:42:13Z</time>
      </trkpt>
      <trkpt lat="44.64957" lon="3.0051">
        <ele>1347</ele>
        <time>2012-09-12T08:42:26Z</time>
      </trkpt>
      <trkpt lat="44.64949" lon="3.00496">
        <ele>1343</ele>
        <time>2012-09-12T08:42:41Z</time>
      </trkpt>
      <trkpt lat="44.64942" lon="3.0048">
        <ele>1347</ele>
        <time>2012-09-12T08:42:53Z</time>
      </trkpt>
      <trkpt lat="44.64937" lon="3.00463">
        <ele>1348</ele>
        <time>2012-09-12T08:43:05Z</time>
      </trkpt>
      <trkpt lat="44.64932" lon="3.00447">
        <ele>1349</ele>
        <time>2012-09-12T08:43:19Z</time>
      </trkpt>
      <trkpt lat="44.64928" lon="3.0043">
        <ele>1348</ele>
        <time>2012-09-12T08:43:31Z</time>
      </trkpt>
      <trkpt lat="44.64924" lon="3.00416">
        <ele>1350</ele>
        <time>2012-09-12T08:43:41Z</time>
      </trkpt>
      <trkpt lat="44.64919" lon="3.00399">
        <ele>1349</ele>
        <time>2012-09-12T08:43:53Z</time>
      </trkpt>
      <trkpt lat="44.64914" lon="3.00384">
        <ele>1347</ele>
        <time>2012-09-12T08:44:05Z</time>
      </trkpt>
      <trkpt lat="44.64909" lon="3.00367">
        <ele>1347</ele>
        <time>2012-09-12T08:44:17Z</time>
      </trkpt>
      <trkpt lat="44.64908" lon="3.00354">
        <ele>1349</ele>
        <time>2012-09-12T08:44:27Z</time>
      </trkpt>
      <trkpt lat="44.64906" lon="3.00336">
        <ele>1350</ele>
        <time>2012-09-12T08:44:39Z</time>
      </trkpt>
      <trkpt lat="44.64903" lon="3.00318">
        <ele>1350</ele>
        <time>2012-09-12T08:44:52Z</time>
      </trkpt>
      <trkpt lat="44.64898" lon="3.003">
        <ele>1352</ele>
        <time>2012-09-12T08:45:04Z</time>
      </trkpt>
      <trkpt lat="44.64893" lon="3.00284">
        <ele>1349</ele>
        <time>2012-09-12T08:45:16Z</time>
      </trkpt>
      <trkpt lat="44.64888" lon="3.00267">
        <ele>1351</ele>
        <time>2012-09-12T08:45:28Z</time>
      </trkpt>
      <trkpt lat="44.64884" lon="3.00255">
        <ele>1350</ele>
        <time>2012-09-12T08:45:48Z</time>
      </trkpt>
      <trkpt lat="44.64881" lon="3.00238">
        <ele>1348</ele>
        <time>2012-09-12T08:46:00Z</time>
      </trkpt>
      <trkpt lat="44.6488" lon="3.00225">
        <ele>1351</ele>
        <time>2012-09-12T08:46:11Z</time>
      </trkpt>
      <trkpt lat="44.64875" lon="3.00209">
        <ele>1354</ele>
        <time>2012-09-12T08:46:23Z</time>
      </trkpt>
      <trkpt lat="44.64873" lon="3.00192">
        <ele>1354</ele>
        <time>2012-09-12T08:46:33Z</time>
      </trkpt>
      <trkpt lat="44.64871" lon="3.00175">
        <ele>1353</ele>
        <time>2012-09-12T08:46:45Z</time>
      </trkpt>
      <trkpt lat="44.64869" lon="3.00157">
        <ele>1354</ele>
        <time>2012-09-12T08:46:57Z</time>
      </trkpt>
      <trkpt lat="44.64867" lon="3.0014">
        <ele>1353</ele>
        <time>2012-09-12T08:47:08Z</time>
      </trkpt>
      <trkpt lat="44.64861" lon="3.0012">
        <ele>1354</ele>
        <time>2012-09-12T08:47:21Z</time>
      </trkpt>
      <trkpt lat="44.64857" lon="3.00102">
        <ele>1349</ele>
        <time>2012-09-12T08:47:34Z</time>
      </trkpt>
      <trkpt lat="44.64852" lon="3.00083">
        <ele>1343</ele>
        <time>2012-09-12T08:47:46Z</time>
      </trkpt>
      <trkpt lat="44.6485" lon="3.0007">
        <ele>1346</ele>
        <time>2012-09-12T08:47:58Z</time>
      </trkpt>
      <trkpt lat="44.6485" lon="3.00055">
        <ele>1342</ele>
        <time>2012-09-12T08:48:09Z</time>
      </trkpt>
      <trkpt lat="44.64847" lon="3.00038">
        <ele>1347</ele>
        <time>2012-09-12T08:48:20Z</time>
      </trkpt>
      <trkpt lat="44.64845" lon="3.00019">
        <ele>1347</ele>
        <time>2012-09-12T08:48:32Z</time>
      </trkpt>
      <trkpt lat="44.64845" lon="3.0001">
        <ele>1347</ele>
        <time>2012-09-12T08:48:53Z</time>
      </trkpt>
      <trkpt lat="44.64841" lon="2.99993">
        <ele>1349</ele>
        <time>2012-09-12T08:49:06Z</time>
      </trkpt>
      <trkpt lat="44.64841" lon="2.99975">
        <ele>1350</ele>
        <time>2012-09-12T08:49:18Z</time>
      </trkpt>
      <trkpt lat="44.64843" lon="2.99961">
        <ele>1350</ele>
        <time>2012-09-12T08:49:29Z</time>
      </trkpt>
      <trkpt lat="44.64843" lon="2.99949">
        <ele>1345</ele>
        <time>2012-09-12T08:49:39Z</time>
      </trkpt>
      <trkpt lat="44.64845" lon="2.99931">
        <ele>1347</ele>
        <time>2012-09-12T08:49:51Z</time>
      </trkpt>
      <trkpt lat="44.64847" lon="2.99914">
        <ele>1346</ele>
        <time>2012-09-12T08:50:02Z</time>
      </trkpt>
      <trkpt lat="44.64848" lon="2.99895">
        <ele>1351</ele>
        <time>2012-09-12T08:50:15Z</time>
      </trkpt>
      <trkpt lat="44.64846" lon="2.99881">
        <ele>1345</ele>
        <time>2012-09-12T08:50:26Z</time>
      </trkpt>
      <trkpt lat="44.64841" lon="2.99863">
        <ele>1347</ele>
        <time>2012-09-12T08:50:37Z</time>
      </trkpt>
      <trkpt lat="44.64833" lon="2.99848">
        <ele>1345</ele>
        <time>2012-09-12T08:50:48Z</time>
      </trkpt>
      <trkpt lat="44.64826" lon="2.99832">
        <ele>1347</ele>
        <time>2012-09-12T08:51:00Z</time>
      </trkpt>
      <trkpt lat="44.64825" lon="2.99814">
        <ele>1351</ele>
        <time>2012-09-12T08:51:11Z</time>
      </trkpt>
      <trkpt lat="44.64826" lon="2.998">
        <ele>1352</ele>
        <time>2012-09-12T08:51:21Z</time>
      </trkpt>
      <trkpt lat="44.64826" lon="2.99782">
        <ele>1346</ele>
        <time>2012-09-12T08:52:20Z</time>
      </trkpt>
      <trkpt lat="44.64831" lon="2.99768">
        <ele>1352</ele>
        <time>2012-09-12T08:52:37Z</time>
      </trkpt>
      <trkpt lat="44.64831" lon="2.99754">
        <ele>1355</ele>
        <time>2012-09-12T08:52:48Z</time>
      </trkpt>
      <trkpt lat="44.64831" lon="2.99736">
        <ele>1348</ele>
        <time>2012-09-12T08:53:00Z</time>
      </trkpt>
      <trkpt lat="44.64832" lon="2.99721">
        <ele>1352</ele>
        <time>2012-09-12T08:53:12Z</time>
      </trkpt>
      <trkpt lat="44.64833" lon="2.99702">
        <ele>1351</ele>
        <time>2012-09-12T08:53:25Z</time>
      </trkpt>
      <trkpt lat="44.64836" lon="2.99686">
        <ele>1355</ele>
        <time>2012-09-12T08:53:36Z</time>
      </trkpt>
      <trkpt lat="44.64837" lon="2.99673">
        <ele>1354</ele>
        <time>2012-09-12T08:53:46Z</time>
      </trkpt>
      <trkpt lat="44.64837" lon="2.99655">
        <ele>1352</ele>
        <time>2012-09-12T08:53:59Z</time>
      </trkpt>
      <trkpt lat="44.64841" lon="2.99636">
        <ele>1355</ele>
        <time>2012-09-12T08:54:13Z</time>
      </trkpt>
      <trkpt lat="44.64842" lon="2.99615">
        <ele>1351</ele>
        <time>2012-09-12T08:54:24Z</time>
      </trkpt>
      <trkpt lat="44.64843" lon="2.99597">
        <ele>1349</ele>
        <time>2012-09-12T08:54:36Z</time>
      </trkpt>
      <trkpt lat="44.64845" lon="2.99576">
        <ele>1358</ele>
        <time>2012-09-12T08:54:48Z</time>
      </trkpt>
      <trkpt lat="44.64845" lon="2.9956">
        <ele>1356</ele>
        <time>2012-09-12T08:55:01Z</time>
      </trkpt>
      <trkpt lat="44.64846" lon="2.99541">
        <ele>1354</ele>
        <time>2012-09-12T08:55:13Z</time>
      </trkpt>
      <trkpt lat="44.64844" lon="2.99524">
        <ele>1359</ele>
        <time>2012-09-12T08:55:24Z</time>
      </trkpt>
      <trkpt lat="44.64844" lon="2.99505">
        <ele>1358</ele>
        <time>2012-09-12T08:55:35Z</time>
      </trkpt>
      <trkpt lat="44.64843" lon="2.99487">
        <ele>1348</ele>
        <time>2012-09-12T08:55:47Z</time>
      </trkpt>
      <trkpt lat="44.64845" lon="2.99467">
        <ele>1357</ele>
        <time>2012-09-12T08:55:59Z</time>
      </trkpt>
      <trkpt lat="44.64845" lon="2.99454">
        <ele>1354</ele>
        <time>2012-09-12T08:56:12Z</time>
      </trkpt>
      <trkpt lat="44.64841" lon="2.99437">
        <ele>1358</ele>
        <time>2012-09-12T08:56:23Z</time>
      </trkpt>
      <trkpt lat="44.6484" lon="2.99423">
        <ele>1358</ele>
        <time>2012-09-12T08:56:33Z</time>
      </trkpt>
      <trkpt lat="44.64837" lon="2.99404">
        <ele>1357</ele>
        <time>2012-09-12T08:56:45Z</time>
      </trkpt>
      <trkpt lat="44.64834" lon="2.99385">
        <ele>1356</ele>
        <time>2012-09-12T08:56:57Z</time>
      </trkpt>
      <trkpt lat="44.64835" lon="2.99367">
        <ele>1357</ele>
        <time>2012-09-12T08:57:07Z</time>
      </trkpt>
      <trkpt lat="44.64836" lon="2.99353">
        <ele>1356</ele>
        <time>2012-09-12T08:57:18Z</time>
      </trkpt>
      <trkpt lat="44.64835" lon="2.99336">
        <ele>1357</ele>
        <time>2012-09-12T08:57:29Z</time>
      </trkpt>
      <trkpt lat="44.64833" lon="2.99319">
        <ele>1360</ele>
        <time>2012-09-12T08:57:41Z</time>
      </trkpt>
      <trkpt lat="44.6483" lon="2.99302">
        <ele>1360</ele>
        <time>2012-09-12T08:57:52Z</time>
      </trkpt>
      <trkpt lat="44.64826" lon="2.99284">
        <ele>1360</ele>
        <time>2012-09-12T08:58:06Z</time>
      </trkpt>
      <trkpt lat="44.64822" lon="2.99265">
        <ele>1361</ele>
        <time>2012-09-12T08:58:18Z</time>
      </trkpt>
      <trkpt lat="44.64818" lon="2.99253">
        <ele>1360</ele>
        <time>2012-09-12T08:58:28Z</time>
      </trkpt>
      <trkpt lat="44.64819" lon="2.9924">
        <ele>1359</ele>
        <time>2012-09-12T08:58:38Z</time>
      </trkpt>
      <trkpt lat="44.6482" lon="2.99227">
        <ele>1360</ele>
        <time>2012-09-12T08:58:50Z</time>
      </trkpt>
      <trkpt lat="44.64817" lon="2.99212">
        <ele>1360</ele>
        <time>2012-09-12T08:59:02Z</time>
      </trkpt>
      <trkpt lat="44.64817" lon="2.99207">
        <ele>1365</ele>
        <time>2012-09-12T09:01:37Z</time>
      </trkpt>
      <trkpt lat="44.64813" lon="2.99191">
        <ele>1361</ele>
        <time>2012-09-12T09:01:49Z</time>
      </trkpt>
      <trkpt lat="44.64806" lon="2.99174">
        <ele>1360</ele>
        <time>2012-09-12T09:01:59Z</time>
      </trkpt>
      <trkpt lat="44.64801" lon="2.99159">
        <ele>1361</ele>
        <time>2012-09-12T09:02:11Z</time>
      </trkpt>
      <trkpt lat="44.64798" lon="2.99145">
        <ele>1363</ele>
        <time>2012-09-12T09:02:22Z</time>
      </trkpt>
      <trkpt lat="44.64793" lon="2.99128">
        <ele>1364</ele>
        <time>2012-09-12T09:02:35Z</time>
      </trkpt>
      <trkpt lat="44.64785" lon="2.99111">
        <ele>1363</ele>
        <time>2012-09-12T09:02:46Z</time>
      </trkpt>
      <trkpt lat="44.64777" lon="2.99096">
        <ele>1364</ele>
        <time>2012-09-12T09:02:57Z</time>
      </trkpt>
      <trkpt lat="44.6477" lon="2.99082">
        <ele>1365</ele>
        <time>2012-09-12T09:03:08Z</time>
      </trkpt>
      <trkpt lat="44.64768" lon="2.99069">
        <ele>1367</ele>
        <time>2012-09-12T09:03:19Z</time>
      </trkpt>
      <trkpt lat="44.64762" lon="2.99052">
        <ele>1366</ele>
        <time>2012-09-12T09:03:31Z</time>
      </trkpt>
      <trkpt lat="44.64753" lon="2.99037">
        <ele>1368</ele>
        <time>2012-09-12T09:03:42Z</time>
      </trkpt>
      <trkpt lat="44.64741" lon="2.99027">
        <ele>1364</ele>
        <time>2012-09-12T09:03:53Z</time>
      </trkpt>
      <trkpt lat="44.6473" lon="2.99019">
        <ele>1366</ele>
        <time>2012-09-12T09:04:05Z</time>
      </trkpt>
      <trkpt lat="44.64721" lon="2.99014">
        <ele>1361</ele>
        <time>2012-09-12T09:04:23Z</time>
      </trkpt>
      <trkpt lat="44.64718" lon="2.99014">
        <ele>1356</ele>
        <time>2012-09-12T09:04:47Z</time>
      </trkpt>
      <trkpt lat="44.64709" lon="2.99008">
        <ele>1359</ele>
        <time>2012-09-12T09:04:59Z</time>
      </trkpt>
      <trkpt lat="44.64701" lon="2.99003">
        <ele>1365</ele>
        <time>2012-09-12T09:05:09Z</time>
      </trkpt>
      <trkpt lat="44.64694" lon="2.98995">
        <ele>1368</ele>
        <time>2012-09-12T09:05:27Z</time>
      </trkpt>
      <trkpt lat="44.64683" lon="2.98986">
        <ele>1368</ele>
        <time>2012-09-12T09:05:39Z</time>
      </trkpt>
      <trkpt lat="44.64677" lon="2.98983">
        <ele>1362</ele>
        <time>2012-09-12T09:05:58Z</time>
      </trkpt>
      <trkpt lat="44.64674" lon="2.98989">
        <ele>1359</ele>
        <time>2012-09-12T09:06:37Z</time>
      </trkpt>
      <trkpt lat="44.64669" lon="2.98981">
        <ele>1359</ele>
        <time>2012-09-12T09:06:50Z</time>
      </trkpt>
      <trkpt lat="44.64657" lon="2.98971">
        <ele>1361</ele>
        <time>2012-09-12T09:07:04Z</time>
      </trkpt>
      <trkpt lat="44.64648" lon="2.98964">
        <ele>1362</ele>
        <time>2012-09-12T09:07:15Z</time>
      </trkpt>
      <trkpt lat="44.64637" lon="2.98958">
        <ele>1362</ele>
        <time>2012-09-12T09:07:30Z</time>
      </trkpt>
      <trkpt lat="44.64624" lon="2.98947">
        <ele>1362</ele>
        <time>2012-09-12T09:07:40Z</time>
      </trkpt>
      <trkpt lat="44.64612" lon="2.98942">
        <ele>1363</ele>
        <time>2012-09-12T09:07:50Z</time>
      </trkpt>
      <trkpt lat="44.646" lon="2.98931">
        <ele>1363</ele>
        <time>2012-09-12T09:08:02Z</time>
      </trkpt>
      <trkpt lat="44.64591" lon="2.98924">
        <ele>1362</ele>
        <time>2012-09-12T09:08:14Z</time>
      </trkpt>
      <trkpt lat="44.64576" lon="2.98914">
        <ele>1358</ele>
        <time>2012-09-12T09:08:27Z</time>
      </trkpt>
      <trkpt lat="44.64564" lon="2.98905">
        <ele>1362</ele>
        <time>2012-09-12T09:08:40Z</time>
      </trkpt>
      <trkpt lat="44.64555" lon="2.98899">
        <ele>1359</ele>
        <time>2012-09-12T09:08:52Z</time>
      </trkpt>
      <trkpt lat="44.64548" lon="2.9889">
        <ele>1359</ele>
        <time>2012-09-12T09:09:03Z</time>
      </trkpt>
      <trkpt lat="44.64542" lon="2.98879">
        <ele>1357</ele>
        <time>2012-09-12T09:09:13Z</time>
      </trkpt>
      <trkpt lat="44.64537" lon="2.98875">
        <ele>1356</ele>
        <time>2012-09-12T09:10:02Z</time>
      </trkpt>
      <trkpt lat="44.64528" lon="2.98872">
        <ele>1358</ele>
        <time>2012-09-12T09:10:13Z</time>
      </trkpt>
      <trkpt lat="44.64517" lon="2.98866">
        <ele>1363</ele>
        <time>2012-09-12T09:10:27Z</time>
      </trkpt>
      <trkpt lat="44.64511" lon="2.98866">
        <ele>1361</ele>
        <time>2012-09-12T09:10:38Z</time>
      </trkpt>
      <trkpt lat="44.64499" lon="2.98871">
        <ele>1362</ele>
        <time>2012-09-12T09:10:49Z</time>
      </trkpt>
      <trkpt lat="44.64486" lon="2.9887">
        <ele>1363</ele>
        <time>2012-09-12T09:11:04Z</time>
      </trkpt>
      <trkpt lat="44.64478" lon="2.98871">
        <ele>1361</ele>
        <time>2012-09-12T09:11:15Z</time>
      </trkpt>
      <trkpt lat="44.64464" lon="2.98872">
        <ele>1359</ele>
        <time>2012-09-12T09:11:28Z</time>
      </trkpt>
      <trkpt lat="44.64454" lon="2.98871">
        <ele>1356</ele>
        <time>2012-09-12T09:11:40Z</time>
      </trkpt>
      <trkpt lat="44.64442" lon="2.98864">
        <ele>1359</ele>
        <time>2012-09-12T09:11:52Z</time>
      </trkpt>
      <trkpt lat="44.64434" lon="2.98859">
        <ele>1360</ele>
        <time>2012-09-12T09:12:04Z</time>
      </trkpt>
      <trkpt lat="44.64429" lon="2.98849">
        <ele>1365</ele>
        <time>2012-09-12T09:12:14Z</time>
      </trkpt>
      <trkpt lat="44.64425" lon="2.98838">
        <ele>1369</ele>
        <time>2012-09-12T09:12:26Z</time>
      </trkpt>
      <trkpt lat="44.64422" lon="2.98826">
        <ele>1364</ele>
        <time>2012-09-12T09:12:38Z</time>
      </trkpt>
      <trkpt lat="44.64424" lon="2.98818">
        <ele>1368</ele>
        <time>2012-09-12T09:12:49Z</time>
      </trkpt>
      <trkpt lat="44.64424" lon="2.98809">
        <ele>1365</ele>
        <time>2012-09-12T09:12:59Z</time>
      </trkpt>
      <trkpt lat="44.64422" lon="2.98796">
        <ele>1367</ele>
        <time>2012-09-12T09:13:09Z</time>
      </trkpt>
      <trkpt lat="44.64426" lon="2.98784">
        <ele>1367</ele>
        <time>2012-09-12T09:13:21Z</time>
      </trkpt>
      <trkpt lat="44.64431" lon="2.98773">
        <ele>1368</ele>
        <time>2012-09-12T09:13:31Z</time>
      </trkpt>
      <trkpt lat="44.64435" lon="2.98761">
        <ele>1371</ele>
        <time>2012-09-12T09:13:41Z</time>
      </trkpt>
      <trkpt lat="44.64437" lon="2.98749">
        <ele>1373</ele>
        <time>2012-09-12T09:13:52Z</time>
      </trkpt>
      <trkpt lat="44.6444" lon="2.9873">
        <ele>1373</ele>
        <time>2012-09-12T09:14:04Z</time>
      </trkpt>
      <trkpt lat="44.64438" lon="2.98711">
        <ele>1372</ele>
        <time>2012-09-12T09:14:17Z</time>
      </trkpt>
      <trkpt lat="44.64434" lon="2.987">
        <ele>1373</ele>
        <time>2012-09-12T09:15:46Z</time>
      </trkpt>
      <trkpt lat="44.64437" lon="2.987">
        <ele>1370</ele>
        <time>2012-09-12T09:16:51Z</time>
      </trkpt>
      <trkpt lat="44.64434" lon="2.98702">
        <ele>1376</ele>
        <time>2012-09-12T09:17:56Z</time>
      </trkpt>
      <trkpt lat="44.64437" lon="2.987">
        <ele>1365</ele>
        <time>2012-09-12T09:19:23Z</time>
      </trkpt>
      <trkpt lat="44.64434" lon="2.98699">
        <ele>1372</ele>
        <time>2012-09-12T09:20:20Z</time>
      </trkpt>
      <trkpt lat="44.64435" lon="2.98703">
        <ele>1369</ele>
        <time>2012-09-12T09:20:47Z</time>
      </trkpt>
      <trkpt lat="44.64434" lon="2.98696">
        <ele>1372</ele>
        <time>2012-09-12T09:21:53Z</time>
      </trkpt>
      <trkpt lat="44.64429" lon="2.9868">
        <ele>1370</ele>
        <time>2012-09-12T09:22:05Z</time>
      </trkpt>
      <trkpt lat="44.64423" lon="2.98664">
        <ele>1368</ele>
        <time>2012-09-12T09:22:17Z</time>
      </trkpt>
      <trkpt lat="44.64418" lon="2.98646">
        <ele>1370</ele>
        <time>2012-09-12T09:22:29Z</time>
      </trkpt>
      <trkpt lat="44.64417" lon="2.98642">
        <ele>1363</ele>
        <time>2012-09-12T09:22:54Z</time>
      </trkpt>
      <trkpt lat="44.64408" lon="2.98639">
        <ele>1366</ele>
        <time>2012-09-12T09:23:05Z</time>
      </trkpt>
      <trkpt lat="44.64395" lon="2.98641">
        <ele>1365</ele>
        <time>2012-09-12T09:23:16Z</time>
      </trkpt>
      <trkpt lat="44.64383" lon="2.98646">
        <ele>1361</ele>
        <time>2012-09-12T09:23:28Z</time>
      </trkpt>
      <trkpt lat="44.6437" lon="2.98649">
        <ele>1364</ele>
        <time>2012-09-12T09:23:40Z</time>
      </trkpt>
      <trkpt lat="44.64358" lon="2.98654">
        <ele>1362</ele>
        <time>2012-09-12T09:23:51Z</time>
      </trkpt>
      <trkpt lat="44.6435" lon="2.9866">
        <ele>1363</ele>
        <time>2012-09-12T09:24:01Z</time>
      </trkpt>
      <trkpt lat="44.64336" lon="2.98667">
        <ele>1364</ele>
        <time>2012-09-12T09:24:13Z</time>
      </trkpt>
      <trkpt lat="44.64324" lon="2.98673">
        <ele>1363</ele>
        <time>2012-09-12T09:24:24Z</time>
      </trkpt>
      <trkpt lat="44.64318" lon="2.98675">
        <ele>1363</ele>
        <time>2012-09-12T09:24:35Z</time>
      </trkpt>
      <trkpt lat="44.64305" lon="2.98678">
        <ele>1357</ele>
        <time>2012-09-12T09:24:47Z</time>
      </trkpt>
      <trkpt lat="44.64293" lon="2.98684">
        <ele>1361</ele>
        <time>2012-09-12T09:24:58Z</time>
      </trkpt>
      <trkpt lat="44.64282" lon="2.98688">
        <ele>1360</ele>
        <time>2012-09-12T09:25:09Z</time>
      </trkpt>
      <trkpt lat="44.6427" lon="2.98694">
        <ele>1364</ele>
        <time>2012-09-12T09:25:20Z</time>
      </trkpt>
      <trkpt lat="44.64257" lon="2.98702">
        <ele>1360</ele>
        <time>2012-09-12T09:25:31Z</time>
      </trkpt>
      <trkpt lat="44.64245" lon="2.98708">
        <ele>1360</ele>
        <time>2012-09-12T09:25:43Z</time>
      </trkpt>
      <trkpt lat="44.64232" lon="2.98717">
        <ele>1358</ele>
        <time>2012-09-12T09:25:54Z</time>
      </trkpt>
      <trkpt lat="44.6422" lon="2.98725">
        <ele>1358</ele>
        <time>2012-09-12T09:26:06Z</time>
      </trkpt>
      <trkpt lat="44.64206" lon="2.98729">
        <ele>1357</ele>
        <time>2012-09-12T09:26:18Z</time>
      </trkpt>
      <trkpt lat="44.64195" lon="2.98737">
        <ele>1359</ele>
        <time>2012-09-12T09:26:30Z</time>
      </trkpt>
      <trkpt lat="44.64182" lon="2.98738">
        <ele>1363</ele>
        <time>2012-09-12T09:26:40Z</time>
      </trkpt>
      <trkpt lat="44.64169" lon="2.98739">
        <ele>1359</ele>
        <time>2012-09-12T09:26:51Z</time>
      </trkpt>
      <trkpt lat="44.64155" lon="2.98745">
        <ele>1354</ele>
        <time>2012-09-12T09:27:04Z</time>
      </trkpt>
      <trkpt lat="44.64142" lon="2.98749">
        <ele>1357</ele>
        <time>2012-09-12T09:27:16Z</time>
      </trkpt>
      <trkpt lat="44.6413" lon="2.98756">
        <ele>1356</ele>
        <time>2012-09-12T09:27:30Z</time>
      </trkpt>
      <trkpt lat="44.64121" lon="2.9877">
        <ele>1355</ele>
        <time>2012-09-12T09:27:43Z</time>
      </trkpt>
      <trkpt lat="44.64114" lon="2.98781">
        <ele>1354</ele>
        <time>2012-09-12T09:27:53Z</time>
      </trkpt>
      <trkpt lat="44.64106" lon="2.9879">
        <ele>1360</ele>
        <time>2012-09-12T09:28:05Z</time>
      </trkpt>
      <trkpt lat="44.64098" lon="2.98798">
        <ele>1366</ele>
        <time>2012-09-12T09:28:16Z</time>
      </trkpt>
      <trkpt lat="44.64088" lon="2.9881">
        <ele>1366</ele>
        <time>2012-09-12T09:28:28Z</time>
      </trkpt>
      <trkpt lat="44.64082" lon="2.98819">
        <ele>1363</ele>
        <time>2012-09-12T09:28:38Z</time>
      </trkpt>
      <trkpt lat="44.64072" lon="2.98828">
        <ele>1366</ele>
        <time>2012-09-12T09:28:51Z</time>
      </trkpt>
      <trkpt lat="44.6406" lon="2.98837">
        <ele>1358</ele>
        <time>2012-09-12T09:29:03Z</time>
      </trkpt>
      <trkpt lat="44.6405" lon="2.98847">
        <ele>1361</ele>
        <time>2012-09-12T09:29:16Z</time>
      </trkpt>
      <trkpt lat="44.64041" lon="2.98854">
        <ele>1363</ele>
        <time>2012-09-12T09:29:26Z</time>
      </trkpt>
      <trkpt lat="44.6403" lon="2.98863">
        <ele>1366</ele>
        <time>2012-09-12T09:29:38Z</time>
      </trkpt>
      <trkpt lat="44.64029" lon="2.98865">
        <ele>1368</ele>
        <time>2012-09-12T09:31:16Z</time>
      </trkpt>
      <trkpt lat="44.6402" lon="2.98871">
        <ele>1364</ele>
        <time>2012-09-12T09:31:26Z</time>
      </trkpt>
      <trkpt lat="44.6401" lon="2.9888">
        <ele>1364</ele>
        <time>2012-09-12T09:31:38Z</time>
      </trkpt>
      <trkpt lat="44.64001" lon="2.98885">
        <ele>1365</ele>
        <time>2012-09-12T09:31:48Z</time>
      </trkpt>
      <trkpt lat="44.6399" lon="2.98893">
        <ele>1366</ele>
        <time>2012-09-12T09:31:59Z</time>
      </trkpt>
      <trkpt lat="44.6398" lon="2.98897">
        <ele>1366</ele>
        <time>2012-09-12T09:32:11Z</time>
      </trkpt>
      <trkpt lat="44.63969" lon="2.98907">
        <ele>1369</ele>
        <time>2012-09-12T09:32:22Z</time>
      </trkpt>
      <trkpt lat="44.6396" lon="2.98913">
        <ele>1370</ele>
        <time>2012-09-12T09:32:33Z</time>
      </trkpt>
      <trkpt lat="44.63951" lon="2.9892">
        <ele>1374</ele>
        <time>2012-09-12T09:32:43Z</time>
      </trkpt>
      <trkpt lat="44.6394" lon="2.9893">
        <ele>1373</ele>
        <time>2012-09-12T09:32:55Z</time>
      </trkpt>
      <trkpt lat="44.63929" lon="2.98938">
        <ele>1368</ele>
        <time>2012-09-12T09:33:07Z</time>
      </trkpt>
      <trkpt lat="44.63918" lon="2.98949">
        <ele>1376</ele>
        <time>2012-09-12T09:33:21Z</time>
      </trkpt>
      <trkpt lat="44.63909" lon="2.98956">
        <ele>1371</ele>
        <time>2012-09-12T09:33:32Z</time>
      </trkpt>
      <trkpt lat="44.63899" lon="2.98968">
        <ele>1380</ele>
        <time>2012-09-12T09:33:46Z</time>
      </trkpt>
      <trkpt lat="44.63889" lon="2.9898">
        <ele>1383</ele>
        <time>2012-09-12T09:33:57Z</time>
      </trkpt>
      <trkpt lat="44.63878" lon="2.9899">
        <ele>1380</ele>
        <time>2012-09-12T09:34:09Z</time>
      </trkpt>
      <trkpt lat="44.63869" lon="2.98996">
        <ele>1379</ele>
        <time>2012-09-12T09:34:20Z</time>
      </trkpt>
      <trkpt lat="44.63857" lon="2.99001">
        <ele>1377</ele>
        <time>2012-09-12T09:34:33Z</time>
      </trkpt>
      <trkpt lat="44.63848" lon="2.99013">
        <ele>1381</ele>
        <time>2012-09-12T09:34:46Z</time>
      </trkpt>
      <trkpt lat="44.63843" lon="2.99019">
        <ele>1383</ele>
        <time>2012-09-12T09:35:07Z</time>
      </trkpt>
      <trkpt lat="44.63836" lon="2.99026">
        <ele>1386</ele>
        <time>2012-09-12T09:35:20Z</time>
      </trkpt>
      <trkpt lat="44.63825" lon="2.99032">
        <ele>1377</ele>
        <time>2012-09-12T09:35:32Z</time>
      </trkpt>
      <trkpt lat="44.63815" lon="2.99044">
        <ele>1386</ele>
        <time>2012-09-12T09:35:43Z</time>
      </trkpt>
      <trkpt lat="44.63806" lon="2.9905">
        <ele>1382</ele>
        <time>2012-09-12T09:35:54Z</time>
      </trkpt>
      <trkpt lat="44.63799" lon="2.99053">
        <ele>1381</ele>
        <time>2012-09-12T09:36:18Z</time>
      </trkpt>
      <trkpt lat="44.63791" lon="2.9906">
        <ele>1386</ele>
        <time>2012-09-12T09:36:28Z</time>
      </trkpt>
      <trkpt lat="44.63782" lon="2.99067">
        <ele>1387</ele>
        <time>2012-09-12T09:36:43Z</time>
      </trkpt>
      <trkpt lat="44.63774" lon="2.99073">
        <ele>1385</ele>
        <time>2012-09-12T09:36:55Z</time>
      </trkpt>
      <trkpt lat="44.63764" lon="2.99081">
        <ele>1388</ele>
        <time>2012-09-12T09:37:06Z</time>
      </trkpt>
      <trkpt lat="44.63752" lon="2.99087">
        <ele>1388</ele>
        <time>2012-09-12T09:37:19Z</time>
      </trkpt>
      <trkpt lat="44.63745" lon="2.99095">
        <ele>1392</ele>
        <time>2012-09-12T09:37:32Z</time>
      </trkpt>
      <trkpt lat="44.63736" lon="2.99101">
        <ele>1389</ele>
        <time>2012-09-12T09:37:44Z</time>
      </trkpt>
      <trkpt lat="44.63729" lon="2.9911">
        <ele>1394</ele>
        <time>2012-09-12T09:37:55Z</time>
      </trkpt>
      <trkpt lat="44.6372" lon="2.99121">
        <ele>1393</ele>
        <time>2012-09-12T09:38:08Z</time>
      </trkpt>
      <trkpt lat="44.63712" lon="2.99129">
        <ele>1394</ele>
        <time>2012-09-12T09:38:19Z</time>
      </trkpt>
      <trkpt lat="44.63707" lon="2.99137">
        <ele>1399</ele>
        <time>2012-09-12T09:38:29Z</time>
      </trkpt>
      <trkpt lat="44.63697" lon="2.99148">
        <ele>1393</ele>
        <time>2012-09-12T09:38:43Z</time>
      </trkpt>
      <trkpt lat="44.63688" lon="2.9916">
        <ele>1401</ele>
        <time>2012-09-12T09:38:54Z</time>
      </trkpt>
      <trkpt lat="44.63678" lon="2.99173">
        <ele>1402</ele>
        <time>2012-09-12T09:39:06Z</time>
      </trkpt>
      <trkpt lat="44.63668" lon="2.99181">
        <ele>1399</ele>
        <time>2012-09-12T09:39:18Z</time>
      </trkpt>
      <trkpt lat="44.6366" lon="2.99187">
        <ele>1404</ele>
        <time>2012-09-12T09:39:29Z</time>
      </trkpt>
      <trkpt lat="44.63649" lon="2.99198">
        <ele>1406</ele>
        <time>2012-09-12T09:39:41Z</time>
      </trkpt>
      <trkpt lat="44.6364" lon="2.9921">
        <ele>1405</ele>
        <time>2012-09-12T09:39:53Z</time>
      </trkpt>
      <trkpt lat="44.63633" lon="2.9922">
        <ele>1407</ele>
        <time>2012-09-12T09:40:03Z</time>
      </trkpt>
      <trkpt lat="44.63623" lon="2.99232">
        <ele>1406</ele>
        <time>2012-09-12T09:40:13Z</time>
      </trkpt>
      <trkpt lat="44.63613" lon="2.99243">
        <ele>1409</ele>
        <time>2012-09-12T09:40:26Z</time>
      </trkpt>
      <trkpt lat="44.63606" lon="2.99252">
        <ele>1408</ele>
        <time>2012-09-12T09:40:37Z</time>
      </trkpt>
      <trkpt lat="44.63597" lon="2.99267">
        <ele>1414</ele>
        <time>2012-09-12T09:40:48Z</time>
      </trkpt>
      <trkpt lat="44.63588" lon="2.9928">
        <ele>1413</ele>
        <time>2012-09-12T09:41:00Z</time>
      </trkpt>
      <trkpt lat="44.63577" lon="2.99292">
        <ele>1408</ele>
        <time>2012-09-12T09:41:12Z</time>
      </trkpt>
      <trkpt lat="44.63565" lon="2.99304">
        <ele>1410</ele>
        <time>2012-09-12T09:41:25Z</time>
      </trkpt>
      <trkpt lat="44.63555" lon="2.99314">
        <ele>1405</ele>
        <time>2012-09-12T09:41:38Z</time>
      </trkpt>
      <trkpt lat="44.63543" lon="2.99328">
        <ele>1412</ele>
        <time>2012-09-12T09:41:52Z</time>
      </trkpt>
      <trkpt lat="44.63533" lon="2.9934">
        <ele>1412</ele>
        <time>2012-09-12T09:42:05Z</time>
      </trkpt>
      <trkpt lat="44.63522" lon="2.99347">
        <ele>1415</ele>
        <time>2012-09-12T09:42:17Z</time>
      </trkpt>
      <trkpt lat="44.63511" lon="2.99355">
        <ele>1406</ele>
        <time>2012-09-12T09:42:29Z</time>
      </trkpt>
      <trkpt lat="44.63506" lon="2.99365">
        <ele>1410</ele>
        <time>2012-09-12T09:43:41Z</time>
      </trkpt>
      <trkpt lat="44.63497" lon="2.9937">
        <ele>1411</ele>
        <time>2012-09-12T09:43:51Z</time>
      </trkpt>
      <trkpt lat="44.63487" lon="2.9938">
        <ele>1418</ele>
        <time>2012-09-12T09:44:02Z</time>
      </trkpt>
      <trkpt lat="44.63476" lon="2.99389">
        <ele>1413</ele>
        <time>2012-09-12T09:44:13Z</time>
      </trkpt>
      <trkpt lat="44.63467" lon="2.99393">
        <ele>1408</ele>
        <time>2012-09-12T09:44:24Z</time>
      </trkpt>
      <trkpt lat="44.63464" lon="2.99395">
        <ele>1414</ele>
        <time>2012-09-12T09:44:49Z</time>
      </trkpt>
      <trkpt lat="44.63449" lon="2.99401">
        <ele>1416</ele>
        <time>2012-09-12T09:45:01Z</time>
      </trkpt>
      <trkpt lat="44.63437" lon="2.99406">
        <ele>1412</ele>
        <time>2012-09-12T09:45:12Z</time>
      </trkpt>
      <trkpt lat="44.63424" lon="2.99411">
        <ele>1413</ele>
        <time>2012-09-12T09:45:24Z</time>
      </trkpt>
      <trkpt lat="44.63411" lon="2.99414">
        <ele>1419</ele>
        <time>2012-09-12T09:45:36Z</time>
      </trkpt>
      <trkpt lat="44.63398" lon="2.99419">
        <ele>1416</ele>
        <time>2012-09-12T09:45:48Z</time>
      </trkpt>
      <trkpt lat="44.63386" lon="2.99425">
        <ele>1417</ele>
        <time>2012-09-12T09:45:59Z</time>
      </trkpt>
      <trkpt lat="44.63373" lon="2.99429">
        <ele>1419</ele>
        <time>2012-09-12T09:46:10Z</time>
      </trkpt>
      <trkpt lat="44.63371" lon="2.99421">
        <ele>1418</ele>
        <time>2012-09-12T09:46:33Z</time>
      </trkpt>
      <trkpt lat="44.63367" lon="2.99423">
        <ele>1417</ele>
        <time>2012-09-12T09:47:05Z</time>
      </trkpt>
      <trkpt lat="44.63364" lon="2.99425">
        <ele>1417</ele>
        <time>2012-09-12T09:47:36Z</time>
      </trkpt>
      <trkpt lat="44.63367" lon="2.99424">
        <ele>1419</ele>
        <time>2012-09-12T09:49:03Z</time>
      </trkpt>
      <trkpt lat="44.6337" lon="2.99424">
        <ele>1416</ele>
        <time>2012-09-12T09:49:24Z</time>
      </trkpt>
      <trkpt lat="44.63371" lon="2.99421">
        <ele>1415</ele>
        <time>2012-09-12T09:49:55Z</time>
      </trkpt>
      <trkpt lat="44.63369" lon="2.99421">
        <ele>1420</ele>
        <time>2012-09-12T09:50:25Z</time>
      </trkpt>
      <trkpt lat="44.63371" lon="2.99422">
        <ele>1422</ele>
        <time>2012-09-12T09:50:58Z</time>
      </trkpt>
      <trkpt lat="44.63374" lon="2.99423">
        <ele>1423</ele>
        <time>2012-09-12T09:51:24Z</time>
      </trkpt>
      <trkpt lat="44.63371" lon="2.99421">
        <ele>1423</ele>
        <time>2012-09-12T09:53:43Z</time>
      </trkpt>
      <trkpt lat="44.63369" lon="2.99418">
        <ele>1416</ele>
        <time>2012-09-12T09:54:48Z</time>
      </trkpt>
      <trkpt lat="44.63372" lon="2.99421">
        <ele>1422</ele>
        <time>2012-09-12T09:55:13Z</time>
      </trkpt>
      <trkpt lat="44.63369" lon="2.9942">
        <ele>1414</ele>
        <time>2012-09-12T09:56:01Z</time>
      </trkpt>
      <trkpt lat="44.63372" lon="2.99422">
        <ele>1417</ele>
        <time>2012-09-12T09:57:01Z</time>
      </trkpt>
      <trkpt lat="44.63371" lon="2.99418">
        <ele>1417</ele>
        <time>2012-09-12T09:57:58Z</time>
      </trkpt>
      <trkpt lat="44.6337" lon="2.99421">
        <ele>1427</ele>
        <time>2012-09-12T09:58:39Z</time>
      </trkpt>
      <trkpt lat="44.63372" lon="2.99418">
        <ele>1416</ele>
        <time>2012-09-12T10:01:20Z</time>
      </trkpt>
      <trkpt lat="44.63379" lon="2.9941">
        <ele>1418</ele>
        <time>2012-09-12T10:02:23Z</time>
      </trkpt>
      <trkpt lat="44.63377" lon="2.99414">
        <ele>1417</ele>
        <time>2012-09-12T10:03:19Z</time>
      </trkpt>
      <trkpt lat="44.63372" lon="2.99424">
        <ele>1417</ele>
        <time>2012-09-12T10:03:32Z</time>
      </trkpt>
      <trkpt lat="44.6337" lon="2.99426">
        <ele>1417</ele>
        <time>2012-09-12T10:03:46Z</time>
      </trkpt>
      <trkpt lat="44.63368" lon="2.99434">
        <ele>1416</ele>
        <time>2012-09-12T10:04:05Z</time>
      </trkpt>
      <trkpt lat="44.63368" lon="2.9943">
        <ele>1417</ele>
        <time>2012-09-12T10:05:06Z</time>
      </trkpt>
      <trkpt lat="44.63026" lon="2.99083">
        <ele>1404</ele>
        <time>2012-09-12T10:26:31Z</time>
      </trkpt>
      <trkpt lat="44.63018" lon="2.99068">
        <ele>1394</ele>
        <time>2012-09-12T10:26:43Z</time>
      </trkpt>
      <trkpt lat="44.63011" lon="2.99052">
        <ele>1400</ele>
        <time>2012-09-12T10:26:55Z</time>
      </trkpt>
      <trkpt lat="44.63007" lon="2.99045">
        <ele>1402</ele>
        <time>2012-09-12T10:27:07Z</time>
      </trkpt>
      <trkpt lat="44.62993" lon="2.99026">
        <ele>1405</ele>
        <time>2012-09-12T10:27:20Z</time>
      </trkpt>
      <trkpt lat="44.62985" lon="2.99009">
        <ele>1402</ele>
        <time>2012-09-12T10:27:33Z</time>
      </trkpt>
      <trkpt lat="44.62976" lon="2.98996">
        <ele>1401</ele>
        <time>2012-09-12T10:27:43Z</time>
      </trkpt>
      <trkpt lat="44.62964" lon="2.98981">
        <ele>1403</ele>
        <time>2012-09-12T10:27:54Z</time>
      </trkpt>
      <trkpt lat="44.62953" lon="2.9897">
        <ele>1402</ele>
        <time>2012-09-12T10:28:04Z</time>
      </trkpt>
      <trkpt lat="44.62943" lon="2.98958">
        <ele>1398</ele>
        <time>2012-09-12T10:28:16Z</time>
      </trkpt>
      <trkpt lat="44.62936" lon="2.98949">
        <ele>1392</ele>
        <time>2012-09-12T10:28:26Z</time>
      </trkpt>
      <trkpt lat="44.62927" lon="2.98937">
        <ele>1391</ele>
        <time>2012-09-12T10:28:38Z</time>
      </trkpt>
      <trkpt lat="44.62917" lon="2.98929">
        <ele>1398</ele>
        <time>2012-09-12T10:28:48Z</time>
      </trkpt>
      <trkpt lat="44.62905" lon="2.98922">
        <ele>1393</ele>
        <time>2012-09-12T10:28:59Z</time>
      </trkpt>
      <trkpt lat="44.62897" lon="2.98906">
        <ele>1391</ele>
        <time>2012-09-12T10:29:10Z</time>
      </trkpt>
      <trkpt lat="44.62887" lon="2.98897">
        <ele>1388</ele>
        <time>2012-09-12T10:29:21Z</time>
      </trkpt>
      <trkpt lat="44.62875" lon="2.98887">
        <ele>1389</ele>
        <time>2012-09-12T10:29:33Z</time>
      </trkpt>
      <trkpt lat="44.62861" lon="2.98878">
        <ele>1399</ele>
        <time>2012-09-12T10:29:45Z</time>
      </trkpt>
      <trkpt lat="44.62852" lon="2.98865">
        <ele>1395</ele>
        <time>2012-09-12T10:29:55Z</time>
      </trkpt>
      <trkpt lat="44.62844" lon="2.98858">
        <ele>1389</ele>
        <time>2012-09-12T10:30:05Z</time>
      </trkpt>
      <trkpt lat="44.62835" lon="2.98854">
        <ele>1386</ele>
        <time>2012-09-12T10:30:18Z</time>
      </trkpt>
      <trkpt lat="44.62823" lon="2.98849">
        <ele>1387</ele>
        <time>2012-09-12T10:30:31Z</time>
      </trkpt>
      <trkpt lat="44.62815" lon="2.98849">
        <ele>1394</ele>
        <time>2012-09-12T10:30:47Z</time>
      </trkpt>
      <trkpt lat="44.62814" lon="2.98846">
        <ele>1391</ele>
        <time>2012-09-12T10:30:58Z</time>
      </trkpt>
      <trkpt lat="44.62802" lon="2.98843">
        <ele>1399</ele>
        <time>2012-09-12T10:31:11Z</time>
      </trkpt>
      <trkpt lat="44.62787" lon="2.98835">
        <ele>1390</ele>
        <time>2012-09-12T10:31:24Z</time>
      </trkpt>
      <trkpt lat="44.62776" lon="2.98825">
        <ele>1390</ele>
        <time>2012-09-12T10:31:37Z</time>
      </trkpt>
      <trkpt lat="44.62767" lon="2.98813">
        <ele>1380</ele>
        <time>2012-09-12T10:31:49Z</time>
      </trkpt>
      <trkpt lat="44.62755" lon="2.98806">
        <ele>1379</ele>
        <time>2012-09-12T10:32:01Z</time>
      </trkpt>
      <trkpt lat="44.62745" lon="2.988">
        <ele>1385</ele>
        <time>2012-09-12T10:32:12Z</time>
      </trkpt>
      <trkpt lat="44.62737" lon="2.98794">
        <ele>1386</ele>
        <time>2012-09-12T10:32:22Z</time>
      </trkpt>
      <trkpt lat="44.62723" lon="2.98786">
        <ele>1384</ele>
        <time>2012-09-12T10:32:35Z</time>
      </trkpt>
      <trkpt lat="44.62715" lon="2.98783">
        <ele>1372</ele>
        <time>2012-09-12T10:32:48Z</time>
      </trkpt>
      <trkpt lat="44.62704" lon="2.98772">
        <ele>1372</ele>
        <time>2012-09-12T10:33:01Z</time>
      </trkpt>
      <trkpt lat="44.62701" lon="2.98769">
        <ele>1372</ele>
        <time>2012-09-12T10:33:16Z</time>
      </trkpt>
      <trkpt lat="44.62692" lon="2.98772">
        <ele>1373</ele>
        <time>2012-09-12T10:33:27Z</time>
      </trkpt>
      <trkpt lat="44.62681" lon="2.9878">
        <ele>1372</ele>
        <time>2012-09-12T10:33:42Z</time>
      </trkpt>
      <trkpt lat="44.6267" lon="2.98771">
        <ele>1367</ele>
        <time>2012-09-12T10:33:53Z</time>
      </trkpt>
      <trkpt lat="44.62661" lon="2.98771">
        <ele>1371</ele>
        <time>2012-09-12T10:34:04Z</time>
      </trkpt>
      <trkpt lat="44.62651" lon="2.98771">
        <ele>1367</ele>
        <time>2012-09-12T10:34:14Z</time>
      </trkpt>
      <trkpt lat="44.62637" lon="2.98769">
        <ele>1367</ele>
        <time>2012-09-12T10:34:24Z</time>
      </trkpt>
      <trkpt lat="44.62624" lon="2.98767">
        <ele>1374</ele>
        <time>2012-09-12T10:34:35Z</time>
      </trkpt>
      <trkpt lat="44.62618" lon="2.98763">
        <ele>1363</ele>
        <time>2012-09-12T10:34:47Z</time>
      </trkpt>
      <trkpt lat="44.62613" lon="2.98766">
        <ele>1371</ele>
        <time>2012-09-12T10:34:57Z</time>
      </trkpt>
      <trkpt lat="44.62616" lon="2.98765">
        <ele>1367</ele>
        <time>2012-09-12T10:35:12Z</time>
      </trkpt>
      <trkpt lat="44.62617" lon="2.98769">
        <ele>1372</ele>
        <time>2012-09-12T10:35:50Z</time>
      </trkpt>
      <trkpt lat="44.62614" lon="2.98766">
        <ele>1370</ele>
        <time>2012-09-12T10:37:10Z</time>
      </trkpt>
      <trkpt lat="44.62612" lon="2.98765">
        <ele>1361</ele>
        <time>2012-09-12T10:37:51Z</time>
      </trkpt>
      <trkpt lat="44.62615" lon="2.98764">
        <ele>1370</ele>
        <time>2012-09-12T10:38:11Z</time>
      </trkpt>
      <trkpt lat="44.62615" lon="2.98764">
        <ele>1361</ele>
        <time>2012-09-12T10:39:02Z</time>
      </trkpt>
      <trkpt lat="44.62619" lon="2.9877">
        <ele>1364</ele>
        <time>2012-09-12T10:39:16Z</time>
      </trkpt>
      <trkpt lat="44.62624" lon="2.98766">
        <ele>1360</ele>
        <time>2012-09-12T10:39:28Z</time>
      </trkpt>
      <trkpt lat="44.62617" lon="2.98768">
        <ele>1365</ele>
        <time>2012-09-12T10:39:39Z</time>
      </trkpt>
      <trkpt lat="44.62605" lon="2.98752">
        <ele>1360</ele>
        <time>2012-09-12T10:39:52Z</time>
      </trkpt>
      <trkpt lat="44.62597" lon="2.98737">
        <ele>1362</ele>
        <time>2012-09-12T10:40:03Z</time>
      </trkpt>
      <trkpt lat="44.62592" lon="2.98733">
        <ele>1363</ele>
        <time>2012-09-12T10:40:18Z</time>
      </trkpt>
      <trkpt lat="44.62584" lon="2.98713">
        <ele>1361</ele>
        <time>2012-09-12T10:40:29Z</time>
      </trkpt>
      <trkpt lat="44.62574" lon="2.98697">
        <ele>1359</ele>
        <time>2012-09-12T10:40:40Z</time>
      </trkpt>
      <trkpt lat="44.62566" lon="2.9869">
        <ele>1362</ele>
        <time>2012-09-12T10:40:52Z</time>
      </trkpt>
      <trkpt lat="44.62561" lon="2.98679">
        <ele>1357</ele>
        <time>2012-09-12T10:41:03Z</time>
      </trkpt>
      <trkpt lat="44.62547" lon="2.98675">
        <ele>1363</ele>
        <time>2012-09-12T10:41:15Z</time>
      </trkpt>
      <trkpt lat="44.62532" lon="2.98675">
        <ele>1360</ele>
        <time>2012-09-12T10:41:25Z</time>
      </trkpt>
      <trkpt lat="44.62519" lon="2.98679">
        <ele>1361</ele>
        <time>2012-09-12T10:41:36Z</time>
      </trkpt>
      <trkpt lat="44.62502" lon="2.98682">
        <ele>1363</ele>
        <time>2012-09-12T10:41:48Z</time>
      </trkpt>
      <trkpt lat="44.6248" lon="2.98689">
        <ele>1367</ele>
        <time>2012-09-12T10:42:00Z</time>
      </trkpt>
      <trkpt lat="44.62465" lon="2.98689">
        <ele>1359</ele>
        <time>2012-09-12T10:42:12Z</time>
      </trkpt>
      <trkpt lat="44.62452" lon="2.9869">
        <ele>1356</ele>
        <time>2012-09-12T10:42:25Z</time>
      </trkpt>
      <trkpt lat="44.62444" lon="2.98686">
        <ele>1358</ele>
        <time>2012-09-12T10:42:37Z</time>
      </trkpt>
      <trkpt lat="44.6243" lon="2.98685">
        <ele>1357</ele>
        <time>2012-09-12T10:42:47Z</time>
      </trkpt>
      <trkpt lat="44.62414" lon="2.98683">
        <ele>1354</ele>
        <time>2012-09-12T10:43:00Z</time>
      </trkpt>
      <trkpt lat="44.62398" lon="2.98679">
        <ele>1353</ele>
        <time>2012-09-12T10:43:13Z</time>
      </trkpt>
      <trkpt lat="44.62383" lon="2.98677">
        <ele>1361</ele>
        <time>2012-09-12T10:43:26Z</time>
      </trkpt>
      <trkpt lat="44.6237" lon="2.98678">
        <ele>1349</ele>
        <time>2012-09-12T10:43:39Z</time>
      </trkpt>
      <trkpt lat="44.62358" lon="2.98673">
        <ele>1355</ele>
        <time>2012-09-12T10:43:53Z</time>
      </trkpt>
      <trkpt lat="44.62343" lon="2.98674">
        <ele>1361</ele>
        <time>2012-09-12T10:44:11Z</time>
      </trkpt>
      <trkpt lat="44.62329" lon="2.98667">
        <ele>1351</ele>
        <time>2012-09-12T10:44:24Z</time>
      </trkpt>
      <trkpt lat="44.62322" lon="2.98667">
        <ele>1350</ele>
        <time>2012-09-12T10:44:36Z</time>
      </trkpt>
      <trkpt lat="44.62317" lon="2.98676">
        <ele>1353</ele>
        <time>2012-09-12T10:44:47Z</time>
      </trkpt>
      <trkpt lat="44.623" lon="2.98678">
        <ele>1352</ele>
        <time>2012-09-12T10:45:00Z</time>
      </trkpt>
      <trkpt lat="44.62286" lon="2.98679">
        <ele>1356</ele>
        <time>2012-09-12T10:45:11Z</time>
      </trkpt>
      <trkpt lat="44.62266" lon="2.98681">
        <ele>1357</ele>
        <time>2012-09-12T10:45:21Z</time>
      </trkpt>
      <trkpt lat="44.62257" lon="2.98683">
        <ele>1361</ele>
        <time>2012-09-12T10:45:31Z</time>
      </trkpt>
      <trkpt lat="44.62245" lon="2.98682">
        <ele>1359</ele>
        <time>2012-09-12T10:45:43Z</time>
      </trkpt>
      <trkpt lat="44.62228" lon="2.98689">
        <ele>1357</ele>
        <time>2012-09-12T10:45:53Z</time>
      </trkpt>
      <trkpt lat="44.62225" lon="2.98691">
        <ele>1360</ele>
        <time>2012-09-12T10:46:06Z</time>
      </trkpt>
      <trkpt lat="44.62214" lon="2.98687">
        <ele>1361</ele>
        <time>2012-09-12T10:46:18Z</time>
      </trkpt>
      <trkpt lat="44.62189" lon="2.98646">
        <ele>1362</ele>
        <time>2012-09-12T10:46:44Z</time>
      </trkpt>
      <trkpt lat="44.62188" lon="2.98629">
        <ele>1360</ele>
        <time>2012-09-12T10:46:57Z</time>
      </trkpt>
      <trkpt lat="44.6218" lon="2.98636">
        <ele>1362</ele>
        <time>2012-09-12T10:47:07Z</time>
      </trkpt>
      <trkpt lat="44.62177" lon="2.98648">
        <ele>1357</ele>
        <time>2012-09-12T10:47:25Z</time>
      </trkpt>
      <trkpt lat="44.62173" lon="2.98655">
        <ele>1361</ele>
        <time>2012-09-12T10:47:40Z</time>
      </trkpt>
      <trkpt lat="44.62173" lon="2.98671">
        <ele>1366</ele>
        <time>2012-09-12T10:47:50Z</time>
      </trkpt>
      <trkpt lat="44.62165" lon="2.98692">
        <ele>1360</ele>
        <time>2012-09-12T10:48:01Z</time>
      </trkpt>
      <trkpt lat="44.62157" lon="2.98694">
        <ele>1358</ele>
        <time>2012-09-12T10:48:11Z</time>
      </trkpt>
      <trkpt lat="44.62141" lon="2.98695">
        <ele>1359</ele>
        <time>2012-09-12T10:48:24Z</time>
      </trkpt>
      <trkpt lat="44.62125" lon="2.98701">
        <ele>1352</ele>
        <time>2012-09-12T10:48:34Z</time>
      </trkpt>
      <trkpt lat="44.62111" lon="2.987">
        <ele>1354</ele>
        <time>2012-09-12T10:48:45Z</time>
      </trkpt>
      <trkpt lat="44.62096" lon="2.98701">
        <ele>1363</ele>
        <time>2012-09-12T10:48:57Z</time>
      </trkpt>
      <trkpt lat="44.62085" lon="2.987">
        <ele>1354</ele>
        <time>2012-09-12T10:49:08Z</time>
      </trkpt>
      <trkpt lat="44.62081" lon="2.98683">
        <ele>1353</ele>
        <time>2012-09-12T10:49:22Z</time>
      </trkpt>
      <trkpt lat="44.62082" lon="2.98688">
        <ele>1360</ele>
        <time>2012-09-12T10:50:00Z</time>
      </trkpt>
      <trkpt lat="44.62089" lon="2.98693">
        <ele>1359</ele>
        <time>2012-09-12T10:50:10Z</time>
      </trkpt>
      <trkpt lat="44.62092" lon="2.98691">
        <ele>1352</ele>
        <time>2012-09-12T10:50:32Z</time>
      </trkpt>
      <trkpt lat="44.62095" lon="2.9869">
        <ele>1356</ele>
        <time>2012-09-12T10:50:44Z</time>
      </trkpt>
      <trkpt lat="44.62097" lon="2.98687">
        <ele>1349</ele>
        <time>2012-09-12T10:51:59Z</time>
      </trkpt>
      <trkpt lat="44.62098" lon="2.98683">
        <ele>1355</ele>
        <time>2012-09-12T10:52:13Z</time>
      </trkpt>
      <trkpt lat="44.62098" lon="2.98687">
        <ele>1350</ele>
        <time>2012-09-12T10:52:47Z</time>
      </trkpt>
      <trkpt lat="44.62098" lon="2.98691">
        <ele>1356</ele>
        <time>2012-09-12T10:53:25Z</time>
      </trkpt>
      <trkpt lat="44.62098" lon="2.98687">
        <ele>1349</ele>
        <time>2012-09-12T10:53:40Z</time>
      </trkpt>
      <trkpt lat="44.62102" lon="2.98682">
        <ele>1344</ele>
        <time>2012-09-12T10:53:52Z</time>
      </trkpt>
      <trkpt lat="44.62101" lon="2.98678">
        <ele>1341</ele>
        <time>2012-09-12T10:54:16Z</time>
      </trkpt>
      <trkpt lat="44.62101" lon="2.98682">
        <ele>1353</ele>
        <time>2012-09-12T10:54:59Z</time>
      </trkpt>
      <trkpt lat="44.62096" lon="2.98692">
        <ele>1360</ele>
        <time>2012-09-12T10:55:11Z</time>
      </trkpt>
      <trkpt lat="44.62093" lon="2.98688">
        <ele>1348</ele>
        <time>2012-09-12T10:55:59Z</time>
      </trkpt>
      <trkpt lat="44.62093" lon="2.98679">
        <ele>1351</ele>
        <time>2012-09-12T10:56:12Z</time>
      </trkpt>
      <trkpt lat="44.62096" lon="2.98667">
        <ele>1355</ele>
        <time>2012-09-12T10:56:25Z</time>
      </trkpt>
      <trkpt lat="44.62102" lon="2.98654">
        <ele>1354</ele>
        <time>2012-09-12T10:56:36Z</time>
      </trkpt>
      <trkpt lat="44.62099" lon="2.98654">
        <ele>1354</ele>
        <time>2012-09-12T10:56:48Z</time>
      </trkpt>
      <trkpt lat="44.62098" lon="2.98662">
        <ele>1354</ele>
        <time>2012-09-12T10:56:59Z</time>
      </trkpt>
      <trkpt lat="44.62132" lon="2.98667">
        <ele>1327</ele>
        <time>2012-09-12T12:07:41Z</time>
      </trkpt>
      <trkpt lat="44.62143" lon="2.98694">
        <ele>1347</ele>
        <time>2012-09-12T12:07:54Z</time>
      </trkpt>
      <trkpt lat="44.62156" lon="2.98684">
        <ele>1344</ele>
        <time>2012-09-12T12:08:09Z</time>
      </trkpt>
      <trkpt lat="44.62164" lon="2.98673">
        <ele>1337</ele>
        <time>2012-09-12T12:08:21Z</time>
      </trkpt>
      <trkpt lat="44.62172" lon="2.98665">
        <ele>1336</ele>
        <time>2012-09-12T12:08:32Z</time>
      </trkpt>
      <trkpt lat="44.62175" lon="2.98653">
        <ele>1345</ele>
        <time>2012-09-12T12:08:42Z</time>
      </trkpt>
      <trkpt lat="44.62178" lon="2.98635">
        <ele>1361</ele>
        <time>2012-09-12T12:08:53Z</time>
      </trkpt>
      <trkpt lat="44.62177" lon="2.98611">
        <ele>1338</ele>
        <time>2012-09-12T12:09:04Z</time>
      </trkpt>
      <trkpt lat="44.62174" lon="2.98599">
        <ele>1416</ele>
        <time>2012-09-12T12:09:25Z</time>
      </trkpt>
      <trkpt lat="44.62171" lon="2.98566">
        <ele>1376</ele>
        <time>2012-09-12T12:09:36Z</time>
      </trkpt>
      <trkpt lat="44.62167" lon="2.9855">
        <ele>1370</ele>
        <time>2012-09-12T12:09:48Z</time>
      </trkpt>
      <trkpt lat="44.6216" lon="2.98533">
        <ele>1374</ele>
        <time>2012-09-12T12:10:00Z</time>
      </trkpt>
      <trkpt lat="44.62158" lon="2.98513">
        <ele>1377</ele>
        <time>2012-09-12T12:10:12Z</time>
      </trkpt>
      <trkpt lat="44.62154" lon="2.98498">
        <ele>1366</ele>
        <time>2012-09-12T12:10:25Z</time>
      </trkpt>
      <trkpt lat="44.62149" lon="2.98478">
        <ele>1355</ele>
        <time>2012-09-12T12:10:36Z</time>
      </trkpt>
      <trkpt lat="44.62147" lon="2.9846">
        <ele>1359</ele>
        <time>2012-09-12T12:10:48Z</time>
      </trkpt>
      <trkpt lat="44.62143" lon="2.98442">
        <ele>1368</ele>
        <time>2012-09-12T12:11:00Z</time>
      </trkpt>
      <trkpt lat="44.62141" lon="2.98422">
        <ele>1379</ele>
        <time>2012-09-12T12:11:12Z</time>
      </trkpt>
      <trkpt lat="44.62132" lon="2.98403">
        <ele>1367</ele>
        <time>2012-09-12T12:11:23Z</time>
      </trkpt>
      <trkpt lat="44.6212" lon="2.98392">
        <ele>1362</ele>
        <time>2012-09-12T12:11:33Z</time>
      </trkpt>
      <trkpt lat="44.62106" lon="2.98379">
        <ele>1354</ele>
        <time>2012-09-12T12:11:44Z</time>
      </trkpt>
      <trkpt lat="44.62094" lon="2.98365">
        <ele>1352</ele>
        <time>2012-09-12T12:11:57Z</time>
      </trkpt>
      <trkpt lat="44.62085" lon="2.98354">
        <ele>1350</ele>
        <time>2012-09-12T12:12:09Z</time>
      </trkpt>
      <trkpt lat="44.62079" lon="2.9835">
        <ele>1358</ele>
        <time>2012-09-12T12:12:20Z</time>
      </trkpt>
      <trkpt lat="44.62074" lon="2.98334">
        <ele>1359</ele>
        <time>2012-09-12T12:12:31Z</time>
      </trkpt>
      <trkpt lat="44.62069" lon="2.98318">
        <ele>1365</ele>
        <time>2012-09-12T12:12:43Z</time>
      </trkpt>
      <trkpt lat="44.62064" lon="2.98306">
        <ele>1368</ele>
        <time>2012-09-12T12:12:53Z</time>
      </trkpt>
      <trkpt lat="44.6206" lon="2.98285">
        <ele>1382</ele>
        <time>2012-09-12T12:13:04Z</time>
      </trkpt>
      <trkpt lat="44.62062" lon="2.9827">
        <ele>1386</ele>
        <time>2012-09-12T12:13:17Z</time>
      </trkpt>
      <trkpt lat="44.62053" lon="2.98255">
        <ele>1387</ele>
        <time>2012-09-12T12:13:27Z</time>
      </trkpt>
      <trkpt lat="44.62042" lon="2.98249">
        <ele>1375</ele>
        <time>2012-09-12T12:13:39Z</time>
      </trkpt>
      <trkpt lat="44.62032" lon="2.98232">
        <ele>1363</ele>
        <time>2012-09-12T12:13:50Z</time>
      </trkpt>
      <trkpt lat="44.62023" lon="2.98219">
        <ele>1362</ele>
        <time>2012-09-12T12:14:00Z</time>
      </trkpt>
      <trkpt lat="44.62008" lon="2.98208">
        <ele>1361</ele>
        <time>2012-09-12T12:14:13Z</time>
      </trkpt>
      <trkpt lat="44.61996" lon="2.98193">
        <ele>1359</ele>
        <time>2012-09-12T12:14:25Z</time>
      </trkpt>
      <trkpt lat="44.61989" lon="2.98173">
        <ele>1355</ele>
        <time>2012-09-12T12:14:36Z</time>
      </trkpt>
      <trkpt lat="44.61982" lon="2.98152">
        <ele>1357</ele>
        <time>2012-09-12T12:14:48Z</time>
      </trkpt>
      <trkpt lat="44.61972" lon="2.98142">
        <ele>1361</ele>
        <time>2012-09-12T12:15:01Z</time>
      </trkpt>
      <trkpt lat="44.61972" lon="2.98124">
        <ele>1362</ele>
        <time>2012-09-12T12:15:11Z</time>
      </trkpt>
      <trkpt lat="44.61969" lon="2.98098">
        <ele>1376</ele>
        <time>2012-09-12T12:15:23Z</time>
      </trkpt>
      <trkpt lat="44.61968" lon="2.9808">
        <ele>1381</ele>
        <time>2012-09-12T12:15:35Z</time>
      </trkpt>
      <trkpt lat="44.61964" lon="2.98065">
        <ele>1380</ele>
        <time>2012-09-12T12:15:47Z</time>
      </trkpt>
      <trkpt lat="44.61964" lon="2.9804">
        <ele>1384</ele>
        <time>2012-09-12T12:15:59Z</time>
      </trkpt>
      <trkpt lat="44.61957" lon="2.98025">
        <ele>1380</ele>
        <time>2012-09-12T12:16:11Z</time>
      </trkpt>
      <trkpt lat="44.61948" lon="2.98004">
        <ele>1378</ele>
        <time>2012-09-12T12:16:23Z</time>
      </trkpt>
      <trkpt lat="44.61942" lon="2.97987">
        <ele>1375</ele>
        <time>2012-09-12T12:16:36Z</time>
      </trkpt>
      <trkpt lat="44.61938" lon="2.97968">
        <ele>1376</ele>
        <time>2012-09-12T12:16:48Z</time>
      </trkpt>
      <trkpt lat="44.61934" lon="2.9795">
        <ele>1375</ele>
        <time>2012-09-12T12:16:59Z</time>
      </trkpt>
      <trkpt lat="44.61929" lon="2.97934">
        <ele>1372</ele>
        <time>2012-09-12T12:17:10Z</time>
      </trkpt>
      <trkpt lat="44.61926" lon="2.97915">
        <ele>1373</ele>
        <time>2012-09-12T12:17:20Z</time>
      </trkpt>
      <trkpt lat="44.61922" lon="2.97895">
        <ele>1371</ele>
        <time>2012-09-12T12:17:31Z</time>
      </trkpt>
      <trkpt lat="44.61919" lon="2.97882">
        <ele>1368</ele>
        <time>2012-09-12T12:17:42Z</time>
      </trkpt>
      <trkpt lat="44.61918" lon="2.97868">
        <ele>1372</ele>
        <time>2012-09-12T12:17:55Z</time>
      </trkpt>
      <trkpt lat="44.61916" lon="2.97856">
        <ele>1368</ele>
        <time>2012-09-12T12:18:07Z</time>
      </trkpt>
      <trkpt lat="44.61913" lon="2.97844">
        <ele>1369</ele>
        <time>2012-09-12T12:18:17Z</time>
      </trkpt>
      <trkpt lat="44.61907" lon="2.97824">
        <ele>1367</ele>
        <time>2012-09-12T12:18:29Z</time>
      </trkpt>
      <trkpt lat="44.61898" lon="2.97806">
        <ele>1367</ele>
        <time>2012-09-12T12:18:41Z</time>
      </trkpt>
      <trkpt lat="44.61895" lon="2.978">
        <ele>1357</ele>
        <time>2012-09-12T12:18:51Z</time>
      </trkpt>
      <trkpt lat="44.6189" lon="2.97788">
        <ele>1352</ele>
        <time>2012-09-12T12:19:04Z</time>
      </trkpt>
      <trkpt lat="44.61888" lon="2.97775">
        <ele>1352</ele>
        <time>2012-09-12T12:19:14Z</time>
      </trkpt>
      <trkpt lat="44.61887" lon="2.97762">
        <ele>1357</ele>
        <time>2012-09-12T12:19:25Z</time>
      </trkpt>
      <trkpt lat="44.61883" lon="2.97751">
        <ele>1359</ele>
        <time>2012-09-12T12:19:36Z</time>
      </trkpt>
      <trkpt lat="44.6188" lon="2.97743">
        <ele>1358</ele>
        <time>2012-09-12T12:19:49Z</time>
      </trkpt>
      <trkpt lat="44.61876" lon="2.97723">
        <ele>1365</ele>
        <time>2012-09-12T12:20:02Z</time>
      </trkpt>
      <trkpt lat="44.61874" lon="2.97712">
        <ele>1368</ele>
        <time>2012-09-12T12:20:13Z</time>
      </trkpt>
      <trkpt lat="44.61869" lon="2.97693">
        <ele>1363</ele>
        <time>2012-09-12T12:20:26Z</time>
      </trkpt>
      <trkpt lat="44.61866" lon="2.97681">
        <ele>1360</ele>
        <time>2012-09-12T12:20:37Z</time>
      </trkpt>
      <trkpt lat="44.61858" lon="2.97663">
        <ele>1358</ele>
        <time>2012-09-12T12:20:50Z</time>
      </trkpt>
      <trkpt lat="44.61853" lon="2.97641">
        <ele>1362</ele>
        <time>2012-09-12T12:21:02Z</time>
      </trkpt>
      <trkpt lat="44.61844" lon="2.97621">
        <ele>1360</ele>
        <time>2012-09-12T12:21:14Z</time>
      </trkpt>
      <trkpt lat="44.61839" lon="2.97604">
        <ele>1360</ele>
        <time>2012-09-12T12:21:25Z</time>
      </trkpt>
      <trkpt lat="44.61833" lon="2.97589">
        <ele>1363</ele>
        <time>2012-09-12T12:21:36Z</time>
      </trkpt>
      <trkpt lat="44.61828" lon="2.97586">
        <ele>1359</ele>
        <time>2012-09-12T12:21:54Z</time>
      </trkpt>
      <trkpt lat="44.61826" lon="2.97585">
        <ele>1355</ele>
        <time>2012-09-12T12:22:05Z</time>
      </trkpt>
      <trkpt lat="44.61822" lon="2.97566">
        <ele>1356</ele>
        <time>2012-09-12T12:22:16Z</time>
      </trkpt>
      <trkpt lat="44.61818" lon="2.9755">
        <ele>1358</ele>
        <time>2012-09-12T12:22:27Z</time>
      </trkpt>
      <trkpt lat="44.6181" lon="2.9753">
        <ele>1359</ele>
        <time>2012-09-12T12:22:39Z</time>
      </trkpt>
      <trkpt lat="44.61802" lon="2.97515">
        <ele>1355</ele>
        <time>2012-09-12T12:22:49Z</time>
      </trkpt>
      <trkpt lat="44.61794" lon="2.97505">
        <ele>1354</ele>
        <time>2012-09-12T12:23:00Z</time>
      </trkpt>
      <trkpt lat="44.61782" lon="2.97498">
        <ele>1353</ele>
        <time>2012-09-12T12:23:13Z</time>
      </trkpt>
      <trkpt lat="44.61776" lon="2.97487">
        <ele>1351</ele>
        <time>2012-09-12T12:23:24Z</time>
      </trkpt>
      <trkpt lat="44.61778" lon="2.97473">
        <ele>1358</ele>
        <time>2012-09-12T12:23:36Z</time>
      </trkpt>
      <trkpt lat="44.61781" lon="2.97466">
        <ele>1356</ele>
        <time>2012-09-12T12:23:49Z</time>
      </trkpt>
      <trkpt lat="44.61784" lon="2.97455">
        <ele>1347</ele>
        <time>2012-09-12T12:24:01Z</time>
      </trkpt>
      <trkpt lat="44.61784" lon="2.97447">
        <ele>1350</ele>
        <time>2012-09-12T12:24:12Z</time>
      </trkpt>
      <trkpt lat="44.61783" lon="2.97431">
        <ele>1345</ele>
        <time>2012-09-12T12:24:22Z</time>
      </trkpt>
      <trkpt lat="44.61783" lon="2.97419">
        <ele>1345</ele>
        <time>2012-09-12T12:24:34Z</time>
      </trkpt>
      <trkpt lat="44.61791" lon="2.97402">
        <ele>1333</ele>
        <time>2012-09-12T12:24:47Z</time>
      </trkpt>
      <trkpt lat="44.61797" lon="2.97385">
        <ele>1348</ele>
        <time>2012-09-12T12:24:59Z</time>
      </trkpt>
      <trkpt lat="44.61802" lon="2.97372">
        <ele>1353</ele>
        <time>2012-09-12T12:25:10Z</time>
      </trkpt>
      <trkpt lat="44.61812" lon="2.97362">
        <ele>1355</ele>
        <time>2012-09-12T12:25:23Z</time>
      </trkpt>
      <trkpt lat="44.61817" lon="2.97351">
        <ele>1336</ele>
        <time>2012-09-12T12:25:41Z</time>
      </trkpt>
      <trkpt lat="44.61822" lon="2.97339">
        <ele>1340</ele>
        <time>2012-09-12T12:25:51Z</time>
      </trkpt>
      <trkpt lat="44.61832" lon="2.97329">
        <ele>1341</ele>
        <time>2012-09-12T12:26:03Z</time>
      </trkpt>
      <trkpt lat="44.6184" lon="2.97316">
        <ele>1341</ele>
        <time>2012-09-12T12:26:15Z</time>
      </trkpt>
      <trkpt lat="44.61844" lon="2.97301">
        <ele>1337</ele>
        <time>2012-09-12T12:26:28Z</time>
      </trkpt>
      <trkpt lat="44.6185" lon="2.97292">
        <ele>1355</ele>
        <time>2012-09-12T12:26:45Z</time>
      </trkpt>
      <trkpt lat="44.61852" lon="2.97295">
        <ele>1354</ele>
        <time>2012-09-12T12:26:56Z</time>
      </trkpt>
      <trkpt lat="44.61854" lon="2.97291">
        <ele>1354</ele>
        <time>2012-09-12T12:27:13Z</time>
      </trkpt>
      <trkpt lat="44.61856" lon="2.97267">
        <ele>1353</ele>
        <time>2012-09-12T12:27:25Z</time>
      </trkpt>
      <trkpt lat="44.6186" lon="2.97246">
        <ele>1353</ele>
        <time>2012-09-12T12:27:36Z</time>
      </trkpt>
      <trkpt lat="44.61864" lon="2.9723">
        <ele>1356</ele>
        <time>2012-09-12T12:27:49Z</time>
      </trkpt>
      <trkpt lat="44.6186" lon="2.97214">
        <ele>1358</ele>
        <time>2012-09-12T12:28:01Z</time>
      </trkpt>
      <trkpt lat="44.6186" lon="2.97196">
        <ele>1359</ele>
        <time>2012-09-12T12:28:12Z</time>
      </trkpt>
      <trkpt lat="44.61858" lon="2.97184">
        <ele>1337</ele>
        <time>2012-09-12T12:28:25Z</time>
      </trkpt>
      <trkpt lat="44.61842" lon="2.97173">
        <ele>1336</ele>
        <time>2012-09-12T12:28:37Z</time>
      </trkpt>
      <trkpt lat="44.61833" lon="2.9716">
        <ele>1334</ele>
        <time>2012-09-12T12:28:47Z</time>
      </trkpt>
      <trkpt lat="44.61827" lon="2.97137">
        <ele>1325</ele>
        <time>2012-09-12T12:28:59Z</time>
      </trkpt>
      <trkpt lat="44.61822" lon="2.97126">
        <ele>1314</ele>
        <time>2012-09-12T12:29:10Z</time>
      </trkpt>
      <trkpt lat="44.61823" lon="2.97108">
        <ele>1316</ele>
        <time>2012-09-12T12:29:20Z</time>
      </trkpt>
      <trkpt lat="44.61821" lon="2.97088">
        <ele>1322</ele>
        <time>2012-09-12T12:29:32Z</time>
      </trkpt>
      <trkpt lat="44.61819" lon="2.97069">
        <ele>1320</ele>
        <time>2012-09-12T12:29:43Z</time>
      </trkpt>
      <trkpt lat="44.61816" lon="2.97048">
        <ele>1319</ele>
        <time>2012-09-12T12:29:55Z</time>
      </trkpt>
      <trkpt lat="44.61814" lon="2.97025">
        <ele>1327</ele>
        <time>2012-09-12T12:30:07Z</time>
      </trkpt>
      <trkpt lat="44.61814" lon="2.97005">
        <ele>1332</ele>
        <time>2012-09-12T12:30:19Z</time>
      </trkpt>
      <trkpt lat="44.61811" lon="2.96988">
        <ele>1334</ele>
        <time>2012-09-12T12:30:30Z</time>
      </trkpt>
      <trkpt lat="44.61807" lon="2.96975">
        <ele>1327</ele>
        <time>2012-09-12T12:30:40Z</time>
      </trkpt>
      <trkpt lat="44.61805" lon="2.96957">
        <ele>1324</ele>
        <time>2012-09-12T12:30:52Z</time>
      </trkpt>
      <trkpt lat="44.61802" lon="2.96943">
        <ele>1321</ele>
        <time>2012-09-12T12:31:02Z</time>
      </trkpt>
      <trkpt lat="44.61793" lon="2.96929">
        <ele>1318</ele>
        <time>2012-09-12T12:31:13Z</time>
      </trkpt>
      <trkpt lat="44.61786" lon="2.9693">
        <ele>1316</ele>
        <time>2012-09-12T12:31:42Z</time>
      </trkpt>
      <trkpt lat="44.61787" lon="2.96913">
        <ele>1317</ele>
        <time>2012-09-12T12:31:55Z</time>
      </trkpt>
      <trkpt lat="44.61783" lon="2.969">
        <ele>1313</ele>
        <time>2012-09-12T12:32:05Z</time>
      </trkpt>
      <trkpt lat="44.61782" lon="2.96888">
        <ele>1307</ele>
        <time>2012-09-12T12:32:16Z</time>
      </trkpt>
      <trkpt lat="44.61783" lon="2.96884">
        <ele>1314</ele>
        <time>2012-09-12T12:32:41Z</time>
      </trkpt>
      <trkpt lat="44.61783" lon="2.9687">
        <ele>1318</ele>
        <time>2012-09-12T12:32:53Z</time>
      </trkpt>
      <trkpt lat="44.61778" lon="2.96855">
        <ele>1308</ele>
        <time>2012-09-12T12:33:06Z</time>
      </trkpt>
      <trkpt lat="44.61773" lon="2.96847">
        <ele>1306</ele>
        <time>2012-09-12T12:33:16Z</time>
      </trkpt>
      <trkpt lat="44.61761" lon="2.96835">
        <ele>1306</ele>
        <time>2012-09-12T12:33:26Z</time>
      </trkpt>
      <trkpt lat="44.61744" lon="2.96829">
        <ele>1295</ele>
        <time>2012-09-12T12:33:38Z</time>
      </trkpt>
      <trkpt lat="44.61735" lon="2.96822">
        <ele>1297</ele>
        <time>2012-09-12T12:33:49Z</time>
      </trkpt>
      <trkpt lat="44.61724" lon="2.96808">
        <ele>1291</ele>
        <time>2012-09-12T12:34:00Z</time>
      </trkpt>
      <trkpt lat="44.61713" lon="2.96796">
        <ele>1282</ele>
        <time>2012-09-12T12:34:12Z</time>
      </trkpt>
      <trkpt lat="44.61698" lon="2.96787">
        <ele>1304</ele>
        <time>2012-09-12T12:34:24Z</time>
      </trkpt>
      <trkpt lat="44.61687" lon="2.96778">
        <ele>1298</ele>
        <time>2012-09-12T12:34:35Z</time>
      </trkpt>
      <trkpt lat="44.61677" lon="2.96767">
        <ele>1296</ele>
        <time>2012-09-12T12:34:47Z</time>
      </trkpt>
      <trkpt lat="44.61669" lon="2.9676">
        <ele>1298</ele>
        <time>2012-09-12T12:34:57Z</time>
      </trkpt>
      <trkpt lat="44.6166" lon="2.96755">
        <ele>1305</ele>
        <time>2012-09-12T12:35:08Z</time>
      </trkpt>
      <trkpt lat="44.6165" lon="2.96744">
        <ele>1308</ele>
        <time>2012-09-12T12:35:20Z</time>
      </trkpt>
      <trkpt lat="44.61639" lon="2.96733">
        <ele>1309</ele>
        <time>2012-09-12T12:35:32Z</time>
      </trkpt>
      <trkpt lat="44.61626" lon="2.9672">
        <ele>1307</ele>
        <time>2012-09-12T12:35:46Z</time>
      </trkpt>
      <trkpt lat="44.61618" lon="2.96706">
        <ele>1306</ele>
        <time>2012-09-12T12:35:58Z</time>
      </trkpt>
      <trkpt lat="44.6161" lon="2.96699">
        <ele>1299</ele>
        <time>2012-09-12T12:36:09Z</time>
      </trkpt>
      <trkpt lat="44.61602" lon="2.96691">
        <ele>1300</ele>
        <time>2012-09-12T12:36:20Z</time>
      </trkpt>
      <trkpt lat="44.61591" lon="2.96684">
        <ele>1289</ele>
        <time>2012-09-12T12:36:33Z</time>
      </trkpt>
      <trkpt lat="44.61576" lon="2.96682">
        <ele>1286</ele>
        <time>2012-09-12T12:36:47Z</time>
      </trkpt>
      <trkpt lat="44.61572" lon="2.96671">
        <ele>1296</ele>
        <time>2012-09-12T12:36:58Z</time>
      </trkpt>
      <trkpt lat="44.61564" lon="2.96659">
        <ele>1298</ele>
        <time>2012-09-12T12:37:09Z</time>
      </trkpt>
      <trkpt lat="44.61552" lon="2.96656">
        <ele>1295</ele>
        <time>2012-09-12T12:37:21Z</time>
      </trkpt>
      <trkpt lat="44.61539" lon="2.96651">
        <ele>1291</ele>
        <time>2012-09-12T12:37:32Z</time>
      </trkpt>
      <trkpt lat="44.61528" lon="2.96647">
        <ele>1288</ele>
        <time>2012-09-12T12:37:42Z</time>
      </trkpt>
      <trkpt lat="44.61522" lon="2.96634">
        <ele>1280</ele>
        <time>2012-09-12T12:37:55Z</time>
      </trkpt>
      <trkpt lat="44.61514" lon="2.96629">
        <ele>1276</ele>
        <time>2012-09-12T12:38:07Z</time>
      </trkpt>
      <trkpt lat="44.61501" lon="2.96623">
        <ele>1278</ele>
        <time>2012-09-12T12:38:18Z</time>
      </trkpt>
      <trkpt lat="44.61493" lon="2.96618">
        <ele>1275</ele>
        <time>2012-09-12T12:38:30Z</time>
      </trkpt>
      <trkpt lat="44.61486" lon="2.96608">
        <ele>1279</ele>
        <time>2012-09-12T12:38:44Z</time>
      </trkpt>
      <trkpt lat="44.61478" lon="2.96594">
        <ele>1286</ele>
        <time>2012-09-12T12:38:55Z</time>
      </trkpt>
      <trkpt lat="44.61463" lon="2.96587">
        <ele>1279</ele>
        <time>2012-09-12T12:39:05Z</time>
      </trkpt>
      <trkpt lat="44.61449" lon="2.96577">
        <ele>1283</ele>
        <time>2012-09-12T12:39:19Z</time>
      </trkpt>
      <trkpt lat="44.61443" lon="2.96568">
        <ele>1276</ele>
        <time>2012-09-12T12:39:29Z</time>
      </trkpt>
      <trkpt lat="44.61434" lon="2.96555">
        <ele>1269</ele>
        <time>2012-09-12T12:39:40Z</time>
      </trkpt>
      <trkpt lat="44.61429" lon="2.96544">
        <ele>1277</ele>
        <time>2012-09-12T12:39:50Z</time>
      </trkpt>
      <trkpt lat="44.61417" lon="2.9653">
        <ele>1268</ele>
        <time>2012-09-12T12:40:03Z</time>
      </trkpt>
      <trkpt lat="44.61409" lon="2.96523">
        <ele>1280</ele>
        <time>2012-09-12T12:40:15Z</time>
      </trkpt>
      <trkpt lat="44.614" lon="2.96519">
        <ele>1280</ele>
        <time>2012-09-12T12:40:27Z</time>
      </trkpt>
      <trkpt lat="44.61387" lon="2.96517">
        <ele>1276</ele>
        <time>2012-09-12T12:40:40Z</time>
      </trkpt>
      <trkpt lat="44.61383" lon="2.96521">
        <ele>1276</ele>
        <time>2012-09-12T12:41:13Z</time>
      </trkpt>
      <trkpt lat="44.6137" lon="2.96523">
        <ele>1281</ele>
        <time>2012-09-12T12:41:23Z</time>
      </trkpt>
      <trkpt lat="44.61354" lon="2.96512">
        <ele>1279</ele>
        <time>2012-09-12T12:41:34Z</time>
      </trkpt>
      <trkpt lat="44.61344" lon="2.96505">
        <ele>1274</ele>
        <time>2012-09-12T12:41:47Z</time>
      </trkpt>
      <trkpt lat="44.61335" lon="2.96501">
        <ele>1269</ele>
        <time>2012-09-12T12:41:57Z</time>
      </trkpt>
      <trkpt lat="44.61314" lon="2.96508">
        <ele>1252</ele>
        <time>2012-09-12T12:42:09Z</time>
      </trkpt>
      <trkpt lat="44.61302" lon="2.96502">
        <ele>1256</ele>
        <time>2012-09-12T12:42:22Z</time>
      </trkpt>
      <trkpt lat="44.61286" lon="2.96497">
        <ele>1258</ele>
        <time>2012-09-12T12:42:36Z</time>
      </trkpt>
      <trkpt lat="44.61281" lon="2.96498">
        <ele>1261</ele>
        <time>2012-09-12T12:42:46Z</time>
      </trkpt>
      <trkpt lat="44.6127" lon="2.96495">
        <ele>1251</ele>
        <time>2012-09-12T12:42:57Z</time>
      </trkpt>
      <trkpt lat="44.61262" lon="2.9649">
        <ele>1258</ele>
        <time>2012-09-12T12:43:07Z</time>
      </trkpt>
      <trkpt lat="44.61253" lon="2.96484">
        <ele>1264</ele>
        <time>2012-09-12T12:43:21Z</time>
      </trkpt>
      <trkpt lat="44.61243" lon="2.96482">
        <ele>1258</ele>
        <time>2012-09-12T12:43:32Z</time>
      </trkpt>
      <trkpt lat="44.61226" lon="2.96478">
        <ele>1254</ele>
        <time>2012-09-12T12:43:44Z</time>
      </trkpt>
      <trkpt lat="44.61213" lon="2.96471">
        <ele>1250</ele>
        <time>2012-09-12T12:43:56Z</time>
      </trkpt>
      <trkpt lat="44.61204" lon="2.96467">
        <ele>1245</ele>
        <time>2012-09-12T12:44:07Z</time>
      </trkpt>
      <trkpt lat="44.61187" lon="2.96463">
        <ele>1264</ele>
        <time>2012-09-12T12:44:18Z</time>
      </trkpt>
      <trkpt lat="44.61175" lon="2.96462">
        <ele>1250</ele>
        <time>2012-09-12T12:44:29Z</time>
      </trkpt>
      <trkpt lat="44.61158" lon="2.96457">
        <ele>1245</ele>
        <time>2012-09-12T12:44:42Z</time>
      </trkpt>
      <trkpt lat="44.61148" lon="2.96451">
        <ele>1242</ele>
        <time>2012-09-12T12:44:52Z</time>
      </trkpt>
      <trkpt lat="44.61135" lon="2.96447">
        <ele>1244</ele>
        <time>2012-09-12T12:45:03Z</time>
      </trkpt>
      <trkpt lat="44.61126" lon="2.96447">
        <ele>1250</ele>
        <time>2012-09-12T12:45:16Z</time>
      </trkpt>
      <trkpt lat="44.6111" lon="2.96437">
        <ele>1262</ele>
        <time>2012-09-12T12:45:29Z</time>
      </trkpt>
      <trkpt lat="44.61098" lon="2.96427">
        <ele>1262</ele>
        <time>2012-09-12T12:45:41Z</time>
      </trkpt>
      <trkpt lat="44.61084" lon="2.96423">
        <ele>1261</ele>
        <time>2012-09-12T12:45:52Z</time>
      </trkpt>
      <trkpt lat="44.61064" lon="2.96424">
        <ele>1250</ele>
        <time>2012-09-12T12:46:04Z</time>
      </trkpt>
      <trkpt lat="44.61051" lon="2.96421">
        <ele>1251</ele>
        <time>2012-09-12T12:46:14Z</time>
      </trkpt>
      <trkpt lat="44.61039" lon="2.96414">
        <ele>1255</ele>
        <time>2012-09-12T12:46:25Z</time>
      </trkpt>
      <trkpt lat="44.61029" lon="2.96404">
        <ele>1252</ele>
        <time>2012-09-12T12:46:36Z</time>
      </trkpt>
      <trkpt lat="44.61027" lon="2.9638">
        <ele>1245</ele>
        <time>2012-09-12T12:46:49Z</time>
      </trkpt>
      <trkpt lat="44.61029" lon="2.96364">
        <ele>1245</ele>
        <time>2012-09-12T12:47:02Z</time>
      </trkpt>
      <trkpt lat="44.61027" lon="2.96346">
        <ele>1255</ele>
        <time>2012-09-12T12:47:13Z</time>
      </trkpt>
      <trkpt lat="44.61024" lon="2.96322">
        <ele>1249</ele>
        <time>2012-09-12T12:47:25Z</time>
      </trkpt>
      <trkpt lat="44.61021" lon="2.96303">
        <ele>1252</ele>
        <time>2012-09-12T12:47:36Z</time>
      </trkpt>
      <trkpt lat="44.61015" lon="2.96286">
        <ele>1247</ele>
        <time>2012-09-12T12:47:48Z</time>
      </trkpt>
      <trkpt lat="44.61012" lon="2.96263">
        <ele>1249</ele>
        <time>2012-09-12T12:48:00Z</time>
      </trkpt>
      <trkpt lat="44.61004" lon="2.96248">
        <ele>1243</ele>
        <time>2012-09-12T12:48:11Z</time>
      </trkpt>
      <trkpt lat="44.60999" lon="2.96232">
        <ele>1241</ele>
        <time>2012-09-12T12:48:22Z</time>
      </trkpt>
      <trkpt lat="44.60995" lon="2.96211">
        <ele>1244</ele>
        <time>2012-09-12T12:48:33Z</time>
      </trkpt>
      <trkpt lat="44.60991" lon="2.96193">
        <ele>1245</ele>
        <time>2012-09-12T12:48:45Z</time>
      </trkpt>
      <trkpt lat="44.60989" lon="2.96175">
        <ele>1242</ele>
        <time>2012-09-12T12:48:57Z</time>
      </trkpt>
      <trkpt lat="44.60984" lon="2.9616">
        <ele>1238</ele>
        <time>2012-09-12T12:49:08Z</time>
      </trkpt>
      <trkpt lat="44.6098" lon="2.96143">
        <ele>1248</ele>
        <time>2012-09-12T12:49:20Z</time>
      </trkpt>
      <trkpt lat="44.60972" lon="2.96124">
        <ele>1237</ele>
        <time>2012-09-12T12:49:31Z</time>
      </trkpt>
      <trkpt lat="44.60964" lon="2.96113">
        <ele>1239</ele>
        <time>2012-09-12T12:49:41Z</time>
      </trkpt>
      <trkpt lat="44.6095" lon="2.96098">
        <ele>1242</ele>
        <time>2012-09-12T12:49:53Z</time>
      </trkpt>
      <trkpt lat="44.60937" lon="2.96088">
        <ele>1239</ele>
        <time>2012-09-12T12:50:04Z</time>
      </trkpt>
      <trkpt lat="44.60923" lon="2.96081">
        <ele>1242</ele>
        <time>2012-09-12T12:50:15Z</time>
      </trkpt>
      <trkpt lat="44.60913" lon="2.96077">
        <ele>1239</ele>
        <time>2012-09-12T12:50:25Z</time>
      </trkpt>
      <trkpt lat="44.609" lon="2.96078">
        <ele>1239</ele>
        <time>2012-09-12T12:50:36Z</time>
      </trkpt>
      <trkpt lat="44.60885" lon="2.96079">
        <ele>1245</ele>
        <time>2012-09-12T12:50:48Z</time>
      </trkpt>
      <trkpt lat="44.60873" lon="2.9607">
        <ele>1244</ele>
        <time>2012-09-12T12:51:02Z</time>
      </trkpt>
      <trkpt lat="44.60865" lon="2.96056">
        <ele>1243</ele>
        <time>2012-09-12T12:51:13Z</time>
      </trkpt>
      <trkpt lat="44.60857" lon="2.96042">
        <ele>1249</ele>
        <time>2012-09-12T12:51:24Z</time>
      </trkpt>
      <trkpt lat="44.60849" lon="2.96028">
        <ele>1250</ele>
        <time>2012-09-12T12:51:37Z</time>
      </trkpt>
      <trkpt lat="44.60844" lon="2.9601">
        <ele>1251</ele>
        <time>2012-09-12T12:51:51Z</time>
      </trkpt>
      <trkpt lat="44.60843" lon="2.95992">
        <ele>1249</ele>
        <time>2012-09-12T12:52:02Z</time>
      </trkpt>
      <trkpt lat="44.60844" lon="2.95979">
        <ele>1246</ele>
        <time>2012-09-12T12:52:12Z</time>
      </trkpt>
      <trkpt lat="44.60844" lon="2.95965">
        <ele>1246</ele>
        <time>2012-09-12T12:52:23Z</time>
      </trkpt>
      <trkpt lat="44.60846" lon="2.95942">
        <ele>1249</ele>
        <time>2012-09-12T12:52:35Z</time>
      </trkpt>
      <trkpt lat="44.60841" lon="2.9592">
        <ele>1242</ele>
        <time>2012-09-12T12:52:49Z</time>
      </trkpt>
      <trkpt lat="44.60836" lon="2.95899">
        <ele>1245</ele>
        <time>2012-09-12T12:53:00Z</time>
      </trkpt>
      <trkpt lat="44.60828" lon="2.9588">
        <ele>1251</ele>
        <time>2012-09-12T12:53:14Z</time>
      </trkpt>
      <trkpt lat="44.60821" lon="2.95872">
        <ele>1247</ele>
        <time>2012-09-12T12:53:25Z</time>
      </trkpt>
      <trkpt lat="44.6082" lon="2.95863">
        <ele>1247</ele>
        <time>2012-09-12T12:53:36Z</time>
      </trkpt>
      <trkpt lat="44.60815" lon="2.95853">
        <ele>1251</ele>
        <time>2012-09-12T12:53:47Z</time>
      </trkpt>
      <trkpt lat="44.60803" lon="2.9584">
        <ele>1238</ele>
        <time>2012-09-12T12:54:01Z</time>
      </trkpt>
      <trkpt lat="44.60793" lon="2.9583">
        <ele>1242</ele>
        <time>2012-09-12T12:54:13Z</time>
      </trkpt>
      <trkpt lat="44.60783" lon="2.95807">
        <ele>1245</ele>
        <time>2012-09-12T12:54:24Z</time>
      </trkpt>
      <trkpt lat="44.60779" lon="2.95787">
        <ele>1246</ele>
        <time>2012-09-12T12:54:35Z</time>
      </trkpt>
      <trkpt lat="44.60775" lon="2.9577">
        <ele>1241</ele>
        <time>2012-09-12T12:54:46Z</time>
      </trkpt>
      <trkpt lat="44.60769" lon="2.95754">
        <ele>1242</ele>
        <time>2012-09-12T12:54:56Z</time>
      </trkpt>
      <trkpt lat="44.60762" lon="2.95748">
        <ele>1243</ele>
        <time>2012-09-12T12:55:07Z</time>
      </trkpt>
      <trkpt lat="44.60751" lon="2.95738">
        <ele>1233</ele>
        <time>2012-09-12T12:55:18Z</time>
      </trkpt>
      <trkpt lat="44.60735" lon="2.95728">
        <ele>1240</ele>
        <time>2012-09-12T12:55:28Z</time>
      </trkpt>
      <trkpt lat="44.60723" lon="2.95723">
        <ele>1237</ele>
        <time>2012-09-12T12:55:38Z</time>
      </trkpt>
      <trkpt lat="44.60712" lon="2.95722">
        <ele>1238</ele>
        <time>2012-09-12T12:55:48Z</time>
      </trkpt>
      <trkpt lat="44.60695" lon="2.95718">
        <ele>1242</ele>
        <time>2012-09-12T12:56:01Z</time>
      </trkpt>
      <trkpt lat="44.60686" lon="2.95717">
        <ele>1242</ele>
        <time>2012-09-12T12:56:12Z</time>
      </trkpt>
      <trkpt lat="44.60674" lon="2.95713">
        <ele>1234</ele>
        <time>2012-09-12T12:56:24Z</time>
      </trkpt>
      <trkpt lat="44.60668" lon="2.9571">
        <ele>1230</ele>
        <time>2012-09-12T12:56:37Z</time>
      </trkpt>
      <trkpt lat="44.60655" lon="2.95706">
        <ele>1227</ele>
        <time>2012-09-12T12:56:47Z</time>
      </trkpt>
      <trkpt lat="44.60644" lon="2.95696">
        <ele>1231</ele>
        <time>2012-09-12T12:56:58Z</time>
      </trkpt>
      <trkpt lat="44.60633" lon="2.95686">
        <ele>1227</ele>
        <time>2012-09-12T12:57:12Z</time>
      </trkpt>
      <trkpt lat="44.6062" lon="2.9568">
        <ele>1233</ele>
        <time>2012-09-12T12:57:23Z</time>
      </trkpt>
      <trkpt lat="44.60608" lon="2.9567">
        <ele>1235</ele>
        <time>2012-09-12T12:57:34Z</time>
      </trkpt>
      <trkpt lat="44.60599" lon="2.95666">
        <ele>1230</ele>
        <time>2012-09-12T12:57:45Z</time>
      </trkpt>
      <trkpt lat="44.60595" lon="2.9566">
        <ele>1224</ele>
        <time>2012-09-12T12:57:55Z</time>
      </trkpt>
      <trkpt lat="44.60587" lon="2.95649">
        <ele>1219</ele>
        <time>2012-09-12T12:58:06Z</time>
      </trkpt>
      <trkpt lat="44.60573" lon="2.95642">
        <ele>1221</ele>
        <time>2012-09-12T12:58:17Z</time>
      </trkpt>
      <trkpt lat="44.60569" lon="2.95636">
        <ele>1214</ele>
        <time>2012-09-12T12:58:28Z</time>
      </trkpt>
      <trkpt lat="44.60562" lon="2.95627">
        <ele>1217</ele>
        <time>2012-09-12T12:58:39Z</time>
      </trkpt>
      <trkpt lat="44.60555" lon="2.95608">
        <ele>1221</ele>
        <time>2012-09-12T12:58:51Z</time>
      </trkpt>
      <trkpt lat="44.6055" lon="2.95595">
        <ele>1218</ele>
        <time>2012-09-12T12:59:02Z</time>
      </trkpt>
      <trkpt lat="44.60552" lon="2.95593">
        <ele>1209</ele>
        <time>2012-09-12T12:59:14Z</time>
      </trkpt>
      <trkpt lat="44.60554" lon="2.9559">
        <ele>1211</ele>
        <time>2012-09-12T12:59:37Z</time>
      </trkpt>
      <trkpt lat="44.60563" lon="2.95573">
        <ele>1211</ele>
        <time>2012-09-12T12:59:50Z</time>
      </trkpt>
      <trkpt lat="44.60562" lon="2.95556">
        <ele>1209</ele>
        <time>2012-09-12T13:00:03Z</time>
      </trkpt>
      <trkpt lat="44.60555" lon="2.95536">
        <ele>1214</ele>
        <time>2012-09-12T13:00:16Z</time>
      </trkpt>
      <trkpt lat="44.60547" lon="2.95528">
        <ele>1206</ele>
        <time>2012-09-12T13:00:27Z</time>
      </trkpt>
      <trkpt lat="44.60536" lon="2.95524">
        <ele>1204</ele>
        <time>2012-09-12T13:00:37Z</time>
      </trkpt>
      <trkpt lat="44.60523" lon="2.95522">
        <ele>1204</ele>
        <time>2012-09-12T13:00:48Z</time>
      </trkpt>
      <trkpt lat="44.6051" lon="2.95517">
        <ele>1200</ele>
        <time>2012-09-12T13:01:01Z</time>
      </trkpt>
      <trkpt lat="44.60494" lon="2.9551">
        <ele>1199</ele>
        <time>2012-09-12T13:01:14Z</time>
      </trkpt>
      <trkpt lat="44.6048" lon="2.95503">
        <ele>1198</ele>
        <time>2012-09-12T13:01:26Z</time>
      </trkpt>
      <trkpt lat="44.60464" lon="2.95494">
        <ele>1200</ele>
        <time>2012-09-12T13:01:36Z</time>
      </trkpt>
      <trkpt lat="44.60456" lon="2.95483">
        <ele>1203</ele>
        <time>2012-09-12T13:01:47Z</time>
      </trkpt>
      <trkpt lat="44.60452" lon="2.95468">
        <ele>1198</ele>
        <time>2012-09-12T13:02:51Z</time>
      </trkpt>
      <trkpt lat="44.60447" lon="2.95471">
        <ele>1206</ele>
        <time>2012-09-12T13:03:50Z</time>
      </trkpt>
      <trkpt lat="44.60431" lon="2.95472">
        <ele>1202</ele>
        <time>2012-09-12T13:04:03Z</time>
      </trkpt>
      <trkpt lat="44.60422" lon="2.95472">
        <ele>1197</ele>
        <time>2012-09-12T13:04:13Z</time>
      </trkpt>
      <trkpt lat="44.60411" lon="2.95482">
        <ele>1194</ele>
        <time>2012-09-12T13:04:24Z</time>
      </trkpt>
      <trkpt lat="44.60401" lon="2.9549">
        <ele>1193</ele>
        <time>2012-09-12T13:04:38Z</time>
      </trkpt>
      <trkpt lat="44.60398" lon="2.95497">
        <ele>1197</ele>
        <time>2012-09-12T13:04:51Z</time>
      </trkpt>
      <trkpt lat="44.60393" lon="2.95502">
        <ele>1195</ele>
        <time>2012-09-12T13:05:02Z</time>
      </trkpt>
      <trkpt lat="44.60393" lon="2.955">
        <ele>1183</ele>
        <time>2012-09-12T13:05:25Z</time>
      </trkpt>
      <trkpt lat="44.60397" lon="2.95505">
        <ele>1186</ele>
        <time>2012-09-12T13:05:36Z</time>
      </trkpt>
      <trkpt lat="44.60405" lon="2.95513">
        <ele>1184</ele>
        <time>2012-09-12T13:05:46Z</time>
      </trkpt>
      <trkpt lat="44.60414" lon="2.95527">
        <ele>1171</ele>
        <time>2012-09-12T13:05:58Z</time>
      </trkpt>
      <trkpt lat="44.60419" lon="2.95536">
        <ele>1177</ele>
        <time>2012-09-12T13:06:21Z</time>
      </trkpt>
      <trkpt lat="44.60424" lon="2.9554">
        <ele>1187</ele>
        <time>2012-09-12T13:06:35Z</time>
      </trkpt>
      <trkpt lat="44.60426" lon="2.95547">
        <ele>1191</ele>
        <time>2012-09-12T13:06:47Z</time>
      </trkpt>
      <trkpt lat="44.60426" lon="2.95565">
        <ele>1183</ele>
        <time>2012-09-12T13:07:02Z</time>
      </trkpt>
      <trkpt lat="44.60419" lon="2.95572">
        <ele>1179</ele>
        <time>2012-09-12T13:07:13Z</time>
      </trkpt>
      <trkpt lat="44.60406" lon="2.95572">
        <ele>1176</ele>
        <time>2012-09-12T13:07:23Z</time>
      </trkpt>
      <trkpt lat="44.60398" lon="2.95566">
        <ele>1170</ele>
        <time>2012-09-12T13:07:37Z</time>
      </trkpt>
      <trkpt lat="44.60395" lon="2.9556">
        <ele>1171</ele>
        <time>2012-09-12T13:07:51Z</time>
      </trkpt>
      <trkpt lat="44.60395" lon="2.9556">
        <ele>1184</ele>
        <time>2012-09-12T13:08:03Z</time>
      </trkpt>
      <trkpt lat="44.60393" lon="2.95563">
        <ele>1181</ele>
        <time>2012-09-12T13:08:17Z</time>
      </trkpt>
      <trkpt lat="44.60385" lon="2.95568">
        <ele>1186</ele>
        <time>2012-09-12T13:08:29Z</time>
      </trkpt>
      <trkpt lat="44.60368" lon="2.95561">
        <ele>1175</ele>
        <time>2012-09-12T13:08:41Z</time>
      </trkpt>
      <trkpt lat="44.60358" lon="2.95551">
        <ele>1169</ele>
        <time>2012-09-12T13:08:51Z</time>
      </trkpt>
      <trkpt lat="44.60349" lon="2.95538">
        <ele>1173</ele>
        <time>2012-09-12T13:09:05Z</time>
      </trkpt>
      <trkpt lat="44.6034" lon="2.95533">
        <ele>1173</ele>
        <time>2012-09-12T13:09:16Z</time>
      </trkpt>
      <trkpt lat="44.60333" lon="2.95525">
        <ele>1180</ele>
        <time>2012-09-12T13:09:27Z</time>
      </trkpt>
      <trkpt lat="44.60328" lon="2.9551">
        <ele>1174</ele>
        <time>2012-09-12T13:09:40Z</time>
      </trkpt>
      <trkpt lat="44.60316" lon="2.9549">
        <ele>1165</ele>
        <time>2012-09-12T13:09:50Z</time>
      </trkpt>
      <trkpt lat="44.60309" lon="2.95469">
        <ele>1176</ele>
        <time>2012-09-12T13:10:02Z</time>
      </trkpt>
      <trkpt lat="44.60306" lon="2.95452">
        <ele>1176</ele>
        <time>2012-09-12T13:10:13Z</time>
      </trkpt>
      <trkpt lat="44.60298" lon="2.95439">
        <ele>1173</ele>
        <time>2012-09-12T13:10:24Z</time>
      </trkpt>
      <trkpt lat="44.60295" lon="2.95426">
        <ele>1167</ele>
        <time>2012-09-12T13:10:35Z</time>
      </trkpt>
      <trkpt lat="44.60292" lon="2.95418">
        <ele>1170</ele>
        <time>2012-09-12T13:10:45Z</time>
      </trkpt>
      <trkpt lat="44.60289" lon="2.95399">
        <ele>1162</ele>
        <time>2012-09-12T13:10:57Z</time>
      </trkpt>
      <trkpt lat="44.60286" lon="2.95389">
        <ele>1165</ele>
        <time>2012-09-12T13:11:08Z</time>
      </trkpt>
      <trkpt lat="44.60279" lon="2.95394">
        <ele>1164</ele>
        <time>2012-09-12T13:11:20Z</time>
      </trkpt>
      <trkpt lat="44.60279" lon="2.95399">
        <ele>1165</ele>
        <time>2012-09-12T13:11:48Z</time>
      </trkpt>
      <trkpt lat="44.60288" lon="2.95406">
        <ele>1148</ele>
        <time>2012-09-12T13:12:13Z</time>
      </trkpt>
      <trkpt lat="44.60293" lon="2.95394">
        <ele>1157</ele>
        <time>2012-09-12T13:12:24Z</time>
      </trkpt>
      <trkpt lat="44.60294" lon="2.95376">
        <ele>1169</ele>
        <time>2012-09-12T13:12:36Z</time>
      </trkpt>
      <trkpt lat="44.60292" lon="2.95359">
        <ele>1172</ele>
        <time>2012-09-12T13:12:47Z</time>
      </trkpt>
      <trkpt lat="44.60291" lon="2.95345">
        <ele>1181</ele>
        <time>2012-09-12T13:12:59Z</time>
      </trkpt>
      <trkpt lat="44.60282" lon="2.95329">
        <ele>1176</ele>
        <time>2012-09-12T13:13:09Z</time>
      </trkpt>
      <trkpt lat="44.6028" lon="2.95317">
        <ele>1175</ele>
        <time>2012-09-12T13:13:20Z</time>
      </trkpt>
      <trkpt lat="44.60281" lon="2.95308">
        <ele>1167</ele>
        <time>2012-09-12T13:13:33Z</time>
      </trkpt>
      <trkpt lat="44.60279" lon="2.95289">
        <ele>1173</ele>
        <time>2012-09-12T13:13:44Z</time>
      </trkpt>
      <trkpt lat="44.60278" lon="2.95282">
        <ele>1162</ele>
        <time>2012-09-12T13:14:09Z</time>
      </trkpt>
      <trkpt lat="44.60273" lon="2.95272">
        <ele>1163</ele>
        <time>2012-09-12T13:14:20Z</time>
      </trkpt>
      <trkpt lat="44.60262" lon="2.95262">
        <ele>1171</ele>
        <time>2012-09-12T13:14:33Z</time>
      </trkpt>
      <trkpt lat="44.60258" lon="2.95243">
        <ele>1168</ele>
        <time>2012-09-12T13:14:45Z</time>
      </trkpt>
      <trkpt lat="44.6025" lon="2.95242">
        <ele>1152</ele>
        <time>2012-09-12T13:14:58Z</time>
      </trkpt>
      <trkpt lat="44.60241" lon="2.95242">
        <ele>1136</ele>
        <time>2012-09-12T13:15:10Z</time>
      </trkpt>
      <trkpt lat="44.60238" lon="2.9524">
        <ele>1137</ele>
        <time>2012-09-12T13:15:20Z</time>
      </trkpt>
      <trkpt lat="44.60233" lon="2.95236">
        <ele>1150</ele>
        <time>2012-09-12T13:15:31Z</time>
      </trkpt>
      <trkpt lat="44.60234" lon="2.95231">
        <ele>1141</ele>
        <time>2012-09-12T13:16:22Z</time>
      </trkpt>
      <trkpt lat="44.60244" lon="2.95219">
        <ele>1132</ele>
        <time>2012-09-12T13:16:35Z</time>
      </trkpt>
      <trkpt lat="44.60252" lon="2.952">
        <ele>1136</ele>
        <time>2012-09-12T13:16:46Z</time>
      </trkpt>
      <trkpt lat="44.60259" lon="2.95193">
        <ele>1139</ele>
        <time>2012-09-12T13:16:59Z</time>
      </trkpt>
      <trkpt lat="44.60267" lon="2.95186">
        <ele>1140</ele>
        <time>2012-09-12T13:17:12Z</time>
      </trkpt>
      <trkpt lat="44.60272" lon="2.95176">
        <ele>1138</ele>
        <time>2012-09-12T13:17:23Z</time>
      </trkpt>
      <trkpt lat="44.60264" lon="2.95175">
        <ele>1148</ele>
        <time>2012-09-12T13:17:51Z</time>
      </trkpt>
      <trkpt lat="44.60251" lon="2.95176">
        <ele>1143</ele>
        <time>2012-09-12T13:18:02Z</time>
      </trkpt>
      <trkpt lat="44.60242" lon="2.95175">
        <ele>1147</ele>
        <time>2012-09-12T13:18:12Z</time>
      </trkpt>
      <trkpt lat="44.60229" lon="2.95176">
        <ele>1146</ele>
        <time>2012-09-12T13:18:25Z</time>
      </trkpt>
      <trkpt lat="44.60232" lon="2.95177">
        <ele>1133</ele>
        <time>2012-09-12T13:19:42Z</time>
      </trkpt>
      <trkpt lat="44.60239" lon="2.95179">
        <ele>1142</ele>
        <time>2012-09-12T13:20:10Z</time>
      </trkpt>
      <trkpt lat="44.60246" lon="2.95177">
        <ele>1137</ele>
        <time>2012-09-12T13:20:22Z</time>
      </trkpt>
      <trkpt lat="44.60242" lon="2.95176">
        <ele>1133</ele>
        <time>2012-09-12T13:21:07Z</time>
      </trkpt>
      <trkpt lat="44.60245" lon="2.95177">
        <ele>1140</ele>
        <time>2012-09-12T13:22:11Z</time>
      </trkpt>
      <trkpt lat="44.60247" lon="2.95181">
        <ele>1138</ele>
        <time>2012-09-12T13:22:41Z</time>
      </trkpt>
      <trkpt lat="44.60246" lon="2.95178">
        <ele>1157</ele>
        <time>2012-09-12T13:24:54Z</time>
      </trkpt>
      <trkpt lat="44.60241" lon="2.95172">
        <ele>1163</ele>
        <time>2012-09-12T13:25:09Z</time>
      </trkpt>
      <trkpt lat="44.60241" lon="2.9518">
        <ele>1129</ele>
        <time>2012-09-12T13:26:12Z</time>
      </trkpt>
      <trkpt lat="44.60246" lon="2.95184">
        <ele>1119</ele>
        <time>2012-09-12T13:26:25Z</time>
      </trkpt>
      <trkpt lat="44.60247" lon="2.95187">
        <ele>1119</ele>
        <time>2012-09-12T13:26:56Z</time>
      </trkpt>
      <trkpt lat="44.60241" lon="2.95206">
        <ele>1111</ele>
        <time>2012-09-12T13:27:08Z</time>
      </trkpt>
      <trkpt lat="44.60228" lon="2.95214">
        <ele>1123</ele>
        <time>2012-09-12T13:27:21Z</time>
      </trkpt>
      <trkpt lat="44.60222" lon="2.95222">
        <ele>1126</ele>
        <time>2012-09-12T13:27:34Z</time>
      </trkpt>
      <trkpt lat="44.60218" lon="2.95233">
        <ele>1116</ele>
        <time>2012-09-12T13:27:47Z</time>
      </trkpt>
      <trkpt lat="44.60209" lon="2.9524">
        <ele>1118</ele>
        <time>2012-09-12T13:28:00Z</time>
      </trkpt>
      <trkpt lat="44.60201" lon="2.95247">
        <ele>1123</ele>
        <time>2012-09-12T13:28:11Z</time>
      </trkpt>
      <trkpt lat="44.60192" lon="2.95254">
        <ele>1119</ele>
        <time>2012-09-12T13:28:23Z</time>
      </trkpt>
      <trkpt lat="44.6018" lon="2.95254">
        <ele>1116</ele>
        <time>2012-09-12T13:28:37Z</time>
      </trkpt>
      <trkpt lat="44.60171" lon="2.95235">
        <ele>1127</ele>
        <time>2012-09-12T13:28:49Z</time>
      </trkpt>
      <trkpt lat="44.60172" lon="2.9523">
        <ele>1127</ele>
        <time>2012-09-12T13:29:02Z</time>
      </trkpt>
      <trkpt lat="44.60172" lon="2.95227">
        <ele>1132</ele>
        <time>2012-09-12T13:29:12Z</time>
      </trkpt>
      <trkpt lat="44.60176" lon="2.95215">
        <ele>1127</ele>
        <time>2012-09-12T13:29:23Z</time>
      </trkpt>
      <trkpt lat="44.60183" lon="2.952">
        <ele>1112</ele>
        <time>2012-09-12T13:29:35Z</time>
      </trkpt>
      <trkpt lat="44.60176" lon="2.95192">
        <ele>1104</ele>
        <time>2012-09-12T13:29:45Z</time>
      </trkpt>
      <trkpt lat="44.60167" lon="2.9519">
        <ele>1103</ele>
        <time>2012-09-12T13:30:19Z</time>
      </trkpt>
      <trkpt lat="44.60154" lon="2.95188">
        <ele>1104</ele>
        <time>2012-09-12T13:30:31Z</time>
      </trkpt>
      <trkpt lat="44.60141" lon="2.95166">
        <ele>1118</ele>
        <time>2012-09-12T13:30:41Z</time>
      </trkpt>
      <trkpt lat="44.60135" lon="2.95141">
        <ele>1123</ele>
        <time>2012-09-12T13:30:52Z</time>
      </trkpt>
      <trkpt lat="44.6014" lon="2.95125">
        <ele>1125</ele>
        <time>2012-09-12T13:31:04Z</time>
      </trkpt>
      <trkpt lat="44.60138" lon="2.95119">
        <ele>1125</ele>
        <time>2012-09-12T13:31:15Z</time>
      </trkpt>
      <trkpt lat="44.60131" lon="2.95124">
        <ele>1125</ele>
        <time>2012-09-12T13:31:33Z</time>
      </trkpt>
      <trkpt lat="44.60134" lon="2.95122">
        <ele>1131</ele>
        <time>2012-09-12T13:31:51Z</time>
      </trkpt>
      <trkpt lat="44.60135" lon="2.95113">
        <ele>1128</ele>
        <time>2012-09-12T13:32:01Z</time>
      </trkpt>
      <trkpt lat="44.6013" lon="2.95102">
        <ele>1125</ele>
        <time>2012-09-12T13:32:13Z</time>
      </trkpt>
      <trkpt lat="44.60128" lon="2.95094">
        <ele>1113</ele>
        <time>2012-09-12T13:32:25Z</time>
      </trkpt>
      <trkpt lat="44.60123" lon="2.95088">
        <ele>1111</ele>
        <time>2012-09-12T13:32:36Z</time>
      </trkpt>
      <trkpt lat="44.60118" lon="2.95075">
        <ele>1105</ele>
        <time>2012-09-12T13:32:47Z</time>
      </trkpt>
      <trkpt lat="44.60118" lon="2.95056">
        <ele>1103</ele>
        <time>2012-09-12T13:32:58Z</time>
      </trkpt>
      <trkpt lat="44.60114" lon="2.95038">
        <ele>1093</ele>
        <time>2012-09-12T13:33:10Z</time>
      </trkpt>
      <trkpt lat="44.60108" lon="2.95027">
        <ele>1095</ele>
        <time>2012-09-12T13:33:20Z</time>
      </trkpt>
      <trkpt lat="44.60095" lon="2.95016">
        <ele>1091</ele>
        <time>2012-09-12T13:33:30Z</time>
      </trkpt>
      <trkpt lat="44.60084" lon="2.95005">
        <ele>1093</ele>
        <time>2012-09-12T13:33:41Z</time>
      </trkpt>
      <trkpt lat="44.60072" lon="2.94997">
        <ele>1106</ele>
        <time>2012-09-12T13:33:51Z</time>
      </trkpt>
      <trkpt lat="44.6006" lon="2.94987">
        <ele>1105</ele>
        <time>2012-09-12T13:34:03Z</time>
      </trkpt>
      <trkpt lat="44.60048" lon="2.94983">
        <ele>1110</ele>
        <time>2012-09-12T13:34:14Z</time>
      </trkpt>
      <trkpt lat="44.60036" lon="2.94978">
        <ele>1109</ele>
        <time>2012-09-12T13:34:26Z</time>
      </trkpt>
      <trkpt lat="44.60029" lon="2.9497">
        <ele>1109</ele>
        <time>2012-09-12T13:34:38Z</time>
      </trkpt>
      <trkpt lat="44.60019" lon="2.94959">
        <ele>1109</ele>
        <time>2012-09-12T13:34:50Z</time>
      </trkpt>
      <trkpt lat="44.60016" lon="2.9496">
        <ele>1111</ele>
        <time>2012-09-12T13:35:44Z</time>
      </trkpt>
      <trkpt lat="44.60018" lon="2.94962">
        <ele>1106</ele>
        <time>2012-09-12T13:37:16Z</time>
      </trkpt>
      <trkpt lat="44.60015" lon="2.94958">
        <ele>1086</ele>
        <time>2012-09-12T13:37:39Z</time>
      </trkpt>
      <trkpt lat="44.60011" lon="2.94951">
        <ele>1089</ele>
        <time>2012-09-12T13:37:50Z</time>
      </trkpt>
      <trkpt lat="44.60006" lon="2.9494">
        <ele>1082</ele>
        <time>2012-09-12T13:38:06Z</time>
      </trkpt>
      <trkpt lat="44.6" lon="2.9494">
        <ele>1078</ele>
        <time>2012-09-12T13:38:19Z</time>
      </trkpt>
      <trkpt lat="44.59994" lon="2.94932">
        <ele>1073</ele>
        <time>2012-09-12T13:38:33Z</time>
      </trkpt>
      <trkpt lat="44.59991" lon="2.94925">
        <ele>1079</ele>
        <time>2012-09-12T13:38:43Z</time>
      </trkpt>
      <trkpt lat="44.59994" lon="2.94906">
        <ele>1085</ele>
        <time>2012-09-12T13:38:55Z</time>
      </trkpt>
      <trkpt lat="44.59999" lon="2.94895">
        <ele>1088</ele>
        <time>2012-09-12T13:39:06Z</time>
      </trkpt>
      <trkpt lat="44.6" lon="2.94886">
        <ele>1085</ele>
        <time>2012-09-12T13:39:20Z</time>
      </trkpt>
      <trkpt lat="44.6" lon="2.94878">
        <ele>1085</ele>
        <time>2012-09-12T13:39:30Z</time>
      </trkpt>
      <trkpt lat="44.60002" lon="2.9487">
        <ele>1090</ele>
        <time>2012-09-12T13:39:41Z</time>
      </trkpt>
      <trkpt lat="44.60006" lon="2.9486">
        <ele>1091</ele>
        <time>2012-09-12T13:39:53Z</time>
      </trkpt>
      <trkpt lat="44.60012" lon="2.94858">
        <ele>1092</ele>
        <time>2012-09-12T13:40:07Z</time>
      </trkpt>
      <trkpt lat="44.60019" lon="2.94859">
        <ele>1085</ele>
        <time>2012-09-12T13:40:17Z</time>
      </trkpt>
      <trkpt lat="44.60023" lon="2.94852">
        <ele>1083</ele>
        <time>2012-09-12T13:40:29Z</time>
      </trkpt>
      <trkpt lat="44.60028" lon="2.94848">
        <ele>1082</ele>
        <time>2012-09-12T13:40:41Z</time>
      </trkpt>
      <trkpt lat="44.6003" lon="2.94834">
        <ele>1077</ele>
        <time>2012-09-12T13:40:53Z</time>
      </trkpt>
      <trkpt lat="44.60033" lon="2.94831">
        <ele>1078</ele>
        <time>2012-09-12T13:41:13Z</time>
      </trkpt>
      <trkpt lat="44.60041" lon="2.94839">
        <ele>1075</ele>
        <time>2012-09-12T13:41:27Z</time>
      </trkpt>
      <trkpt lat="44.6005" lon="2.94838">
        <ele>1070</ele>
        <time>2012-09-12T13:41:38Z</time>
      </trkpt>
      <trkpt lat="44.60059" lon="2.94834">
        <ele>1072</ele>
        <time>2012-09-12T13:41:51Z</time>
      </trkpt>
      <trkpt lat="44.60064" lon="2.94829">
        <ele>1073</ele>
        <time>2012-09-12T13:42:03Z</time>
      </trkpt>
      <trkpt lat="44.60067" lon="2.94823">
        <ele>1075</ele>
        <time>2012-09-12T13:42:17Z</time>
      </trkpt>
      <trkpt lat="44.60075" lon="2.94816">
        <ele>1087</ele>
        <time>2012-09-12T13:42:32Z</time>
      </trkpt>
      <trkpt lat="44.60077" lon="2.94814">
        <ele>1083</ele>
        <time>2012-09-12T13:42:54Z</time>
      </trkpt>
      <trkpt lat="44.60092" lon="2.94805">
        <ele>1082</ele>
        <time>2012-09-12T13:43:05Z</time>
      </trkpt>
      <trkpt lat="44.60128" lon="2.94803">
        <ele>1100</ele>
        <time>2012-09-12T13:43:36Z</time>
      </trkpt>
      <trkpt lat="44.60135" lon="2.94794">
        <ele>1082</ele>
        <time>2012-09-12T13:43:47Z</time>
      </trkpt>
      <trkpt lat="44.60143" lon="2.94787">
        <ele>1082</ele>
        <time>2012-09-12T13:43:58Z</time>
      </trkpt>
      <trkpt lat="44.60148" lon="2.94784">
        <ele>1080</ele>
        <time>2012-09-12T13:44:10Z</time>
      </trkpt>
      <trkpt lat="44.60154" lon="2.9478">
        <ele>1089</ele>
        <time>2012-09-12T13:44:23Z</time>
      </trkpt>
      <trkpt lat="44.60163" lon="2.94777">
        <ele>1068</ele>
        <time>2012-09-12T13:44:50Z</time>
      </trkpt>
      <trkpt lat="44.60162" lon="2.94764">
        <ele>1074</ele>
        <time>2012-09-12T13:45:01Z</time>
      </trkpt>
      <trkpt lat="44.60161" lon="2.94755">
        <ele>1074</ele>
        <time>2012-09-12T13:45:17Z</time>
      </trkpt>
      <trkpt lat="44.60143" lon="2.94755">
        <ele>1066</ele>
        <time>2012-09-12T13:45:29Z</time>
      </trkpt>
      <trkpt lat="44.60133" lon="2.94743">
        <ele>1058</ele>
        <time>2012-09-12T13:45:40Z</time>
      </trkpt>
      <trkpt lat="44.60121" lon="2.94728">
        <ele>1052</ele>
        <time>2012-09-12T13:45:51Z</time>
      </trkpt>
      <trkpt lat="44.60109" lon="2.94722">
        <ele>1061</ele>
        <time>2012-09-12T13:46:01Z</time>
      </trkpt>
      <trkpt lat="44.60101" lon="2.94714">
        <ele>1055</ele>
        <time>2012-09-12T13:46:13Z</time>
      </trkpt>
      <trkpt lat="44.60094" lon="2.947">
        <ele>1061</ele>
        <time>2012-09-12T13:46:25Z</time>
      </trkpt>
      <trkpt lat="44.60086" lon="2.94692">
        <ele>1053</ele>
        <time>2012-09-12T13:46:36Z</time>
      </trkpt>
      <trkpt lat="44.60083" lon="2.94671">
        <ele>1045</ele>
        <time>2012-09-12T13:46:48Z</time>
      </trkpt>
      <trkpt lat="44.60079" lon="2.94661">
        <ele>1044</ele>
        <time>2012-09-12T13:47:02Z</time>
      </trkpt>
      <trkpt lat="44.60072" lon="2.94654">
        <ele>1035</ele>
        <time>2012-09-12T13:47:13Z</time>
      </trkpt>
      <trkpt lat="44.6006" lon="2.94642">
        <ele>1036</ele>
        <time>2012-09-12T13:47:25Z</time>
      </trkpt>
      <trkpt lat="44.60052" lon="2.94636">
        <ele>1037</ele>
        <time>2012-09-12T13:47:36Z</time>
      </trkpt>
      <trkpt lat="44.60045" lon="2.94627">
        <ele>1036</ele>
        <time>2012-09-12T13:47:48Z</time>
      </trkpt>
      <trkpt lat="44.60033" lon="2.94623">
        <ele>1041</ele>
        <time>2012-09-12T13:48:00Z</time>
      </trkpt>
      <trkpt lat="44.60023" lon="2.94613">
        <ele>1044</ele>
        <time>2012-09-12T13:48:13Z</time>
      </trkpt>
      <trkpt lat="44.60013" lon="2.94599">
        <ele>1050</ele>
        <time>2012-09-12T13:48:24Z</time>
      </trkpt>
      <trkpt lat="44.60001" lon="2.94583">
        <ele>1047</ele>
        <time>2012-09-12T13:48:39Z</time>
      </trkpt>
      <trkpt lat="44.59996" lon="2.94571">
        <ele>1043</ele>
        <time>2012-09-12T13:48:50Z</time>
      </trkpt>
      <trkpt lat="44.5999" lon="2.94555">
        <ele>1048</ele>
        <time>2012-09-12T13:49:01Z</time>
      </trkpt>
      <trkpt lat="44.59982" lon="2.94536">
        <ele>1044</ele>
        <time>2012-09-12T13:49:14Z</time>
      </trkpt>
      <trkpt lat="44.59985" lon="2.94536">
        <ele>1056</ele>
        <time>2012-09-12T13:49:29Z</time>
      </trkpt>
      <trkpt lat="44.59985" lon="2.94536">
        <ele>1098</ele>
        <time>2012-09-12T13:50:44Z</time>
      </trkpt>
      <trkpt lat="44.59967" lon="2.94534">
        <ele>1089</ele>
        <time>2012-09-12T13:50:54Z</time>
      </trkpt>
      <trkpt lat="44.59958" lon="2.94522">
        <ele>1071</ele>
        <time>2012-09-12T13:51:05Z</time>
      </trkpt>
      <trkpt lat="44.59951" lon="2.94508">
        <ele>1065</ele>
        <time>2012-09-12T13:51:16Z</time>
      </trkpt>
      <trkpt lat="44.59946" lon="2.94506">
        <ele>1061</ele>
        <time>2012-09-12T13:51:27Z</time>
      </trkpt>
      <trkpt lat="44.59941" lon="2.94501">
        <ele>1064</ele>
        <time>2012-09-12T13:51:39Z</time>
      </trkpt>
      <trkpt lat="44.59932" lon="2.94491">
        <ele>1058</ele>
        <time>2012-09-12T13:51:53Z</time>
      </trkpt>
      <trkpt lat="44.59923" lon="2.94488">
        <ele>1068</ele>
        <time>2012-09-12T13:52:04Z</time>
      </trkpt>
      <trkpt lat="44.59917" lon="2.94476">
        <ele>1053</ele>
        <time>2012-09-12T13:52:15Z</time>
      </trkpt>
      <trkpt lat="44.59917" lon="2.94473">
        <ele>1045</ele>
        <time>2012-09-12T13:52:25Z</time>
      </trkpt>
      <trkpt lat="44.59912" lon="2.94468">
        <ele>1043</ele>
        <time>2012-09-12T13:52:36Z</time>
      </trkpt>
      <trkpt lat="44.59902" lon="2.94458">
        <ele>1039</ele>
        <time>2012-09-12T13:52:48Z</time>
      </trkpt>
      <trkpt lat="44.59893" lon="2.94444">
        <ele>1037</ele>
        <time>2012-09-12T13:53:00Z</time>
      </trkpt>
      <trkpt lat="44.59884" lon="2.94431">
        <ele>1035</ele>
        <time>2012-09-12T13:53:12Z</time>
      </trkpt>
      <trkpt lat="44.59875" lon="2.94418">
        <ele>1030</ele>
        <time>2012-09-12T13:53:24Z</time>
      </trkpt>
      <trkpt lat="44.59867" lon="2.94402">
        <ele>1031</ele>
        <time>2012-09-12T13:53:36Z</time>
      </trkpt>
      <trkpt lat="44.5986" lon="2.94392">
        <ele>1036</ele>
        <time>2012-09-12T13:53:46Z</time>
      </trkpt>
      <trkpt lat="44.59855" lon="2.94388">
        <ele>1036</ele>
        <time>2012-09-12T13:53:57Z</time>
      </trkpt>
      <trkpt lat="44.59848" lon="2.94379">
        <ele>1026</ele>
        <time>2012-09-12T13:54:11Z</time>
      </trkpt>
      <trkpt lat="44.5984" lon="2.94364">
        <ele>1030</ele>
        <time>2012-09-12T13:54:22Z</time>
      </trkpt>
      <trkpt lat="44.5983" lon="2.94353">
        <ele>1032</ele>
        <time>2012-09-12T13:54:35Z</time>
      </trkpt>
      <trkpt lat="44.59822" lon="2.94347">
        <ele>1031</ele>
        <time>2012-09-12T13:54:46Z</time>
      </trkpt>
      <trkpt lat="44.59816" lon="2.94329">
        <ele>1027</ele>
        <time>2012-09-12T13:54:57Z</time>
      </trkpt>
      <trkpt lat="44.59813" lon="2.94314">
        <ele>1025</ele>
        <time>2012-09-12T13:55:08Z</time>
      </trkpt>
      <trkpt lat="44.59806" lon="2.94298">
        <ele>1025</ele>
        <time>2012-09-12T13:55:20Z</time>
      </trkpt>
      <trkpt lat="44.59805" lon="2.94286">
        <ele>1017</ele>
        <time>2012-09-12T13:55:32Z</time>
      </trkpt>
      <trkpt lat="44.59804" lon="2.94274">
        <ele>1018</ele>
        <time>2012-09-12T13:55:42Z</time>
      </trkpt>
      <trkpt lat="44.598" lon="2.94252">
        <ele>1019</ele>
        <time>2012-09-12T13:55:54Z</time>
      </trkpt>
      <trkpt lat="44.59795" lon="2.94231">
        <ele>1020</ele>
        <time>2012-09-12T13:56:06Z</time>
      </trkpt>
      <trkpt lat="44.59794" lon="2.94227">
        <ele>1017</ele>
        <time>2012-09-12T13:56:22Z</time>
      </trkpt>
      <trkpt lat="44.59795" lon="2.94223">
        <ele>1021</ele>
        <time>2012-09-12T13:56:35Z</time>
      </trkpt>
      <trkpt lat="44.59797" lon="2.9421">
        <ele>1022</ele>
        <time>2012-09-12T13:56:46Z</time>
      </trkpt>
      <trkpt lat="44.59789" lon="2.94194">
        <ele>1015</ele>
        <time>2012-09-12T13:56:58Z</time>
      </trkpt>
      <trkpt lat="44.59788" lon="2.94181">
        <ele>1012</ele>
        <time>2012-09-12T13:57:13Z</time>
      </trkpt>
      <trkpt lat="44.59782" lon="2.9416">
        <ele>1022</ele>
        <time>2012-09-12T13:57:26Z</time>
      </trkpt>
      <trkpt lat="44.59777" lon="2.94149">
        <ele>1022</ele>
        <time>2012-09-12T13:57:38Z</time>
      </trkpt>
      <trkpt lat="44.59774" lon="2.94137">
        <ele>1020</ele>
        <time>2012-09-12T13:57:50Z</time>
      </trkpt>
      <trkpt lat="44.59769" lon="2.9412">
        <ele>1018</ele>
        <time>2012-09-12T13:58:01Z</time>
      </trkpt>
      <trkpt lat="44.59767" lon="2.94106">
        <ele>1018</ele>
        <time>2012-09-12T13:58:12Z</time>
      </trkpt>
      <trkpt lat="44.59762" lon="2.94101">
        <ele>1024</ele>
        <time>2012-09-12T13:58:22Z</time>
      </trkpt>
      <trkpt lat="44.59756" lon="2.941">
        <ele>1021</ele>
        <time>2012-09-12T13:58:33Z</time>
      </trkpt>
      <trkpt lat="44.59746" lon="2.94085">
        <ele>1016</ele>
        <time>2012-09-12T13:58:44Z</time>
      </trkpt>
      <trkpt lat="44.59738" lon="2.94076">
        <ele>1003</ele>
        <time>2012-09-12T13:58:57Z</time>
      </trkpt>
      <trkpt lat="44.59733" lon="2.94059">
        <ele>1012</ele>
        <time>2012-09-12T13:59:09Z</time>
      </trkpt>
      <trkpt lat="44.59726" lon="2.94044">
        <ele>1004</ele>
        <time>2012-09-12T13:59:19Z</time>
      </trkpt>
      <trkpt lat="44.59719" lon="2.94037">
        <ele>1010</ele>
        <time>2012-09-12T13:59:30Z</time>
      </trkpt>
      <trkpt lat="44.5971" lon="2.94025">
        <ele>1012</ele>
        <time>2012-09-12T13:59:41Z</time>
      </trkpt>
      <trkpt lat="44.59699" lon="2.94016">
        <ele>1014</ele>
        <time>2012-09-12T13:59:53Z</time>
      </trkpt>
      <trkpt lat="44.59699" lon="2.94004">
        <ele>1000</ele>
        <time>2012-09-12T14:00:03Z</time>
      </trkpt>
      <trkpt lat="44.59696" lon="2.93992">
        <ele>997</ele>
        <time>2012-09-12T14:00:15Z</time>
      </trkpt>
      <trkpt lat="44.59691" lon="2.93993">
        <ele>999</ele>
        <time>2012-09-12T14:00:27Z</time>
      </trkpt>
      <trkpt lat="44.59683" lon="2.93996">
        <ele>988</ele>
        <time>2012-09-12T14:00:40Z</time>
      </trkpt>
      <trkpt lat="44.59674" lon="2.93996">
        <ele>1003</ele>
        <time>2012-09-12T14:01:09Z</time>
      </trkpt>
      <trkpt lat="44.59673" lon="2.93991">
        <ele>1015</ele>
        <time>2012-09-12T14:01:23Z</time>
      </trkpt>
      <trkpt lat="44.59675" lon="2.93989">
        <ele>1008</ele>
        <time>2012-09-12T14:01:52Z</time>
      </trkpt>
      <trkpt lat="44.59678" lon="2.93989">
        <ele>997</ele>
        <time>2012-09-12T14:02:34Z</time>
      </trkpt>
      <trkpt lat="44.59681" lon="2.93988">
        <ele>993</ele>
        <time>2012-09-12T14:02:52Z</time>
      </trkpt>
      <trkpt lat="44.59684" lon="2.93993">
        <ele>978</ele>
        <time>2012-09-12T14:03:03Z</time>
      </trkpt>
      <trkpt lat="44.59682" lon="2.93995">
        <ele>988</ele>
        <time>2012-09-12T14:03:18Z</time>
      </trkpt>
      <trkpt lat="44.59679" lon="2.93993">
        <ele>982</ele>
        <time>2012-09-12T14:03:28Z</time>
      </trkpt>
      <trkpt lat="44.59672" lon="2.93983">
        <ele>975</ele>
        <time>2012-09-12T14:03:39Z</time>
      </trkpt>
      <trkpt lat="44.59658" lon="2.93961">
        <ele>973</ele>
        <time>2012-09-12T14:03:52Z</time>
      </trkpt>
      <trkpt lat="44.5965" lon="2.93957">
        <ele>981</ele>
        <time>2012-09-12T14:04:03Z</time>
      </trkpt>
      <trkpt lat="44.59639" lon="2.93949">
        <ele>980</ele>
        <time>2012-09-12T14:04:15Z</time>
      </trkpt>
      <trkpt lat="44.59631" lon="2.93942">
        <ele>972</ele>
        <time>2012-09-12T14:04:28Z</time>
      </trkpt>
      <trkpt lat="44.59627" lon="2.93929">
        <ele>960</ele>
        <time>2012-09-12T14:04:40Z</time>
      </trkpt>
      <trkpt lat="44.5962" lon="2.93921">
        <ele>953</ele>
        <time>2012-09-12T14:05:02Z</time>
      </trkpt>
      <trkpt lat="44.59615" lon="2.93917">
        <ele>971</ele>
        <time>2012-09-12T14:05:14Z</time>
      </trkpt>
      <trkpt lat="44.59607" lon="2.93903">
        <ele>970</ele>
        <time>2012-09-12T14:05:25Z</time>
      </trkpt>
      <trkpt lat="44.59592" lon="2.9389">
        <ele>958</ele>
        <time>2012-09-12T14:05:37Z</time>
      </trkpt>
      <trkpt lat="44.59583" lon="2.93879">
        <ele>967</ele>
        <time>2012-09-12T14:05:49Z</time>
      </trkpt>
      <trkpt lat="44.59579" lon="2.93851">
        <ele>956</ele>
        <time>2012-09-12T14:06:00Z</time>
      </trkpt>
      <trkpt lat="44.59581" lon="2.93833">
        <ele>951</ele>
        <time>2012-09-12T14:06:11Z</time>
      </trkpt>
      <trkpt lat="44.59585" lon="2.93821">
        <ele>949</ele>
        <time>2012-09-12T14:06:22Z</time>
      </trkpt>
      <trkpt lat="44.59582" lon="2.93821">
        <ele>942</ele>
        <time>2012-09-12T14:06:40Z</time>
      </trkpt>
      <trkpt lat="44.59583" lon="2.93826">
        <ele>942</ele>
        <time>2012-09-12T14:06:51Z</time>
      </trkpt>
      <trkpt lat="44.59585" lon="2.93832">
        <ele>945</ele>
        <time>2012-09-12T14:07:05Z</time>
      </trkpt>
      <trkpt lat="44.59578" lon="2.93836">
        <ele>952</ele>
        <time>2012-09-12T14:07:52Z</time>
      </trkpt>
      <trkpt lat="44.59583" lon="2.93805">
        <ele>957</ele>
        <time>2012-09-12T14:08:05Z</time>
      </trkpt>
      <trkpt lat="44.59583" lon="2.93786">
        <ele>962</ele>
        <time>2012-09-12T14:08:15Z</time>
      </trkpt>
      <trkpt lat="44.59587" lon="2.93779">
        <ele>948</ele>
        <time>2012-09-12T14:08:27Z</time>
      </trkpt>
      <trkpt lat="44.59589" lon="2.93766">
        <ele>950</ele>
        <time>2012-09-12T14:08:37Z</time>
      </trkpt>
      <trkpt lat="44.59594" lon="2.93754">
        <ele>950</ele>
        <time>2012-09-12T14:08:47Z</time>
      </trkpt>
      <trkpt lat="44.59593" lon="2.93749">
        <ele>980</ele>
        <time>2012-09-12T14:09:03Z</time>
      </trkpt>
      <trkpt lat="44.59584" lon="2.93749">
        <ele>999</ele>
        <time>2012-09-12T14:09:20Z</time>
      </trkpt>
      <trkpt lat="44.59581" lon="2.93753">
        <ele>982</ele>
        <time>2012-09-12T14:09:37Z</time>
      </trkpt>
      <trkpt lat="44.59587" lon="2.93748">
        <ele>1003</ele>
        <time>2012-09-12T14:09:50Z</time>
      </trkpt>
      <trkpt lat="44.59597" lon="2.9375">
        <ele>1004</ele>
        <time>2012-09-12T14:10:02Z</time>
      </trkpt>
      <trkpt lat="44.59602" lon="2.93752">
        <ele>1004</ele>
        <time>2012-09-12T14:10:14Z</time>
      </trkpt>
      <trkpt lat="44.5961" lon="2.93747">
        <ele>1010</ele>
        <time>2012-09-12T14:10:24Z</time>
      </trkpt>
      <trkpt lat="44.59625" lon="2.93744">
        <ele>993</ele>
        <time>2012-09-12T14:11:05Z</time>
      </trkpt>
      <trkpt lat="44.59583" lon="2.93771">
        <ele>976</ele>
        <time>2012-09-12T14:11:16Z</time>
      </trkpt>
      <trkpt lat="44.59575" lon="2.93789">
        <ele>968</ele>
        <time>2012-09-12T14:11:28Z</time>
      </trkpt>
      <trkpt lat="44.59577" lon="2.93786">
        <ele>963</ele>
        <time>2012-09-12T14:11:40Z</time>
      </trkpt>
      <trkpt lat="44.59578" lon="2.9377">
        <ele>952</ele>
        <time>2012-09-12T14:11:50Z</time>
      </trkpt>
      <trkpt lat="44.59578" lon="2.93741">
        <ele>955</ele>
        <time>2012-09-12T14:12:01Z</time>
      </trkpt>
      <trkpt lat="44.5957" lon="2.93715">
        <ele>956</ele>
        <time>2012-09-12T14:12:12Z</time>
      </trkpt>
      <trkpt lat="44.59561" lon="2.93713">
        <ele>952</ele>
        <time>2012-09-12T14:12:22Z</time>
      </trkpt>
      <trkpt lat="44.59556" lon="2.93712">
        <ele>935</ele>
        <time>2012-09-12T14:12:35Z</time>
      </trkpt>
      <trkpt lat="44.59548" lon="2.93703">
        <ele>938</ele>
        <time>2012-09-12T14:12:47Z</time>
      </trkpt>
      <trkpt lat="44.59538" lon="2.93708">
        <ele>942</ele>
        <time>2012-09-12T14:13:00Z</time>
      </trkpt>
      <trkpt lat="44.59534" lon="2.93706">
        <ele>943</ele>
        <time>2012-09-12T14:13:19Z</time>
      </trkpt>
      <trkpt lat="44.5953" lon="2.93698">
        <ele>948</ele>
        <time>2012-09-12T14:13:31Z</time>
      </trkpt>
      <trkpt lat="44.59532" lon="2.93694">
        <ele>950</ele>
        <time>2012-09-12T14:13:41Z</time>
      </trkpt>
      <trkpt lat="44.59533" lon="2.9369">
        <ele>995</ele>
        <time>2012-09-12T14:13:59Z</time>
      </trkpt>
      <trkpt lat="44.59524" lon="2.93689">
        <ele>994</ele>
        <time>2012-09-12T14:14:11Z</time>
      </trkpt>
      <trkpt lat="44.5952" lon="2.93677">
        <ele>976</ele>
        <time>2012-09-12T14:14:22Z</time>
      </trkpt>
      <trkpt lat="44.59519" lon="2.93658">
        <ele>962</ele>
        <time>2012-09-12T14:14:32Z</time>
      </trkpt>
      <trkpt lat="44.59514" lon="2.93647">
        <ele>955</ele>
        <time>2012-09-12T14:14:43Z</time>
      </trkpt>
      <trkpt lat="44.59503" lon="2.93631">
        <ele>951</ele>
        <time>2012-09-12T14:14:55Z</time>
      </trkpt>
      <trkpt lat="44.59496" lon="2.9362">
        <ele>948</ele>
        <time>2012-09-12T14:15:05Z</time>
      </trkpt>
      <trkpt lat="44.5949" lon="2.93602">
        <ele>946</ele>
        <time>2012-09-12T14:15:15Z</time>
      </trkpt>
      <trkpt lat="44.59482" lon="2.93585">
        <ele>935</ele>
        <time>2012-09-12T14:15:27Z</time>
      </trkpt>
      <trkpt lat="44.59474" lon="2.9357">
        <ele>935</ele>
        <time>2012-09-12T14:15:38Z</time>
      </trkpt>
      <trkpt lat="44.59476" lon="2.93559">
        <ele>937</ele>
        <time>2012-09-12T14:15:50Z</time>
      </trkpt>
      <trkpt lat="44.59474" lon="2.93542">
        <ele>929</ele>
        <time>2012-09-12T14:16:00Z</time>
      </trkpt>
      <trkpt lat="44.5947" lon="2.93531">
        <ele>926</ele>
        <time>2012-09-12T14:16:18Z</time>
      </trkpt>
      <trkpt lat="44.59459" lon="2.93524">
        <ele>921</ele>
        <time>2012-09-12T14:16:30Z</time>
      </trkpt>
      <trkpt lat="44.59451" lon="2.93515">
        <ele>925</ele>
        <time>2012-09-12T14:16:43Z</time>
      </trkpt>
      <trkpt lat="44.59452" lon="2.93502">
        <ele>917</ele>
        <time>2012-09-12T14:16:56Z</time>
      </trkpt>
      <trkpt lat="44.59449" lon="2.93488">
        <ele>928</ele>
        <time>2012-09-12T14:17:09Z</time>
      </trkpt>
      <trkpt lat="44.59445" lon="2.93462">
        <ele>929</ele>
        <time>2012-09-12T14:17:20Z</time>
      </trkpt>
      <trkpt lat="44.59444" lon="2.9345">
        <ele>930</ele>
        <time>2012-09-12T14:17:31Z</time>
      </trkpt>
      <trkpt lat="44.59447" lon="2.93439">
        <ele>922</ele>
        <time>2012-09-12T14:17:46Z</time>
      </trkpt>
      <trkpt lat="44.59447" lon="2.93431">
        <ele>925</ele>
        <time>2012-09-12T14:17:59Z</time>
      </trkpt>
      <trkpt lat="44.59439" lon="2.9342">
        <ele>912</ele>
        <time>2012-09-12T14:18:12Z</time>
      </trkpt>
      <trkpt lat="44.59429" lon="2.93408">
        <ele>917</ele>
        <time>2012-09-12T14:18:23Z</time>
      </trkpt>
      <trkpt lat="44.59422" lon="2.934">
        <ele>920</ele>
        <time>2012-09-12T14:18:33Z</time>
      </trkpt>
      <trkpt lat="44.59408" lon="2.93376">
        <ele>935</ele>
        <time>2012-09-12T14:18:44Z</time>
      </trkpt>
      <trkpt lat="44.59406" lon="2.93355">
        <ele>923</ele>
        <time>2012-09-12T14:18:56Z</time>
      </trkpt>
      <trkpt lat="44.59409" lon="2.93337">
        <ele>928</ele>
        <time>2012-09-12T14:19:13Z</time>
      </trkpt>
      <trkpt lat="44.59412" lon="2.9332">
        <ele>923</ele>
        <time>2012-09-12T14:19:25Z</time>
      </trkpt>
      <trkpt lat="44.59421" lon="2.93313">
        <ele>922</ele>
        <time>2012-09-12T14:19:36Z</time>
      </trkpt>
      <trkpt lat="44.5942" lon="2.93301">
        <ele>930</ele>
        <time>2012-09-12T14:19:50Z</time>
      </trkpt>
      <trkpt lat="44.59417" lon="2.93284">
        <ele>929</ele>
        <time>2012-09-12T14:20:01Z</time>
      </trkpt>
      <trkpt lat="44.59409" lon="2.93263">
        <ele>921</ele>
        <time>2012-09-12T14:20:12Z</time>
      </trkpt>
      <trkpt lat="44.59401" lon="2.93244">
        <ele>920</ele>
        <time>2012-09-12T14:20:23Z</time>
      </trkpt>
      <trkpt lat="44.59395" lon="2.93232">
        <ele>935</ele>
        <time>2012-09-12T14:20:33Z</time>
      </trkpt>
      <trkpt lat="44.5939" lon="2.93223">
        <ele>945</ele>
        <time>2012-09-12T14:20:44Z</time>
      </trkpt>
      <trkpt lat="44.59383" lon="2.93207">
        <ele>944</ele>
        <time>2012-09-12T14:20:56Z</time>
      </trkpt>
      <trkpt lat="44.59382" lon="2.93189">
        <ele>941</ele>
        <time>2012-09-12T14:21:09Z</time>
      </trkpt>
      <trkpt lat="44.5938" lon="2.93176">
        <ele>943</ele>
        <time>2012-09-12T14:21:20Z</time>
      </trkpt>
      <trkpt lat="44.59375" lon="2.93165">
        <ele>938</ele>
        <time>2012-09-12T14:21:34Z</time>
      </trkpt>
      <trkpt lat="44.59372" lon="2.93153">
        <ele>942</ele>
        <time>2012-09-12T14:21:47Z</time>
      </trkpt>
      <trkpt lat="44.59364" lon="2.93134">
        <ele>959</ele>
        <time>2012-09-12T14:21:59Z</time>
      </trkpt>
      <trkpt lat="44.59356" lon="2.9313">
        <ele>960</ele>
        <time>2012-09-12T14:22:09Z</time>
      </trkpt>
      <trkpt lat="44.59352" lon="2.93112">
        <ele>946</ele>
        <time>2012-09-12T14:22:21Z</time>
      </trkpt>
      <trkpt lat="44.59349" lon="2.93094">
        <ele>931</ele>
        <time>2012-09-12T14:22:33Z</time>
      </trkpt>
      <trkpt lat="44.59344" lon="2.93076">
        <ele>911</ele>
        <time>2012-09-12T14:22:44Z</time>
      </trkpt>
      <trkpt lat="44.59343" lon="2.93063">
        <ele>906</ele>
        <time>2012-09-12T14:22:55Z</time>
      </trkpt>
      <trkpt lat="44.59333" lon="2.93049">
        <ele>909</ele>
        <time>2012-09-12T14:23:07Z</time>
      </trkpt>
      <trkpt lat="44.59329" lon="2.93031">
        <ele>908</ele>
        <time>2012-09-12T14:23:18Z</time>
      </trkpt>
      <trkpt lat="44.59327" lon="2.93023">
        <ele>903</ele>
        <time>2012-09-12T14:23:31Z</time>
      </trkpt>
      <trkpt lat="44.59332" lon="2.92999">
        <ele>917</ele>
        <time>2012-09-12T14:23:45Z</time>
      </trkpt>
      <trkpt lat="44.59327" lon="2.92988">
        <ele>920</ele>
        <time>2012-09-12T14:23:55Z</time>
      </trkpt>
      <trkpt lat="44.59328" lon="2.92976">
        <ele>906</ele>
        <time>2012-09-12T14:24:06Z</time>
      </trkpt>
      <trkpt lat="44.5933" lon="2.92954">
        <ele>914</ele>
        <time>2012-09-12T14:24:19Z</time>
      </trkpt>
      <trkpt lat="44.59327" lon="2.92943">
        <ele>911</ele>
        <time>2012-09-12T14:24:32Z</time>
      </trkpt>
      <trkpt lat="44.59324" lon="2.9293">
        <ele>907</ele>
        <time>2012-09-12T14:24:43Z</time>
      </trkpt>
      <trkpt lat="44.5932" lon="2.92912">
        <ele>908</ele>
        <time>2012-09-12T14:24:57Z</time>
      </trkpt>
      <trkpt lat="44.59322" lon="2.92889">
        <ele>899</ele>
        <time>2012-09-12T14:25:08Z</time>
      </trkpt>
      <trkpt lat="44.59323" lon="2.9287">
        <ele>898</ele>
        <time>2012-09-12T14:25:20Z</time>
      </trkpt>
      <trkpt lat="44.59305" lon="2.92873">
        <ele>938</ele>
        <time>2012-09-12T14:25:32Z</time>
      </trkpt>
      <trkpt lat="44.59316" lon="2.92851">
        <ele>914</ele>
        <time>2012-09-12T14:25:46Z</time>
      </trkpt>
      <trkpt lat="44.59319" lon="2.92835">
        <ele>914</ele>
        <time>2012-09-12T14:25:56Z</time>
      </trkpt>
      <trkpt lat="44.59325" lon="2.92813">
        <ele>900</ele>
        <time>2012-09-12T14:26:09Z</time>
      </trkpt>
      <trkpt lat="44.59319" lon="2.92797">
        <ele>894</ele>
        <time>2012-09-12T14:26:20Z</time>
      </trkpt>
      <trkpt lat="44.59309" lon="2.92782">
        <ele>894</ele>
        <time>2012-09-12T14:26:35Z</time>
      </trkpt>
      <trkpt lat="44.59301" lon="2.92771">
        <ele>897</ele>
        <time>2012-09-12T14:26:48Z</time>
      </trkpt>
      <trkpt lat="44.59295" lon="2.9276">
        <ele>905</ele>
        <time>2012-09-12T14:27:00Z</time>
      </trkpt>
      <trkpt lat="44.59292" lon="2.92745">
        <ele>901</ele>
        <time>2012-09-12T14:27:12Z</time>
      </trkpt>
      <trkpt lat="44.59286" lon="2.9273">
        <ele>903</ele>
        <time>2012-09-12T14:27:23Z</time>
      </trkpt>
      <trkpt lat="44.59283" lon="2.9271">
        <ele>905</ele>
        <time>2012-09-12T14:27:35Z</time>
      </trkpt>
      <trkpt lat="44.59279" lon="2.92698">
        <ele>899</ele>
        <time>2012-09-12T14:27:45Z</time>
      </trkpt>
      <trkpt lat="44.59275" lon="2.92691">
        <ele>890</ele>
        <time>2012-09-12T14:27:57Z</time>
      </trkpt>
      <trkpt lat="44.59272" lon="2.92678">
        <ele>899</ele>
        <time>2012-09-12T14:28:09Z</time>
      </trkpt>
      <trkpt lat="44.59273" lon="2.92666">
        <ele>891</ele>
        <time>2012-09-12T14:28:20Z</time>
      </trkpt>
      <trkpt lat="44.59273" lon="2.92658">
        <ele>896</ele>
        <time>2012-09-12T14:28:32Z</time>
      </trkpt>
      <trkpt lat="44.59269" lon="2.9264">
        <ele>888</ele>
        <time>2012-09-12T14:28:46Z</time>
      </trkpt>
      <trkpt lat="44.59265" lon="2.92617">
        <ele>885</ele>
        <time>2012-09-12T14:29:00Z</time>
      </trkpt>
      <trkpt lat="44.59262" lon="2.92605">
        <ele>883</ele>
        <time>2012-09-12T14:29:13Z</time>
      </trkpt>
      <trkpt lat="44.59261" lon="2.92596">
        <ele>887</ele>
        <time>2012-09-12T14:29:24Z</time>
      </trkpt>
      <trkpt lat="44.59259" lon="2.9258">
        <ele>889</ele>
        <time>2012-09-12T14:29:36Z</time>
      </trkpt>
      <trkpt lat="44.59254" lon="2.92565">
        <ele>888</ele>
        <time>2012-09-12T14:29:48Z</time>
      </trkpt>
      <trkpt lat="44.59251" lon="2.92546">
        <ele>880</ele>
        <time>2012-09-12T14:30:02Z</time>
      </trkpt>
      <trkpt lat="44.59246" lon="2.92542">
        <ele>883</ele>
        <time>2012-09-12T14:30:19Z</time>
      </trkpt>
      <trkpt lat="44.59247" lon="2.92537">
        <ele>883</ele>
        <time>2012-09-12T14:30:47Z</time>
      </trkpt>
      <trkpt lat="44.59245" lon="2.92524">
        <ele>887</ele>
        <time>2012-09-12T14:31:03Z</time>
      </trkpt>
      <trkpt lat="44.59243" lon="2.92505">
        <ele>885</ele>
        <time>2012-09-12T14:31:15Z</time>
      </trkpt>
      <trkpt lat="44.59228" lon="2.92495">
        <ele>875</ele>
        <time>2012-09-12T14:31:28Z</time>
      </trkpt>
      <trkpt lat="44.59224" lon="2.92489">
        <ele>881</ele>
        <time>2012-09-12T14:31:40Z</time>
      </trkpt>
      <trkpt lat="44.59217" lon="2.92478">
        <ele>883</ele>
        <time>2012-09-12T14:31:50Z</time>
      </trkpt>
      <trkpt lat="44.59206" lon="2.92467">
        <ele>879</ele>
        <time>2012-09-12T14:32:03Z</time>
      </trkpt>
      <trkpt lat="44.59196" lon="2.92458">
        <ele>877</ele>
        <time>2012-09-12T14:32:14Z</time>
      </trkpt>
      <trkpt lat="44.59189" lon="2.92449">
        <ele>874</ele>
        <time>2012-09-12T14:32:25Z</time>
      </trkpt>
      <trkpt lat="44.59185" lon="2.92439">
        <ele>869</ele>
        <time>2012-09-12T14:32:38Z</time>
      </trkpt>
      <trkpt lat="44.59174" lon="2.92432">
        <ele>872</ele>
        <time>2012-09-12T14:32:50Z</time>
      </trkpt>
      <trkpt lat="44.59168" lon="2.9242">
        <ele>864</ele>
        <time>2012-09-12T14:33:01Z</time>
      </trkpt>
      <trkpt lat="44.59165" lon="2.92417">
        <ele>869</ele>
        <time>2012-09-12T14:33:14Z</time>
      </trkpt>
      <trkpt lat="44.59159" lon="2.92407">
        <ele>868</ele>
        <time>2012-09-12T14:33:28Z</time>
      </trkpt>
      <trkpt lat="44.59149" lon="2.92398">
        <ele>866</ele>
        <time>2012-09-12T14:33:40Z</time>
      </trkpt>
      <trkpt lat="44.59141" lon="2.92395">
        <ele>876</ele>
        <time>2012-09-12T14:33:53Z</time>
      </trkpt>
      <trkpt lat="44.59132" lon="2.9239">
        <ele>866</ele>
        <time>2012-09-12T14:34:05Z</time>
      </trkpt>
      <trkpt lat="44.59126" lon="2.92381">
        <ele>875</ele>
        <time>2012-09-12T14:34:16Z</time>
      </trkpt>
      <trkpt lat="44.59119" lon="2.92365">
        <ele>872</ele>
        <time>2012-09-12T14:34:27Z</time>
      </trkpt>
      <trkpt lat="44.59114" lon="2.92349">
        <ele>867</ele>
        <time>2012-09-12T14:34:37Z</time>
      </trkpt>
      <trkpt lat="44.59113" lon="2.9233">
        <ele>876</ele>
        <time>2012-09-12T14:34:49Z</time>
      </trkpt>
      <trkpt lat="44.5911" lon="2.92316">
        <ele>868</ele>
        <time>2012-09-12T14:35:00Z</time>
      </trkpt>
      <trkpt lat="44.59104" lon="2.92296">
        <ele>869</ele>
        <time>2012-09-12T14:35:13Z</time>
      </trkpt>
      <trkpt lat="44.59106" lon="2.92283">
        <ele>869</ele>
        <time>2012-09-12T14:35:23Z</time>
      </trkpt>
      <trkpt lat="44.59109" lon="2.92277">
        <ele>865</ele>
        <time>2012-09-12T14:36:01Z</time>
      </trkpt>
      <trkpt lat="44.59108" lon="2.92271">
        <ele>866</ele>
        <time>2012-09-12T14:36:12Z</time>
      </trkpt>
      <trkpt lat="44.59106" lon="2.92262">
        <ele>863</ele>
        <time>2012-09-12T14:36:24Z</time>
      </trkpt>
      <trkpt lat="44.59103" lon="2.9225">
        <ele>862</ele>
        <time>2012-09-12T14:36:37Z</time>
      </trkpt>
      <trkpt lat="44.59106" lon="2.92247">
        <ele>861</ele>
        <time>2012-09-12T14:36:55Z</time>
      </trkpt>
      <trkpt lat="44.59114" lon="2.92249">
        <ele>872</ele>
        <time>2012-09-12T14:38:12Z</time>
      </trkpt>
      <trkpt lat="44.59108" lon="2.92249">
        <ele>877</ele>
        <time>2012-09-12T14:38:24Z</time>
      </trkpt>
      <trkpt lat="44.59104" lon="2.92238">
        <ele>871</ele>
        <time>2012-09-12T14:38:36Z</time>
      </trkpt>
      <trkpt lat="44.591" lon="2.92227">
        <ele>870</ele>
        <time>2012-09-12T14:38:49Z</time>
      </trkpt>
      <trkpt lat="44.59099" lon="2.92217">
        <ele>867</ele>
        <time>2012-09-12T14:39:37Z</time>
      </trkpt>
      <trkpt lat="44.591" lon="2.92209">
        <ele>867</ele>
        <time>2012-09-12T14:39:48Z</time>
      </trkpt>
      <trkpt lat="44.59099" lon="2.92191">
        <ele>865</ele>
        <time>2012-09-12T14:40:00Z</time>
      </trkpt>
      <trkpt lat="44.59096" lon="2.92175">
        <ele>871</ele>
        <time>2012-09-12T14:40:12Z</time>
      </trkpt>
      <trkpt lat="44.59091" lon="2.9216">
        <ele>867</ele>
        <time>2012-09-12T14:40:25Z</time>
      </trkpt>
      <trkpt lat="44.59091" lon="2.92135">
        <ele>869</ele>
        <time>2012-09-12T14:40:39Z</time>
      </trkpt>
      <trkpt lat="44.59082" lon="2.92117">
        <ele>870</ele>
        <time>2012-09-12T14:40:51Z</time>
      </trkpt>
      <trkpt lat="44.59081" lon="2.92098">
        <ele>873</ele>
        <time>2012-09-12T14:41:03Z</time>
      </trkpt>
      <trkpt lat="44.59081" lon="2.92078">
        <ele>872</ele>
        <time>2012-09-12T14:41:15Z</time>
      </trkpt>
      <trkpt lat="44.59079" lon="2.9206">
        <ele>873</ele>
        <time>2012-09-12T14:41:27Z</time>
      </trkpt>
      <trkpt lat="44.59065" lon="2.92044">
        <ele>873</ele>
        <time>2012-09-12T14:41:38Z</time>
      </trkpt>
      <trkpt lat="44.59062" lon="2.92035">
        <ele>869</ele>
        <time>2012-09-12T14:41:51Z</time>
      </trkpt>
      <trkpt lat="44.59071" lon="2.92031">
        <ele>868</ele>
        <time>2012-09-12T14:42:02Z</time>
      </trkpt>
      <trkpt lat="44.59067" lon="2.92035">
        <ele>848</ele>
        <time>2012-09-12T14:50:30Z</time>
      </trkpt>
      <trkpt lat="44.59143" lon="2.91844">
        <ele>854.4</ele>
        <time>2012-09-12T14:59:22Z</time>
      </trkpt>
      <trkpt lat="44.59139" lon="2.91849">
        <ele>633</ele>
        <time>2012-09-12T14:59:55Z</time>
      </trkpt>
    </trkseg>
  </trk>
</gpx>